<?xml version="1.0" encoding="UTF-8" standalone="no" ?>
<gpx xmlns="http://www.topografix.com/GPX/1/1" xmlns:xsi="http://www.w3.org/2001/XMLSchema-instance" xsi:schemaLocation="http://www.topografix.com/GPX/1/1 http://www.topografix.com/GPX/1/1/gpx.xsd" version="1.1" creator="VisuGPX - https://www.visugpx.com">
  <metadata>
    <name>Rando Cascade saut du chien,Montézic</name>
    <desc><![CDATA[superbe rando!]]></desc>
  </metadata>
  <trk>
    <name><![CDATA[Rando Cascade saut du chien,Montézic_1]]></name>
    <trkseg>
      <trkpt lat="44.73106" lon="2.64891">
        <ele>673.4</ele>
        <time>2022-04-28T10:27:08Z</time>
      </trkpt>
      <trkpt lat="44.73121" lon="2.64877">
        <ele>672.6</ele>
        <time>2022-04-28T10:27:24Z</time>
      </trkpt>
      <trkpt lat="44.73126" lon="2.64867">
        <ele>672.4</ele>
        <time>2022-04-28T10:27:33Z</time>
      </trkpt>
      <trkpt lat="44.73128" lon="2.64862">
        <ele>671.8</ele>
        <time>2022-04-28T10:27:37Z</time>
      </trkpt>
      <trkpt lat="44.73128" lon="2.64858">
        <ele>671.6</ele>
        <time>2022-04-28T10:27:40Z</time>
      </trkpt>
      <trkpt lat="44.73128" lon="2.64857">
        <ele>671.6</ele>
        <time>2022-04-28T10:27:42Z</time>
      </trkpt>
      <trkpt lat="44.73129" lon="2.64856">
        <ele>671.6</ele>
        <time>2022-04-28T10:27:43Z</time>
      </trkpt>
      <trkpt lat="44.73131" lon="2.64855">
        <ele>671.6</ele>
        <time>2022-04-28T10:27:44Z</time>
      </trkpt>
      <trkpt lat="44.73129" lon="2.64852">
        <ele>671.8</ele>
        <time>2022-04-28T10:27:47Z</time>
      </trkpt>
      <trkpt lat="44.73128" lon="2.6485">
        <ele>671.8</ele>
        <time>2022-04-28T10:27:48Z</time>
      </trkpt>
      <trkpt lat="44.73126" lon="2.64844">
        <ele>671.4</ele>
        <time>2022-04-28T10:27:52Z</time>
      </trkpt>
      <trkpt lat="44.73135" lon="2.6484">
        <ele>671</ele>
        <time>2022-04-28T10:27:55Z</time>
      </trkpt>
      <trkpt lat="44.73142" lon="2.64834">
        <ele>670.6</ele>
        <time>2022-04-28T10:27:59Z</time>
      </trkpt>
      <trkpt lat="44.73143" lon="2.64832">
        <ele>670.4</ele>
        <time>2022-04-28T10:28:01Z</time>
      </trkpt>
      <trkpt lat="44.73144" lon="2.64832">
        <ele>670.4</ele>
        <time>2022-04-28T10:28:02Z</time>
      </trkpt>
      <trkpt lat="44.73145" lon="2.64831">
        <ele>670.4</ele>
        <time>2022-04-28T10:28:04Z</time>
      </trkpt>
      <trkpt lat="44.7315" lon="2.64827">
        <ele>669.6</ele>
        <time>2022-04-28T10:28:12Z</time>
      </trkpt>
      <trkpt lat="44.73151" lon="2.64827">
        <ele>669.6</ele>
        <time>2022-04-28T10:28:13Z</time>
      </trkpt>
      <trkpt lat="44.73159" lon="2.64829">
        <ele>669.2</ele>
        <time>2022-04-28T10:28:18Z</time>
      </trkpt>
      <trkpt lat="44.73166" lon="2.64824">
        <ele>668.4</ele>
        <time>2022-04-28T10:28:25Z</time>
      </trkpt>
      <trkpt lat="44.73167" lon="2.64823">
        <ele>668</ele>
        <time>2022-04-28T10:28:26Z</time>
      </trkpt>
      <trkpt lat="44.73171" lon="2.64819">
        <ele>667.6</ele>
        <time>2022-04-28T10:28:31Z</time>
      </trkpt>
      <trkpt lat="44.73173" lon="2.64818">
        <ele>667.6</ele>
        <time>2022-04-28T10:28:33Z</time>
      </trkpt>
      <trkpt lat="44.73177" lon="2.64813">
        <ele>667</ele>
        <time>2022-04-28T10:28:39Z</time>
      </trkpt>
      <trkpt lat="44.73178" lon="2.64811">
        <ele>666.8</ele>
        <time>2022-04-28T10:28:42Z</time>
      </trkpt>
      <trkpt lat="44.73179" lon="2.64811">
        <ele>666.8</ele>
        <time>2022-04-28T10:28:43Z</time>
      </trkpt>
      <trkpt lat="44.73183" lon="2.64811">
        <ele>666.4</ele>
        <time>2022-04-28T10:28:49Z</time>
      </trkpt>
      <trkpt lat="44.73182" lon="2.64809">
        <ele>666.4</ele>
        <time>2022-04-28T10:28:50Z</time>
      </trkpt>
      <trkpt lat="44.73183" lon="2.64806">
        <ele>666.4</ele>
        <time>2022-04-28T10:28:57Z</time>
      </trkpt>
      <trkpt lat="44.73188" lon="2.64802">
        <ele>666.4</ele>
        <time>2022-04-28T10:29:04Z</time>
      </trkpt>
      <trkpt lat="44.7319" lon="2.64793">
        <ele>666.4</ele>
        <time>2022-04-28T10:29:13Z</time>
      </trkpt>
      <trkpt lat="44.73195" lon="2.64791">
        <ele>663.6</ele>
        <time>2022-04-28T10:29:19Z</time>
      </trkpt>
      <trkpt lat="44.73197" lon="2.64791">
        <ele>663.6</ele>
        <time>2022-04-28T10:29:21Z</time>
      </trkpt>
      <trkpt lat="44.73205" lon="2.64792">
        <ele>663</ele>
        <time>2022-04-28T10:29:28Z</time>
      </trkpt>
      <trkpt lat="44.73206" lon="2.64793">
        <ele>662.8</ele>
        <time>2022-04-28T10:29:30Z</time>
      </trkpt>
      <trkpt lat="44.73208" lon="2.64794">
        <ele>662.6</ele>
        <time>2022-04-28T10:29:33Z</time>
      </trkpt>
      <trkpt lat="44.73211" lon="2.64794">
        <ele>662.2</ele>
        <time>2022-04-28T10:29:36Z</time>
      </trkpt>
      <trkpt lat="44.73212" lon="2.64794">
        <ele>662.2</ele>
        <time>2022-04-28T10:29:37Z</time>
      </trkpt>
      <trkpt lat="44.73217" lon="2.64797">
        <ele>661.4</ele>
        <time>2022-04-28T10:29:42Z</time>
      </trkpt>
      <trkpt lat="44.73218" lon="2.64797">
        <ele>661.2</ele>
        <time>2022-04-28T10:29:44Z</time>
      </trkpt>
      <trkpt lat="44.73225" lon="2.64802">
        <ele>660.4</ele>
        <time>2022-04-28T10:29:51Z</time>
      </trkpt>
      <trkpt lat="44.73227" lon="2.64803">
        <ele>660</ele>
        <time>2022-04-28T10:29:53Z</time>
      </trkpt>
      <trkpt lat="44.73229" lon="2.64806">
        <ele>659.6</ele>
        <time>2022-04-28T10:29:56Z</time>
      </trkpt>
      <trkpt lat="44.73234" lon="2.64808">
        <ele>659.2</ele>
        <time>2022-04-28T10:29:59Z</time>
      </trkpt>
      <trkpt lat="44.73241" lon="2.64814">
        <ele>658.4</ele>
        <time>2022-04-28T10:30:06Z</time>
      </trkpt>
      <trkpt lat="44.73242" lon="2.64814">
        <ele>658.2</ele>
        <time>2022-04-28T10:30:07Z</time>
      </trkpt>
      <trkpt lat="44.73243" lon="2.64814">
        <ele>658.2</ele>
        <time>2022-04-28T10:30:08Z</time>
      </trkpt>
      <trkpt lat="44.73245" lon="2.64816">
        <ele>658</ele>
        <time>2022-04-28T10:30:11Z</time>
      </trkpt>
      <trkpt lat="44.73246" lon="2.64816">
        <ele>658</ele>
        <time>2022-04-28T10:30:13Z</time>
      </trkpt>
      <trkpt lat="44.73245" lon="2.64816">
        <ele>658</ele>
        <time>2022-04-28T10:30:14Z</time>
      </trkpt>
      <trkpt lat="44.73245" lon="2.64816">
        <ele>657.8</ele>
        <time>2022-04-28T10:30:15Z</time>
      </trkpt>
      <trkpt lat="44.73244" lon="2.64816">
        <ele>657.8</ele>
        <time>2022-04-28T10:30:18Z</time>
      </trkpt>
      <trkpt lat="44.73244" lon="2.64811">
        <ele>657.6</ele>
        <time>2022-04-28T10:30:21Z</time>
      </trkpt>
      <trkpt lat="44.73244" lon="2.64806">
        <ele>657.6</ele>
        <time>2022-04-28T10:30:25Z</time>
      </trkpt>
      <trkpt lat="44.73245" lon="2.64806">
        <ele>657.6</ele>
        <time>2022-04-28T10:30:27Z</time>
      </trkpt>
      <trkpt lat="44.73245" lon="2.64807">
        <ele>657.4</ele>
        <time>2022-04-28T10:30:29Z</time>
      </trkpt>
      <trkpt lat="44.73248" lon="2.64811">
        <ele>657.8</ele>
        <time>2022-04-28T10:30:36Z</time>
      </trkpt>
      <trkpt lat="44.73247" lon="2.64808">
        <ele>657.6</ele>
        <time>2022-04-28T10:30:43Z</time>
      </trkpt>
      <trkpt lat="44.73248" lon="2.64817">
        <ele>657.6</ele>
        <time>2022-04-28T10:30:52Z</time>
      </trkpt>
      <trkpt lat="44.73254" lon="2.64823">
        <ele>657</ele>
        <time>2022-04-28T10:30:59Z</time>
      </trkpt>
      <trkpt lat="44.73256" lon="2.64825">
        <ele>657</ele>
        <time>2022-04-28T10:31:02Z</time>
      </trkpt>
      <trkpt lat="44.73256" lon="2.64825">
        <ele>656.8</ele>
        <time>2022-04-28T10:31:05Z</time>
      </trkpt>
      <trkpt lat="44.7326" lon="2.64826">
        <ele>656.6</ele>
        <time>2022-04-28T10:31:12Z</time>
      </trkpt>
      <trkpt lat="44.73261" lon="2.6483">
        <ele>656.6</ele>
        <time>2022-04-28T10:31:18Z</time>
      </trkpt>
      <trkpt lat="44.73263" lon="2.6483">
        <ele>656</ele>
        <time>2022-04-28T10:31:22Z</time>
      </trkpt>
      <trkpt lat="44.73263" lon="2.64832">
        <ele>655.8</ele>
        <time>2022-04-28T10:31:24Z</time>
      </trkpt>
      <trkpt lat="44.73264" lon="2.64837">
        <ele>655.2</ele>
        <time>2022-04-28T10:31:28Z</time>
      </trkpt>
      <trkpt lat="44.73265" lon="2.6484">
        <ele>655</ele>
        <time>2022-04-28T10:31:30Z</time>
      </trkpt>
      <trkpt lat="44.73265" lon="2.64844">
        <ele>654.2</ele>
        <time>2022-04-28T10:31:33Z</time>
      </trkpt>
      <trkpt lat="44.73265" lon="2.64847">
        <ele>653.8</ele>
        <time>2022-04-28T10:31:35Z</time>
      </trkpt>
      <trkpt lat="44.73266" lon="2.64849">
        <ele>653.6</ele>
        <time>2022-04-28T10:31:37Z</time>
      </trkpt>
      <trkpt lat="44.73267" lon="2.64853">
        <ele>653.4</ele>
        <time>2022-04-28T10:31:40Z</time>
      </trkpt>
      <trkpt lat="44.73269" lon="2.64862">
        <ele>652.8</ele>
        <time>2022-04-28T10:31:46Z</time>
      </trkpt>
      <trkpt lat="44.7327" lon="2.64866">
        <ele>652.4</ele>
        <time>2022-04-28T10:31:50Z</time>
      </trkpt>
      <trkpt lat="44.73273" lon="2.64869">
        <ele>652.2</ele>
        <time>2022-04-28T10:31:53Z</time>
      </trkpt>
      <trkpt lat="44.73274" lon="2.64874">
        <ele>652</ele>
        <time>2022-04-28T10:31:57Z</time>
      </trkpt>
      <trkpt lat="44.73275" lon="2.64876">
        <ele>651.8</ele>
        <time>2022-04-28T10:32:00Z</time>
      </trkpt>
      <trkpt lat="44.73277" lon="2.64878">
        <ele>651.8</ele>
        <time>2022-04-28T10:32:02Z</time>
      </trkpt>
      <trkpt lat="44.73278" lon="2.64879">
        <ele>651.8</ele>
        <time>2022-04-28T10:32:03Z</time>
      </trkpt>
      <trkpt lat="44.7328" lon="2.64886">
        <ele>651.6</ele>
        <time>2022-04-28T10:32:08Z</time>
      </trkpt>
      <trkpt lat="44.7328" lon="2.64887">
        <ele>651.6</ele>
        <time>2022-04-28T10:32:09Z</time>
      </trkpt>
      <trkpt lat="44.73281" lon="2.64887">
        <ele>651.4</ele>
        <time>2022-04-28T10:32:11Z</time>
      </trkpt>
      <trkpt lat="44.73282" lon="2.6489">
        <ele>651.4</ele>
        <time>2022-04-28T10:32:14Z</time>
      </trkpt>
      <trkpt lat="44.73287" lon="2.64898">
        <ele>650.8</ele>
        <time>2022-04-28T10:32:21Z</time>
      </trkpt>
      <trkpt lat="44.73287" lon="2.649">
        <ele>650.6</ele>
        <time>2022-04-28T10:32:22Z</time>
      </trkpt>
      <trkpt lat="44.73288" lon="2.64906">
        <ele>650</ele>
        <time>2022-04-28T10:32:27Z</time>
      </trkpt>
      <trkpt lat="44.73289" lon="2.64907">
        <ele>650</ele>
        <time>2022-04-28T10:32:28Z</time>
      </trkpt>
      <trkpt lat="44.73291" lon="2.6491">
        <ele>649.4</ele>
        <time>2022-04-28T10:32:30Z</time>
      </trkpt>
      <trkpt lat="44.73295" lon="2.64916">
        <ele>648.6</ele>
        <time>2022-04-28T10:32:35Z</time>
      </trkpt>
      <trkpt lat="44.73298" lon="2.64919">
        <ele>648</ele>
        <time>2022-04-28T10:32:38Z</time>
      </trkpt>
      <trkpt lat="44.733" lon="2.64924">
        <ele>647.4</ele>
        <time>2022-04-28T10:32:43Z</time>
      </trkpt>
      <trkpt lat="44.73301" lon="2.64924">
        <ele>647.4</ele>
        <time>2022-04-28T10:32:44Z</time>
      </trkpt>
      <trkpt lat="44.733" lon="2.64926">
        <ele>647.2</ele>
        <time>2022-04-28T10:32:46Z</time>
      </trkpt>
      <trkpt lat="44.733" lon="2.64927">
        <ele>647</ele>
        <time>2022-04-28T10:32:47Z</time>
      </trkpt>
      <trkpt lat="44.733" lon="2.64928">
        <ele>646.6</ele>
        <time>2022-04-28T10:32:48Z</time>
      </trkpt>
      <trkpt lat="44.73301" lon="2.64928">
        <ele>646.6</ele>
        <time>2022-04-28T10:32:49Z</time>
      </trkpt>
      <trkpt lat="44.733" lon="2.64929">
        <ele>646.4</ele>
        <time>2022-04-28T10:32:51Z</time>
      </trkpt>
      <trkpt lat="44.73305" lon="2.64932">
        <ele>646.4</ele>
        <time>2022-04-28T10:32:59Z</time>
      </trkpt>
      <trkpt lat="44.73302" lon="2.64938">
        <ele>646.2</ele>
        <time>2022-04-28T10:33:06Z</time>
      </trkpt>
      <trkpt lat="44.73309" lon="2.64935">
        <ele>646</ele>
        <time>2022-04-28T10:33:15Z</time>
      </trkpt>
      <trkpt lat="44.7331" lon="2.64936">
        <ele>645.8</ele>
        <time>2022-04-28T10:33:16Z</time>
      </trkpt>
      <trkpt lat="44.73306" lon="2.64945">
        <ele>644.8</ele>
        <time>2022-04-28T10:33:25Z</time>
      </trkpt>
      <trkpt lat="44.73304" lon="2.64952">
        <ele>644.2</ele>
        <time>2022-04-28T10:33:31Z</time>
      </trkpt>
      <trkpt lat="44.73304" lon="2.64955">
        <ele>644.2</ele>
        <time>2022-04-28T10:33:33Z</time>
      </trkpt>
      <trkpt lat="44.73303" lon="2.64959">
        <ele>643.6</ele>
        <time>2022-04-28T10:33:36Z</time>
      </trkpt>
      <trkpt lat="44.73305" lon="2.64964">
        <ele>643.4</ele>
        <time>2022-04-28T10:33:40Z</time>
      </trkpt>
      <trkpt lat="44.73306" lon="2.64966">
        <ele>643.2</ele>
        <time>2022-04-28T10:33:42Z</time>
      </trkpt>
      <trkpt lat="44.7331" lon="2.6497">
        <ele>643</ele>
        <time>2022-04-28T10:33:45Z</time>
      </trkpt>
      <trkpt lat="44.73312" lon="2.64972">
        <ele>642.8</ele>
        <time>2022-04-28T10:33:47Z</time>
      </trkpt>
      <trkpt lat="44.73312" lon="2.64974">
        <ele>642.6</ele>
        <time>2022-04-28T10:33:48Z</time>
      </trkpt>
      <trkpt lat="44.73312" lon="2.64975">
        <ele>642.6</ele>
        <time>2022-04-28T10:33:49Z</time>
      </trkpt>
      <trkpt lat="44.73313" lon="2.6498">
        <ele>641.8</ele>
        <time>2022-04-28T10:34:03Z</time>
      </trkpt>
      <trkpt lat="44.73317" lon="2.64986">
        <ele>641.8</ele>
        <time>2022-04-28T10:34:07Z</time>
      </trkpt>
      <trkpt lat="44.73318" lon="2.64991">
        <ele>641.6</ele>
        <time>2022-04-28T10:34:11Z</time>
      </trkpt>
      <trkpt lat="44.73319" lon="2.64992">
        <ele>641.2</ele>
        <time>2022-04-28T10:34:12Z</time>
      </trkpt>
      <trkpt lat="44.73321" lon="2.64991">
        <ele>641</ele>
        <time>2022-04-28T10:34:14Z</time>
      </trkpt>
      <trkpt lat="44.73317" lon="2.64988">
        <ele>640.4</ele>
        <time>2022-04-28T10:34:18Z</time>
      </trkpt>
      <trkpt lat="44.73319" lon="2.64987">
        <ele>639.6</ele>
        <time>2022-04-28T10:34:21Z</time>
      </trkpt>
      <trkpt lat="44.73318" lon="2.64986">
        <ele>639.2</ele>
        <time>2022-04-28T10:34:23Z</time>
      </trkpt>
      <trkpt lat="44.73317" lon="2.64985">
        <ele>638.8</ele>
        <time>2022-04-28T10:34:26Z</time>
      </trkpt>
      <trkpt lat="44.73317" lon="2.64984">
        <ele>638.2</ele>
        <time>2022-04-28T10:34:28Z</time>
      </trkpt>
      <trkpt lat="44.73317" lon="2.64983">
        <ele>638.2</ele>
        <time>2022-04-28T10:34:29Z</time>
      </trkpt>
      <trkpt lat="44.73319" lon="2.64982">
        <ele>638</ele>
        <time>2022-04-28T10:34:30Z</time>
      </trkpt>
      <trkpt lat="44.73324" lon="2.6498">
        <ele>637.2</ele>
        <time>2022-04-28T10:34:34Z</time>
      </trkpt>
      <trkpt lat="44.73325" lon="2.64979">
        <ele>637.2</ele>
        <time>2022-04-28T10:34:35Z</time>
      </trkpt>
      <trkpt lat="44.73326" lon="2.64979">
        <ele>637</ele>
        <time>2022-04-28T10:34:36Z</time>
      </trkpt>
      <trkpt lat="44.73332" lon="2.64979">
        <ele>636.2</ele>
        <time>2022-04-28T10:34:41Z</time>
      </trkpt>
      <trkpt lat="44.73333" lon="2.64979">
        <ele>636</ele>
        <time>2022-04-28T10:34:42Z</time>
      </trkpt>
      <trkpt lat="44.73334" lon="2.64979">
        <ele>635.6</ele>
        <time>2022-04-28T10:34:43Z</time>
      </trkpt>
      <trkpt lat="44.73339" lon="2.6498">
        <ele>635</ele>
        <time>2022-04-28T10:34:47Z</time>
      </trkpt>
      <trkpt lat="44.7334" lon="2.64979">
        <ele>634.6</ele>
        <time>2022-04-28T10:34:48Z</time>
      </trkpt>
      <trkpt lat="44.73342" lon="2.64979">
        <ele>634.4</ele>
        <time>2022-04-28T10:34:49Z</time>
      </trkpt>
      <trkpt lat="44.73346" lon="2.64978">
        <ele>634</ele>
        <time>2022-04-28T10:34:52Z</time>
      </trkpt>
      <trkpt lat="44.73347" lon="2.64978">
        <ele>633.6</ele>
        <time>2022-04-28T10:34:54Z</time>
      </trkpt>
      <trkpt lat="44.73347" lon="2.64978">
        <ele>633.6</ele>
        <time>2022-04-28T10:34:55Z</time>
      </trkpt>
      <trkpt lat="44.73349" lon="2.64979">
        <ele>633.4</ele>
        <time>2022-04-28T10:34:58Z</time>
      </trkpt>
      <trkpt lat="44.7335" lon="2.6498">
        <ele>633</ele>
        <time>2022-04-28T10:35:01Z</time>
      </trkpt>
      <trkpt lat="44.7335" lon="2.6498">
        <ele>632.8</ele>
        <time>2022-04-28T10:35:02Z</time>
      </trkpt>
      <trkpt lat="44.73347" lon="2.64979">
        <ele>634</ele>
        <time>2022-04-28T10:35:06Z</time>
      </trkpt>
      <trkpt lat="44.73351" lon="2.64979">
        <ele>633.4</ele>
        <time>2022-04-28T10:35:09Z</time>
      </trkpt>
      <trkpt lat="44.73348" lon="2.64979">
        <ele>632.6</ele>
        <time>2022-04-28T10:35:15Z</time>
      </trkpt>
      <trkpt lat="44.73346" lon="2.64979">
        <ele>634</ele>
        <time>2022-04-28T10:35:16Z</time>
      </trkpt>
      <trkpt lat="44.73347" lon="2.64979">
        <ele>634</ele>
        <time>2022-04-28T10:35:17Z</time>
      </trkpt>
      <trkpt lat="44.73348" lon="2.64979">
        <ele>633.2</ele>
        <time>2022-04-28T10:35:26Z</time>
      </trkpt>
      <trkpt lat="44.73352" lon="2.6498">
        <ele>633.4</ele>
        <time>2022-04-28T10:35:33Z</time>
      </trkpt>
      <trkpt lat="44.73356" lon="2.64978">
        <ele>633</ele>
        <time>2022-04-28T10:35:37Z</time>
      </trkpt>
      <trkpt lat="44.73363" lon="2.64974">
        <ele>632.2</ele>
        <time>2022-04-28T10:35:43Z</time>
      </trkpt>
      <trkpt lat="44.73364" lon="2.64973">
        <ele>631.8</ele>
        <time>2022-04-28T10:35:46Z</time>
      </trkpt>
      <trkpt lat="44.73364" lon="2.6497">
        <ele>631.2</ele>
        <time>2022-04-28T10:35:50Z</time>
      </trkpt>
      <trkpt lat="44.73372" lon="2.64966">
        <ele>630.8</ele>
        <time>2022-04-28T10:35:56Z</time>
      </trkpt>
      <trkpt lat="44.73374" lon="2.64966">
        <ele>630.8</ele>
        <time>2022-04-28T10:35:57Z</time>
      </trkpt>
      <trkpt lat="44.7338" lon="2.64966">
        <ele>630.8</ele>
        <time>2022-04-28T10:36:00Z</time>
      </trkpt>
      <trkpt lat="44.73375" lon="2.64969">
        <ele>631</ele>
        <time>2022-04-28T10:36:05Z</time>
      </trkpt>
      <trkpt lat="44.73371" lon="2.64972">
        <ele>630.8</ele>
        <time>2022-04-28T10:36:18Z</time>
      </trkpt>
      <trkpt lat="44.73369" lon="2.64971">
        <ele>631.6</ele>
        <time>2022-04-28T10:36:32Z</time>
      </trkpt>
      <trkpt lat="44.73369" lon="2.64971">
        <ele>631.8</ele>
        <time>2022-04-28T10:36:33Z</time>
      </trkpt>
      <trkpt lat="44.73367" lon="2.64971">
        <ele>632.4</ele>
        <time>2022-04-28T10:36:42Z</time>
      </trkpt>
      <trkpt lat="44.7336" lon="2.64973">
        <ele>632.6</ele>
        <time>2022-04-28T10:36:57Z</time>
      </trkpt>
      <trkpt lat="44.7336" lon="2.64973">
        <ele>632.8</ele>
        <time>2022-04-28T10:37:02Z</time>
      </trkpt>
      <trkpt lat="44.73361" lon="2.64972">
        <ele>632.4</ele>
        <time>2022-04-28T10:37:11Z</time>
      </trkpt>
      <trkpt lat="44.73361" lon="2.64975">
        <ele>632.6</ele>
        <time>2022-04-28T10:37:27Z</time>
      </trkpt>
      <trkpt lat="44.73348" lon="2.64973">
        <ele>632.6</ele>
        <time>2022-04-28T10:37:40Z</time>
      </trkpt>
      <trkpt lat="44.73354" lon="2.64974">
        <ele>632.8</ele>
        <time>2022-04-28T10:37:55Z</time>
      </trkpt>
      <trkpt lat="44.73353" lon="2.64971">
        <ele>632.8</ele>
        <time>2022-04-28T10:38:10Z</time>
      </trkpt>
      <trkpt lat="44.73356" lon="2.64972">
        <ele>632.8</ele>
        <time>2022-04-28T10:38:24Z</time>
      </trkpt>
      <trkpt lat="44.73354" lon="2.64973">
        <ele>632.6</ele>
        <time>2022-04-28T10:38:41Z</time>
      </trkpt>
      <trkpt lat="44.73355" lon="2.64975">
        <ele>631.8</ele>
        <time>2022-04-28T10:38:49Z</time>
      </trkpt>
      <trkpt lat="44.73357" lon="2.64976">
        <ele>632.2</ele>
        <time>2022-04-28T10:38:55Z</time>
      </trkpt>
      <trkpt lat="44.73352" lon="2.64978">
        <ele>633.4</ele>
        <time>2022-04-28T10:39:02Z</time>
      </trkpt>
      <trkpt lat="44.73354" lon="2.64978">
        <ele>632.6</ele>
        <time>2022-04-28T10:39:09Z</time>
      </trkpt>
      <trkpt lat="44.73354" lon="2.64977">
        <ele>632.6</ele>
        <time>2022-04-28T10:39:25Z</time>
      </trkpt>
      <trkpt lat="44.73354" lon="2.64975">
        <ele>632.6</ele>
        <time>2022-04-28T10:39:41Z</time>
      </trkpt>
      <trkpt lat="44.73353" lon="2.64975">
        <ele>632.6</ele>
        <time>2022-04-28T10:39:56Z</time>
      </trkpt>
      <trkpt lat="44.73349" lon="2.64974">
        <ele>632.6</ele>
        <time>2022-04-28T10:40:11Z</time>
      </trkpt>
      <trkpt lat="44.73348" lon="2.64974">
        <ele>632.6</ele>
        <time>2022-04-28T10:40:15Z</time>
      </trkpt>
      <trkpt lat="44.73341" lon="2.64981">
        <ele>632.6</ele>
        <time>2022-04-28T10:40:28Z</time>
      </trkpt>
      <trkpt lat="44.73334" lon="2.64986">
        <ele>632.6</ele>
        <time>2022-04-28T10:40:48Z</time>
      </trkpt>
      <trkpt lat="44.73339" lon="2.64985">
        <ele>632.6</ele>
        <time>2022-04-28T10:41:01Z</time>
      </trkpt>
      <trkpt lat="44.7335" lon="2.64979">
        <ele>635.8</ele>
        <time>2022-04-28T10:41:08Z</time>
      </trkpt>
      <trkpt lat="44.73358" lon="2.64977">
        <ele>635.8</ele>
        <time>2022-04-28T10:41:14Z</time>
      </trkpt>
      <trkpt lat="44.73364" lon="2.64978">
        <ele>635.8</ele>
        <time>2022-04-28T10:41:18Z</time>
      </trkpt>
      <trkpt lat="44.73365" lon="2.64979">
        <ele>635.6</ele>
        <time>2022-04-28T10:41:20Z</time>
      </trkpt>
      <trkpt lat="44.73367" lon="2.6498">
        <ele>635.6</ele>
        <time>2022-04-28T10:41:25Z</time>
      </trkpt>
      <trkpt lat="44.73367" lon="2.64979">
        <ele>635.6</ele>
        <time>2022-04-28T10:41:27Z</time>
      </trkpt>
      <trkpt lat="44.73367" lon="2.64979">
        <ele>635.6</ele>
        <time>2022-04-28T10:41:28Z</time>
      </trkpt>
      <trkpt lat="44.73366" lon="2.64979">
        <ele>635.8</ele>
        <time>2022-04-28T10:41:30Z</time>
      </trkpt>
      <trkpt lat="44.73354" lon="2.64979">
        <ele>636.2</ele>
        <time>2022-04-28T10:41:41Z</time>
      </trkpt>
      <trkpt lat="44.73349" lon="2.64979">
        <ele>635.6</ele>
        <time>2022-04-28T10:41:57Z</time>
      </trkpt>
      <trkpt lat="44.73352" lon="2.64981">
        <ele>633.4</ele>
        <time>2022-04-28T10:42:05Z</time>
      </trkpt>
      <trkpt lat="44.73352" lon="2.64982">
        <ele>632.6</ele>
        <time>2022-04-28T10:42:12Z</time>
      </trkpt>
      <trkpt lat="44.73347" lon="2.64982">
        <ele>634</ele>
        <time>2022-04-28T10:42:25Z</time>
      </trkpt>
      <trkpt lat="44.73346" lon="2.64982">
        <ele>634.6</ele>
        <time>2022-04-28T10:42:28Z</time>
      </trkpt>
      <trkpt lat="44.73341" lon="2.64981">
        <ele>635.2</ele>
        <time>2022-04-28T10:42:34Z</time>
      </trkpt>
      <trkpt lat="44.73339" lon="2.6498">
        <ele>635.6</ele>
        <time>2022-04-28T10:42:36Z</time>
      </trkpt>
      <trkpt lat="44.73337" lon="2.6498">
        <ele>636</ele>
        <time>2022-04-28T10:42:38Z</time>
      </trkpt>
      <trkpt lat="44.73335" lon="2.64979">
        <ele>636</ele>
        <time>2022-04-28T10:42:39Z</time>
      </trkpt>
      <trkpt lat="44.73332" lon="2.64979">
        <ele>636</ele>
        <time>2022-04-28T10:42:42Z</time>
      </trkpt>
      <trkpt lat="44.7333" lon="2.64979">
        <ele>636.6</ele>
        <time>2022-04-28T10:42:44Z</time>
      </trkpt>
      <trkpt lat="44.73329" lon="2.64979">
        <ele>637.2</ele>
        <time>2022-04-28T10:42:46Z</time>
      </trkpt>
      <trkpt lat="44.73326" lon="2.64981">
        <ele>637.8</ele>
        <time>2022-04-28T10:42:49Z</time>
      </trkpt>
      <trkpt lat="44.73324" lon="2.64983">
        <ele>638.6</ele>
        <time>2022-04-28T10:42:52Z</time>
      </trkpt>
      <trkpt lat="44.73324" lon="2.64984">
        <ele>638.8</ele>
        <time>2022-04-28T10:42:53Z</time>
      </trkpt>
      <trkpt lat="44.73322" lon="2.64985">
        <ele>639</ele>
        <time>2022-04-28T10:42:55Z</time>
      </trkpt>
      <trkpt lat="44.73315" lon="2.64987">
        <ele>639.4</ele>
        <time>2022-04-28T10:42:59Z</time>
      </trkpt>
      <trkpt lat="44.73312" lon="2.64988">
        <ele>640.2</ele>
        <time>2022-04-28T10:43:02Z</time>
      </trkpt>
      <trkpt lat="44.73305" lon="2.64993">
        <ele>641</ele>
        <time>2022-04-28T10:43:06Z</time>
      </trkpt>
      <trkpt lat="44.73304" lon="2.64994">
        <ele>641.2</ele>
        <time>2022-04-28T10:43:07Z</time>
      </trkpt>
      <trkpt lat="44.733" lon="2.65004">
        <ele>642</ele>
        <time>2022-04-28T10:43:17Z</time>
      </trkpt>
      <trkpt lat="44.73299" lon="2.65006">
        <ele>642.2</ele>
        <time>2022-04-28T10:43:19Z</time>
      </trkpt>
      <trkpt lat="44.73305" lon="2.65008">
        <ele>642.4</ele>
        <time>2022-04-28T10:43:25Z</time>
      </trkpt>
      <trkpt lat="44.7331" lon="2.65011">
        <ele>642.4</ele>
        <time>2022-04-28T10:43:30Z</time>
      </trkpt>
      <trkpt lat="44.7331" lon="2.65013">
        <ele>642.2</ele>
        <time>2022-04-28T10:43:32Z</time>
      </trkpt>
      <trkpt lat="44.73315" lon="2.65018">
        <ele>642</ele>
        <time>2022-04-28T10:43:37Z</time>
      </trkpt>
      <trkpt lat="44.73317" lon="2.65019">
        <ele>641.8</ele>
        <time>2022-04-28T10:43:39Z</time>
      </trkpt>
      <trkpt lat="44.73323" lon="2.65024">
        <ele>641.2</ele>
        <time>2022-04-28T10:43:44Z</time>
      </trkpt>
      <trkpt lat="44.73325" lon="2.65025">
        <ele>640.8</ele>
        <time>2022-04-28T10:43:45Z</time>
      </trkpt>
      <trkpt lat="44.7333" lon="2.65032">
        <ele>640</ele>
        <time>2022-04-28T10:43:51Z</time>
      </trkpt>
      <trkpt lat="44.73331" lon="2.65032">
        <ele>640</ele>
        <time>2022-04-28T10:43:52Z</time>
      </trkpt>
      <trkpt lat="44.73331" lon="2.65033">
        <ele>639.8</ele>
        <time>2022-04-28T10:43:53Z</time>
      </trkpt>
      <trkpt lat="44.73332" lon="2.65035">
        <ele>639.8</ele>
        <time>2022-04-28T10:43:54Z</time>
      </trkpt>
      <trkpt lat="44.73333" lon="2.65036">
        <ele>639.6</ele>
        <time>2022-04-28T10:43:56Z</time>
      </trkpt>
      <trkpt lat="44.73336" lon="2.65039">
        <ele>639.6</ele>
        <time>2022-04-28T10:44:00Z</time>
      </trkpt>
      <trkpt lat="44.73337" lon="2.65039">
        <ele>639.2</ele>
        <time>2022-04-28T10:44:01Z</time>
      </trkpt>
      <trkpt lat="44.73336" lon="2.65041">
        <ele>639</ele>
        <time>2022-04-28T10:44:03Z</time>
      </trkpt>
      <trkpt lat="44.73337" lon="2.65041">
        <ele>639</ele>
        <time>2022-04-28T10:44:04Z</time>
      </trkpt>
      <trkpt lat="44.73337" lon="2.65044">
        <ele>638.8</ele>
        <time>2022-04-28T10:44:08Z</time>
      </trkpt>
      <trkpt lat="44.73337" lon="2.65045">
        <ele>638.6</ele>
        <time>2022-04-28T10:44:11Z</time>
      </trkpt>
      <trkpt lat="44.73337" lon="2.65044">
        <ele>638</ele>
        <time>2022-04-28T10:44:14Z</time>
      </trkpt>
      <trkpt lat="44.73336" lon="2.65043">
        <ele>638</ele>
        <time>2022-04-28T10:44:15Z</time>
      </trkpt>
      <trkpt lat="44.73328" lon="2.65036">
        <ele>637.4</ele>
        <time>2022-04-28T10:44:23Z</time>
      </trkpt>
      <trkpt lat="44.73327" lon="2.65033">
        <ele>636.8</ele>
        <time>2022-04-28T10:44:30Z</time>
      </trkpt>
      <trkpt lat="44.73328" lon="2.6503">
        <ele>635.8</ele>
        <time>2022-04-28T10:44:36Z</time>
      </trkpt>
      <trkpt lat="44.73329" lon="2.6503">
        <ele>635.6</ele>
        <time>2022-04-28T10:44:37Z</time>
      </trkpt>
      <trkpt lat="44.73334" lon="2.65027">
        <ele>635</ele>
        <time>2022-04-28T10:44:43Z</time>
      </trkpt>
      <trkpt lat="44.7334" lon="2.6503">
        <ele>635</ele>
        <time>2022-04-28T10:44:49Z</time>
      </trkpt>
      <trkpt lat="44.73337" lon="2.65031">
        <ele>635</ele>
        <time>2022-04-28T10:44:55Z</time>
      </trkpt>
      <trkpt lat="44.73336" lon="2.6503">
        <ele>634.8</ele>
        <time>2022-04-28T10:44:59Z</time>
      </trkpt>
      <trkpt lat="44.73336" lon="2.6503">
        <ele>634.8</ele>
        <time>2022-04-28T10:45:00Z</time>
      </trkpt>
      <trkpt lat="44.73339" lon="2.65026">
        <ele>635.6</ele>
        <time>2022-04-28T10:45:08Z</time>
      </trkpt>
      <trkpt lat="44.73339" lon="2.65026">
        <ele>635.6</ele>
        <time>2022-04-28T10:45:14Z</time>
      </trkpt>
      <trkpt lat="44.73337" lon="2.65027">
        <ele>635.4</ele>
        <time>2022-04-28T10:45:21Z</time>
      </trkpt>
      <trkpt lat="44.73332" lon="2.65026">
        <ele>635.2</ele>
        <time>2022-04-28T10:45:26Z</time>
      </trkpt>
      <trkpt lat="44.73328" lon="2.65028">
        <ele>634.2</ele>
        <time>2022-04-28T10:45:38Z</time>
      </trkpt>
      <trkpt lat="44.73338" lon="2.65031">
        <ele>634.8</ele>
        <time>2022-04-28T10:45:46Z</time>
      </trkpt>
      <trkpt lat="44.73349" lon="2.65036">
        <ele>635</ele>
        <time>2022-04-28T10:45:56Z</time>
      </trkpt>
      <trkpt lat="44.73347" lon="2.65033">
        <ele>635.2</ele>
        <time>2022-04-28T10:46:03Z</time>
      </trkpt>
      <trkpt lat="44.73346" lon="2.65035">
        <ele>635.2</ele>
        <time>2022-04-28T10:46:10Z</time>
      </trkpt>
      <trkpt lat="44.73342" lon="2.65032">
        <ele>634.8</ele>
        <time>2022-04-28T10:46:17Z</time>
      </trkpt>
      <trkpt lat="44.73342" lon="2.65031">
        <ele>635.8</ele>
        <time>2022-04-28T10:46:22Z</time>
      </trkpt>
      <trkpt lat="44.73342" lon="2.65032">
        <ele>636</ele>
        <time>2022-04-28T10:46:24Z</time>
      </trkpt>
      <trkpt lat="44.73343" lon="2.65029">
        <ele>635.6</ele>
        <time>2022-04-28T10:46:28Z</time>
      </trkpt>
      <trkpt lat="44.73344" lon="2.65027">
        <ele>635.8</ele>
        <time>2022-04-28T10:46:36Z</time>
      </trkpt>
      <trkpt lat="44.73343" lon="2.65026">
        <ele>635.8</ele>
        <time>2022-04-28T10:46:44Z</time>
      </trkpt>
      <trkpt lat="44.73343" lon="2.65026">
        <ele>634.8</ele>
        <time>2022-04-28T10:46:50Z</time>
      </trkpt>
      <trkpt lat="44.73343" lon="2.65027">
        <ele>634.8</ele>
        <time>2022-04-28T10:46:51Z</time>
      </trkpt>
      <trkpt lat="44.73345" lon="2.65028">
        <ele>634.6</ele>
        <time>2022-04-28T10:46:56Z</time>
      </trkpt>
      <trkpt lat="44.73347" lon="2.65032">
        <ele>635.4</ele>
        <time>2022-04-28T10:47:01Z</time>
      </trkpt>
      <trkpt lat="44.73354" lon="2.65035">
        <ele>635.6</ele>
        <time>2022-04-28T10:47:08Z</time>
      </trkpt>
      <trkpt lat="44.73354" lon="2.65035">
        <ele>635.8</ele>
        <time>2022-04-28T10:47:10Z</time>
      </trkpt>
      <trkpt lat="44.73349" lon="2.65034">
        <ele>635.8</ele>
        <time>2022-04-28T10:47:16Z</time>
      </trkpt>
      <trkpt lat="44.73344" lon="2.65034">
        <ele>635.2</ele>
        <time>2022-04-28T10:47:24Z</time>
      </trkpt>
      <trkpt lat="44.7334" lon="2.65031">
        <ele>635.6</ele>
        <time>2022-04-28T10:47:30Z</time>
      </trkpt>
      <trkpt lat="44.73339" lon="2.65024">
        <ele>635.6</ele>
        <time>2022-04-28T10:47:38Z</time>
      </trkpt>
      <trkpt lat="44.73342" lon="2.65026">
        <ele>636.2</ele>
        <time>2022-04-28T10:47:46Z</time>
      </trkpt>
      <trkpt lat="44.73338" lon="2.65028">
        <ele>635.6</ele>
        <time>2022-04-28T10:47:51Z</time>
      </trkpt>
      <trkpt lat="44.73339" lon="2.65031">
        <ele>634.8</ele>
        <time>2022-04-28T10:47:59Z</time>
      </trkpt>
      <trkpt lat="44.73349" lon="2.65037">
        <ele>635.2</ele>
        <time>2022-04-28T10:48:07Z</time>
      </trkpt>
      <trkpt lat="44.73347" lon="2.65037">
        <ele>635.4</ele>
        <time>2022-04-28T10:48:12Z</time>
      </trkpt>
      <trkpt lat="44.73352" lon="2.65039">
        <ele>635.4</ele>
        <time>2022-04-28T10:48:19Z</time>
      </trkpt>
      <trkpt lat="44.73362" lon="2.65041">
        <ele>635.4</ele>
        <time>2022-04-28T10:48:30Z</time>
      </trkpt>
      <trkpt lat="44.73361" lon="2.6504">
        <ele>635.4</ele>
        <time>2022-04-28T10:48:39Z</time>
      </trkpt>
      <trkpt lat="44.73355" lon="2.65036">
        <ele>635.4</ele>
        <time>2022-04-28T10:48:47Z</time>
      </trkpt>
      <trkpt lat="44.73348" lon="2.65031">
        <ele>635.4</ele>
        <time>2022-04-28T10:48:54Z</time>
      </trkpt>
      <trkpt lat="44.73348" lon="2.65032">
        <ele>635.4</ele>
        <time>2022-04-28T10:49:03Z</time>
      </trkpt>
      <trkpt lat="44.73348" lon="2.65032">
        <ele>635.4</ele>
        <time>2022-04-28T10:49:11Z</time>
      </trkpt>
      <trkpt lat="44.73346" lon="2.65032">
        <ele>635.4</ele>
        <time>2022-04-28T10:49:19Z</time>
      </trkpt>
      <trkpt lat="44.73344" lon="2.65034">
        <ele>635.4</ele>
        <time>2022-04-28T10:49:26Z</time>
      </trkpt>
      <trkpt lat="44.73334" lon="2.65033">
        <ele>635.4</ele>
        <time>2022-04-28T10:49:33Z</time>
      </trkpt>
      <trkpt lat="44.7333" lon="2.65034">
        <ele>637.4</ele>
        <time>2022-04-28T10:49:38Z</time>
      </trkpt>
      <trkpt lat="44.73326" lon="2.65034">
        <ele>637.4</ele>
        <time>2022-04-28T10:49:41Z</time>
      </trkpt>
      <trkpt lat="44.73323" lon="2.65035">
        <ele>638.2</ele>
        <time>2022-04-28T10:49:44Z</time>
      </trkpt>
      <trkpt lat="44.73322" lon="2.65035">
        <ele>638.6</ele>
        <time>2022-04-28T10:49:45Z</time>
      </trkpt>
      <trkpt lat="44.73322" lon="2.65035">
        <ele>639</ele>
        <time>2022-04-28T10:49:46Z</time>
      </trkpt>
      <trkpt lat="44.7332" lon="2.65036">
        <ele>640</ele>
        <time>2022-04-28T10:49:49Z</time>
      </trkpt>
      <trkpt lat="44.73318" lon="2.65038">
        <ele>641</ele>
        <time>2022-04-28T10:49:56Z</time>
      </trkpt>
      <trkpt lat="44.7332" lon="2.65039">
        <ele>641.4</ele>
        <time>2022-04-28T10:50:03Z</time>
      </trkpt>
      <trkpt lat="44.73323" lon="2.65036">
        <ele>641.2</ele>
        <time>2022-04-28T10:50:09Z</time>
      </trkpt>
      <trkpt lat="44.73321" lon="2.65029">
        <ele>642</ele>
        <time>2022-04-28T10:50:13Z</time>
      </trkpt>
      <trkpt lat="44.73317" lon="2.65025">
        <ele>643</ele>
        <time>2022-04-28T10:50:16Z</time>
      </trkpt>
      <trkpt lat="44.73315" lon="2.65021">
        <ele>644</ele>
        <time>2022-04-28T10:50:20Z</time>
      </trkpt>
      <trkpt lat="44.73314" lon="2.65021">
        <ele>644</ele>
        <time>2022-04-28T10:50:21Z</time>
      </trkpt>
      <trkpt lat="44.73313" lon="2.65019">
        <ele>644.2</ele>
        <time>2022-04-28T10:50:23Z</time>
      </trkpt>
      <trkpt lat="44.73311" lon="2.65018">
        <ele>644.4</ele>
        <time>2022-04-28T10:50:24Z</time>
      </trkpt>
      <trkpt lat="44.7331" lon="2.65014">
        <ele>644.6</ele>
        <time>2022-04-28T10:50:27Z</time>
      </trkpt>
      <trkpt lat="44.73309" lon="2.6501">
        <ele>644.8</ele>
        <time>2022-04-28T10:50:29Z</time>
      </trkpt>
      <trkpt lat="44.73306" lon="2.65004">
        <ele>645.2</ele>
        <time>2022-04-28T10:50:33Z</time>
      </trkpt>
      <trkpt lat="44.73307" lon="2.65001">
        <ele>645.4</ele>
        <time>2022-04-28T10:50:36Z</time>
      </trkpt>
      <trkpt lat="44.73308" lon="2.65">
        <ele>645.2</ele>
        <time>2022-04-28T10:50:37Z</time>
      </trkpt>
      <trkpt lat="44.73308" lon="2.64994">
        <ele>644.2</ele>
        <time>2022-04-28T10:50:41Z</time>
      </trkpt>
      <trkpt lat="44.73309" lon="2.64992">
        <ele>643.4</ele>
        <time>2022-04-28T10:50:44Z</time>
      </trkpt>
      <trkpt lat="44.7331" lon="2.6499">
        <ele>642.8</ele>
        <time>2022-04-28T10:50:46Z</time>
      </trkpt>
      <trkpt lat="44.73311" lon="2.64987">
        <ele>642.4</ele>
        <time>2022-04-28T10:50:48Z</time>
      </trkpt>
      <trkpt lat="44.7331" lon="2.64984">
        <ele>642</ele>
        <time>2022-04-28T10:50:50Z</time>
      </trkpt>
      <trkpt lat="44.7331" lon="2.64984">
        <ele>641.6</ele>
        <time>2022-04-28T10:50:51Z</time>
      </trkpt>
      <trkpt lat="44.73312" lon="2.64984">
        <ele>641</ele>
        <time>2022-04-28T10:50:53Z</time>
      </trkpt>
      <trkpt lat="44.73314" lon="2.64986">
        <ele>640.4</ele>
        <time>2022-04-28T10:50:56Z</time>
      </trkpt>
      <trkpt lat="44.73318" lon="2.64989">
        <ele>639.4</ele>
        <time>2022-04-28T10:50:59Z</time>
      </trkpt>
      <trkpt lat="44.73318" lon="2.64989">
        <ele>639</ele>
        <time>2022-04-28T10:51:00Z</time>
      </trkpt>
      <trkpt lat="44.7332" lon="2.64989">
        <ele>638.2</ele>
        <time>2022-04-28T10:51:03Z</time>
      </trkpt>
      <trkpt lat="44.73324" lon="2.64988">
        <ele>637.4</ele>
        <time>2022-04-28T10:51:06Z</time>
      </trkpt>
      <trkpt lat="44.73327" lon="2.64987">
        <ele>637</ele>
        <time>2022-04-28T10:51:08Z</time>
      </trkpt>
      <trkpt lat="44.73329" lon="2.64986">
        <ele>636.8</ele>
        <time>2022-04-28T10:51:10Z</time>
      </trkpt>
      <trkpt lat="44.73331" lon="2.64985">
        <ele>636.6</ele>
        <time>2022-04-28T10:51:11Z</time>
      </trkpt>
      <trkpt lat="44.73331" lon="2.64985">
        <ele>636.2</ele>
        <time>2022-04-28T10:51:12Z</time>
      </trkpt>
      <trkpt lat="44.73331" lon="2.64985">
        <ele>635.8</ele>
        <time>2022-04-28T10:51:13Z</time>
      </trkpt>
      <trkpt lat="44.73339" lon="2.64982">
        <ele>635</ele>
        <time>2022-04-28T10:51:17Z</time>
      </trkpt>
      <trkpt lat="44.73339" lon="2.64982">
        <ele>634.6</ele>
        <time>2022-04-28T10:51:18Z</time>
      </trkpt>
      <trkpt lat="44.73337" lon="2.6498">
        <ele>633.8</ele>
        <time>2022-04-28T10:51:20Z</time>
      </trkpt>
      <trkpt lat="44.73337" lon="2.64979">
        <ele>633.4</ele>
        <time>2022-04-28T10:51:21Z</time>
      </trkpt>
      <trkpt lat="44.73336" lon="2.64975">
        <ele>632.8</ele>
        <time>2022-04-28T10:51:24Z</time>
      </trkpt>
      <trkpt lat="44.73336" lon="2.64974">
        <ele>632.6</ele>
        <time>2022-04-28T10:51:27Z</time>
      </trkpt>
      <trkpt lat="44.73332" lon="2.64974">
        <ele>633</ele>
        <time>2022-04-28T10:51:31Z</time>
      </trkpt>
      <trkpt lat="44.73331" lon="2.64977">
        <ele>632.8</ele>
        <time>2022-04-28T10:51:41Z</time>
      </trkpt>
      <trkpt lat="44.73331" lon="2.64977">
        <ele>632.4</ele>
        <time>2022-04-28T10:51:47Z</time>
      </trkpt>
      <trkpt lat="44.73332" lon="2.64975">
        <ele>633</ele>
        <time>2022-04-28T10:51:55Z</time>
      </trkpt>
      <trkpt lat="44.73333" lon="2.64975">
        <ele>632.4</ele>
        <time>2022-04-28T10:52:10Z</time>
      </trkpt>
      <trkpt lat="44.73333" lon="2.64976">
        <ele>632.4</ele>
        <time>2022-04-28T10:52:25Z</time>
      </trkpt>
      <trkpt lat="44.73331" lon="2.64978">
        <ele>633.4</ele>
        <time>2022-04-28T10:52:29Z</time>
      </trkpt>
      <trkpt lat="44.7333" lon="2.64978">
        <ele>633.8</ele>
        <time>2022-04-28T10:52:30Z</time>
      </trkpt>
      <trkpt lat="44.73329" lon="2.64979">
        <ele>634.6</ele>
        <time>2022-04-28T10:52:33Z</time>
      </trkpt>
      <trkpt lat="44.73326" lon="2.64978">
        <ele>635.6</ele>
        <time>2022-04-28T10:52:36Z</time>
      </trkpt>
      <trkpt lat="44.73326" lon="2.64979">
        <ele>636</ele>
        <time>2022-04-28T10:52:37Z</time>
      </trkpt>
      <trkpt lat="44.73322" lon="2.64978">
        <ele>637</ele>
        <time>2022-04-28T10:52:42Z</time>
      </trkpt>
      <trkpt lat="44.73318" lon="2.64976">
        <ele>638.2</ele>
        <time>2022-04-28T10:52:46Z</time>
      </trkpt>
      <trkpt lat="44.73315" lon="2.64976">
        <ele>639.4</ele>
        <time>2022-04-28T10:52:49Z</time>
      </trkpt>
      <trkpt lat="44.73314" lon="2.64977">
        <ele>639.8</ele>
        <time>2022-04-28T10:52:50Z</time>
      </trkpt>
      <trkpt lat="44.73313" lon="2.64979">
        <ele>640.4</ele>
        <time>2022-04-28T10:52:52Z</time>
      </trkpt>
      <trkpt lat="44.73311" lon="2.64981">
        <ele>641</ele>
        <time>2022-04-28T10:52:54Z</time>
      </trkpt>
      <trkpt lat="44.73309" lon="2.64983">
        <ele>641.8</ele>
        <time>2022-04-28T10:52:56Z</time>
      </trkpt>
      <trkpt lat="44.73309" lon="2.64983">
        <ele>642.2</ele>
        <time>2022-04-28T10:52:57Z</time>
      </trkpt>
      <trkpt lat="44.7331" lon="2.64982">
        <ele>642.4</ele>
        <time>2022-04-28T10:52:58Z</time>
      </trkpt>
      <trkpt lat="44.73311" lon="2.64985">
        <ele>643</ele>
        <time>2022-04-28T10:53:01Z</time>
      </trkpt>
      <trkpt lat="44.7331" lon="2.64988">
        <ele>642.6</ele>
        <time>2022-04-28T10:53:03Z</time>
      </trkpt>
      <trkpt lat="44.73306" lon="2.64993">
        <ele>643</ele>
        <time>2022-04-28T10:53:08Z</time>
      </trkpt>
      <trkpt lat="44.73307" lon="2.64997">
        <ele>643.2</ele>
        <time>2022-04-28T10:53:10Z</time>
      </trkpt>
      <trkpt lat="44.73309" lon="2.65007">
        <ele>643</ele>
        <time>2022-04-28T10:53:16Z</time>
      </trkpt>
      <trkpt lat="44.73309" lon="2.6501">
        <ele>643</ele>
        <time>2022-04-28T10:53:18Z</time>
      </trkpt>
      <trkpt lat="44.7331" lon="2.65018">
        <ele>642.8</ele>
        <time>2022-04-28T10:53:23Z</time>
      </trkpt>
      <trkpt lat="44.73311" lon="2.6502">
        <ele>642.6</ele>
        <time>2022-04-28T10:53:25Z</time>
      </trkpt>
      <trkpt lat="44.73312" lon="2.65022">
        <ele>642.4</ele>
        <time>2022-04-28T10:53:27Z</time>
      </trkpt>
      <trkpt lat="44.73311" lon="2.65022">
        <ele>642</ele>
        <time>2022-04-28T10:53:28Z</time>
      </trkpt>
      <trkpt lat="44.73311" lon="2.65023">
        <ele>641.8</ele>
        <time>2022-04-28T10:53:29Z</time>
      </trkpt>
      <trkpt lat="44.73312" lon="2.65023">
        <ele>641.6</ele>
        <time>2022-04-28T10:53:30Z</time>
      </trkpt>
      <trkpt lat="44.73313" lon="2.65026">
        <ele>640.8</ele>
        <time>2022-04-28T10:53:34Z</time>
      </trkpt>
      <trkpt lat="44.73314" lon="2.65026">
        <ele>640.6</ele>
        <time>2022-04-28T10:53:35Z</time>
      </trkpt>
      <trkpt lat="44.73318" lon="2.65028">
        <ele>642.4</ele>
        <time>2022-04-28T10:53:37Z</time>
      </trkpt>
      <trkpt lat="44.73319" lon="2.65029">
        <ele>642.4</ele>
        <time>2022-04-28T10:53:39Z</time>
      </trkpt>
      <trkpt lat="44.73323" lon="2.65029">
        <ele>642.4</ele>
        <time>2022-04-28T10:53:41Z</time>
      </trkpt>
      <trkpt lat="44.73325" lon="2.65032">
        <ele>642.6</ele>
        <time>2022-04-28T10:53:48Z</time>
      </trkpt>
      <trkpt lat="44.73329" lon="2.65036">
        <ele>642.2</ele>
        <time>2022-04-28T10:53:54Z</time>
      </trkpt>
      <trkpt lat="44.73329" lon="2.65039">
        <ele>641.4</ele>
        <time>2022-04-28T10:54:01Z</time>
      </trkpt>
      <trkpt lat="44.73329" lon="2.65039">
        <ele>641.2</ele>
        <time>2022-04-28T10:54:02Z</time>
      </trkpt>
      <trkpt lat="44.73331" lon="2.65042">
        <ele>640.8</ele>
        <time>2022-04-28T10:54:10Z</time>
      </trkpt>
      <trkpt lat="44.7333" lon="2.6505">
        <ele>640.4</ele>
        <time>2022-04-28T10:54:17Z</time>
      </trkpt>
      <trkpt lat="44.7333" lon="2.65051">
        <ele>640.2</ele>
        <time>2022-04-28T10:54:18Z</time>
      </trkpt>
      <trkpt lat="44.7333" lon="2.65053">
        <ele>640</ele>
        <time>2022-04-28T10:54:19Z</time>
      </trkpt>
      <trkpt lat="44.73329" lon="2.65058">
        <ele>639.6</ele>
        <time>2022-04-28T10:54:23Z</time>
      </trkpt>
      <trkpt lat="44.73329" lon="2.65058">
        <ele>639.6</ele>
        <time>2022-04-28T10:54:24Z</time>
      </trkpt>
      <trkpt lat="44.7333" lon="2.65062">
        <ele>639.4</ele>
        <time>2022-04-28T10:54:27Z</time>
      </trkpt>
      <trkpt lat="44.7333" lon="2.65067">
        <ele>639</ele>
        <time>2022-04-28T10:54:30Z</time>
      </trkpt>
      <trkpt lat="44.73333" lon="2.65075">
        <ele>639.2</ele>
        <time>2022-04-28T10:54:35Z</time>
      </trkpt>
      <trkpt lat="44.73337" lon="2.65086">
        <ele>638.8</ele>
        <time>2022-04-28T10:54:43Z</time>
      </trkpt>
      <trkpt lat="44.73338" lon="2.6509">
        <ele>638.8</ele>
        <time>2022-04-28T10:54:46Z</time>
      </trkpt>
      <trkpt lat="44.73334" lon="2.65097">
        <ele>638.8</ele>
        <time>2022-04-28T10:54:50Z</time>
      </trkpt>
      <trkpt lat="44.73333" lon="2.65098">
        <ele>638.6</ele>
        <time>2022-04-28T10:54:51Z</time>
      </trkpt>
      <trkpt lat="44.73332" lon="2.65101">
        <ele>638.4</ele>
        <time>2022-04-28T10:54:53Z</time>
      </trkpt>
      <trkpt lat="44.73331" lon="2.65101">
        <ele>638.2</ele>
        <time>2022-04-28T10:54:56Z</time>
      </trkpt>
      <trkpt lat="44.7333" lon="2.65101">
        <ele>638.2</ele>
        <time>2022-04-28T10:54:57Z</time>
      </trkpt>
      <trkpt lat="44.73327" lon="2.65104">
        <ele>638.2</ele>
        <time>2022-04-28T10:55:01Z</time>
      </trkpt>
      <trkpt lat="44.73325" lon="2.65105">
        <ele>638.2</ele>
        <time>2022-04-28T10:55:03Z</time>
      </trkpt>
      <trkpt lat="44.73321" lon="2.65106">
        <ele>638</ele>
        <time>2022-04-28T10:55:06Z</time>
      </trkpt>
      <trkpt lat="44.7332" lon="2.65107">
        <ele>637.8</ele>
        <time>2022-04-28T10:55:07Z</time>
      </trkpt>
      <trkpt lat="44.7332" lon="2.65108">
        <ele>637.6</ele>
        <time>2022-04-28T10:55:08Z</time>
      </trkpt>
      <trkpt lat="44.73318" lon="2.65109">
        <ele>637.2</ele>
        <time>2022-04-28T10:55:12Z</time>
      </trkpt>
      <trkpt lat="44.73315" lon="2.6511">
        <ele>637</ele>
        <time>2022-04-28T10:55:14Z</time>
      </trkpt>
      <trkpt lat="44.73314" lon="2.65111">
        <ele>636.8</ele>
        <time>2022-04-28T10:55:15Z</time>
      </trkpt>
      <trkpt lat="44.73313" lon="2.65112">
        <ele>636.8</ele>
        <time>2022-04-28T10:55:16Z</time>
      </trkpt>
      <trkpt lat="44.73305" lon="2.65121">
        <ele>635.8</ele>
        <time>2022-04-28T10:55:25Z</time>
      </trkpt>
      <trkpt lat="44.73304" lon="2.65122">
        <ele>635.8</ele>
        <time>2022-04-28T10:55:26Z</time>
      </trkpt>
      <trkpt lat="44.73302" lon="2.65125">
        <ele>635.8</ele>
        <time>2022-04-28T10:55:29Z</time>
      </trkpt>
      <trkpt lat="44.73301" lon="2.65127">
        <ele>635.8</ele>
        <time>2022-04-28T10:55:31Z</time>
      </trkpt>
      <trkpt lat="44.73299" lon="2.6513">
        <ele>635.8</ele>
        <time>2022-04-28T10:55:33Z</time>
      </trkpt>
      <trkpt lat="44.73293" lon="2.65138">
        <ele>635.8</ele>
        <time>2022-04-28T10:55:41Z</time>
      </trkpt>
      <trkpt lat="44.73293" lon="2.6514">
        <ele>636</ele>
        <time>2022-04-28T10:55:43Z</time>
      </trkpt>
      <trkpt lat="44.73292" lon="2.65142">
        <ele>636</ele>
        <time>2022-04-28T10:55:45Z</time>
      </trkpt>
      <trkpt lat="44.73291" lon="2.65144">
        <ele>636</ele>
        <time>2022-04-28T10:55:47Z</time>
      </trkpt>
      <trkpt lat="44.73291" lon="2.65145">
        <ele>636</ele>
        <time>2022-04-28T10:55:48Z</time>
      </trkpt>
      <trkpt lat="44.73286" lon="2.65152">
        <ele>636.2</ele>
        <time>2022-04-28T10:55:54Z</time>
      </trkpt>
      <trkpt lat="44.73286" lon="2.65152">
        <ele>636.2</ele>
        <time>2022-04-28T10:55:57Z</time>
      </trkpt>
      <trkpt lat="44.73285" lon="2.65153">
        <ele>636.4</ele>
        <time>2022-04-28T10:56:00Z</time>
      </trkpt>
      <trkpt lat="44.73286" lon="2.65154">
        <ele>636.6</ele>
        <time>2022-04-28T10:56:01Z</time>
      </trkpt>
      <trkpt lat="44.73288" lon="2.65155">
        <ele>636.6</ele>
        <time>2022-04-28T10:56:03Z</time>
      </trkpt>
      <trkpt lat="44.73288" lon="2.65158">
        <ele>636.8</ele>
        <time>2022-04-28T10:56:05Z</time>
      </trkpt>
      <trkpt lat="44.73287" lon="2.65159">
        <ele>636.8</ele>
        <time>2022-04-28T10:56:06Z</time>
      </trkpt>
      <trkpt lat="44.73288" lon="2.65161">
        <ele>637</ele>
        <time>2022-04-28T10:56:08Z</time>
      </trkpt>
      <trkpt lat="44.73288" lon="2.65162">
        <ele>637</ele>
        <time>2022-04-28T10:56:11Z</time>
      </trkpt>
      <trkpt lat="44.73289" lon="2.65161">
        <ele>636.8</ele>
        <time>2022-04-28T10:56:16Z</time>
      </trkpt>
      <trkpt lat="44.73291" lon="2.65158">
        <ele>637</ele>
        <time>2022-04-28T10:56:19Z</time>
      </trkpt>
      <trkpt lat="44.73291" lon="2.65156">
        <ele>637.2</ele>
        <time>2022-04-28T10:56:21Z</time>
      </trkpt>
      <trkpt lat="44.73292" lon="2.65151">
        <ele>637.8</ele>
        <time>2022-04-28T10:56:25Z</time>
      </trkpt>
      <trkpt lat="44.73293" lon="2.6515">
        <ele>638</ele>
        <time>2022-04-28T10:56:27Z</time>
      </trkpt>
      <trkpt lat="44.73294" lon="2.65149">
        <ele>638</ele>
        <time>2022-04-28T10:56:28Z</time>
      </trkpt>
      <trkpt lat="44.73298" lon="2.65148">
        <ele>638.2</ele>
        <time>2022-04-28T10:56:33Z</time>
      </trkpt>
      <trkpt lat="44.73302" lon="2.65145">
        <ele>638</ele>
        <time>2022-04-28T10:56:39Z</time>
      </trkpt>
      <trkpt lat="44.73303" lon="2.65143">
        <ele>638</ele>
        <time>2022-04-28T10:56:41Z</time>
      </trkpt>
      <trkpt lat="44.73307" lon="2.65141">
        <ele>638.2</ele>
        <time>2022-04-28T10:56:47Z</time>
      </trkpt>
      <trkpt lat="44.7331" lon="2.65142">
        <ele>638.4</ele>
        <time>2022-04-28T10:56:50Z</time>
      </trkpt>
      <trkpt lat="44.73312" lon="2.65141">
        <ele>638.6</ele>
        <time>2022-04-28T10:56:54Z</time>
      </trkpt>
      <trkpt lat="44.73317" lon="2.65137">
        <ele>638.8</ele>
        <time>2022-04-28T10:57:02Z</time>
      </trkpt>
      <trkpt lat="44.73319" lon="2.65136">
        <ele>638.8</ele>
        <time>2022-04-28T10:57:03Z</time>
      </trkpt>
      <trkpt lat="44.73322" lon="2.65133">
        <ele>639</ele>
        <time>2022-04-28T10:57:05Z</time>
      </trkpt>
      <trkpt lat="44.73327" lon="2.65132">
        <ele>639.6</ele>
        <time>2022-04-28T10:57:10Z</time>
      </trkpt>
      <trkpt lat="44.73329" lon="2.65132">
        <ele>640</ele>
        <time>2022-04-28T10:57:12Z</time>
      </trkpt>
      <trkpt lat="44.73333" lon="2.65131">
        <ele>640.4</ele>
        <time>2022-04-28T10:57:16Z</time>
      </trkpt>
      <trkpt lat="44.73334" lon="2.6513">
        <ele>640.4</ele>
        <time>2022-04-28T10:57:17Z</time>
      </trkpt>
      <trkpt lat="44.73336" lon="2.65127">
        <ele>640.4</ele>
        <time>2022-04-28T10:57:19Z</time>
      </trkpt>
      <trkpt lat="44.73344" lon="2.65126">
        <ele>640.8</ele>
        <time>2022-04-28T10:57:24Z</time>
      </trkpt>
      <trkpt lat="44.73346" lon="2.65124">
        <ele>641</ele>
        <time>2022-04-28T10:57:26Z</time>
      </trkpt>
      <trkpt lat="44.73357" lon="2.65125">
        <ele>641.6</ele>
        <time>2022-04-28T10:57:33Z</time>
      </trkpt>
      <trkpt lat="44.7336" lon="2.65125">
        <ele>641.8</ele>
        <time>2022-04-28T10:57:35Z</time>
      </trkpt>
      <trkpt lat="44.7336" lon="2.65124">
        <ele>642</ele>
        <time>2022-04-28T10:57:36Z</time>
      </trkpt>
      <trkpt lat="44.73361" lon="2.65121">
        <ele>642.6</ele>
        <time>2022-04-28T10:57:39Z</time>
      </trkpt>
      <trkpt lat="44.7336" lon="2.65119">
        <ele>642.8</ele>
        <time>2022-04-28T10:57:41Z</time>
      </trkpt>
      <trkpt lat="44.7336" lon="2.65116">
        <ele>643.2</ele>
        <time>2022-04-28T10:57:43Z</time>
      </trkpt>
      <trkpt lat="44.73361" lon="2.65112">
        <ele>643.6</ele>
        <time>2022-04-28T10:57:45Z</time>
      </trkpt>
      <trkpt lat="44.73362" lon="2.65111">
        <ele>643.8</ele>
        <time>2022-04-28T10:57:46Z</time>
      </trkpt>
      <trkpt lat="44.73362" lon="2.65108">
        <ele>644</ele>
        <time>2022-04-28T10:57:48Z</time>
      </trkpt>
      <trkpt lat="44.73364" lon="2.65107">
        <ele>644.4</ele>
        <time>2022-04-28T10:57:50Z</time>
      </trkpt>
      <trkpt lat="44.73365" lon="2.65104">
        <ele>644.6</ele>
        <time>2022-04-28T10:57:53Z</time>
      </trkpt>
      <trkpt lat="44.73365" lon="2.65103">
        <ele>644.6</ele>
        <time>2022-04-28T10:57:54Z</time>
      </trkpt>
      <trkpt lat="44.73365" lon="2.65102">
        <ele>644.6</ele>
        <time>2022-04-28T10:57:55Z</time>
      </trkpt>
      <trkpt lat="44.73368" lon="2.65095">
        <ele>645.4</ele>
        <time>2022-04-28T10:58:00Z</time>
      </trkpt>
      <trkpt lat="44.73368" lon="2.65094">
        <ele>645.4</ele>
        <time>2022-04-28T10:58:01Z</time>
      </trkpt>
      <trkpt lat="44.73373" lon="2.65089">
        <ele>646.2</ele>
        <time>2022-04-28T10:58:08Z</time>
      </trkpt>
      <trkpt lat="44.73373" lon="2.65087">
        <ele>646.4</ele>
        <time>2022-04-28T10:58:09Z</time>
      </trkpt>
      <trkpt lat="44.73379" lon="2.65081">
        <ele>647.4</ele>
        <time>2022-04-28T10:58:16Z</time>
      </trkpt>
      <trkpt lat="44.7338" lon="2.65081">
        <ele>647.6</ele>
        <time>2022-04-28T10:58:17Z</time>
      </trkpt>
      <trkpt lat="44.7338" lon="2.65081">
        <ele>647.6</ele>
        <time>2022-04-28T10:58:18Z</time>
      </trkpt>
      <trkpt lat="44.73382" lon="2.65079">
        <ele>647.8</ele>
        <time>2022-04-28T10:58:23Z</time>
      </trkpt>
      <trkpt lat="44.73383" lon="2.65079">
        <ele>647.8</ele>
        <time>2022-04-28T10:58:24Z</time>
      </trkpt>
      <trkpt lat="44.73384" lon="2.65077">
        <ele>647.8</ele>
        <time>2022-04-28T10:58:25Z</time>
      </trkpt>
      <trkpt lat="44.73385" lon="2.65073">
        <ele>647.8</ele>
        <time>2022-04-28T10:58:28Z</time>
      </trkpt>
      <trkpt lat="44.73386" lon="2.6507">
        <ele>648.4</ele>
        <time>2022-04-28T10:58:32Z</time>
      </trkpt>
      <trkpt lat="44.73386" lon="2.65069">
        <ele>648.6</ele>
        <time>2022-04-28T10:58:33Z</time>
      </trkpt>
      <trkpt lat="44.73384" lon="2.65065">
        <ele>649</ele>
        <time>2022-04-28T10:58:39Z</time>
      </trkpt>
      <trkpt lat="44.73384" lon="2.65065">
        <ele>649</ele>
        <time>2022-04-28T10:58:40Z</time>
      </trkpt>
      <trkpt lat="44.73384" lon="2.65066">
        <ele>648.8</ele>
        <time>2022-04-28T10:58:41Z</time>
      </trkpt>
      <trkpt lat="44.73384" lon="2.65066">
        <ele>648.4</ele>
        <time>2022-04-28T10:58:44Z</time>
      </trkpt>
      <trkpt lat="44.73387" lon="2.65068">
        <ele>648.8</ele>
        <time>2022-04-28T10:58:51Z</time>
      </trkpt>
      <trkpt lat="44.73386" lon="2.6507">
        <ele>647.6</ele>
        <time>2022-04-28T10:59:03Z</time>
      </trkpt>
      <trkpt lat="44.73391" lon="2.6507">
        <ele>649</ele>
        <time>2022-04-28T10:59:15Z</time>
      </trkpt>
      <trkpt lat="44.73395" lon="2.65068">
        <ele>649.4</ele>
        <time>2022-04-28T10:59:28Z</time>
      </trkpt>
      <trkpt lat="44.73394" lon="2.65067">
        <ele>649.6</ele>
        <time>2022-04-28T10:59:29Z</time>
      </trkpt>
      <trkpt lat="44.73396" lon="2.65067">
        <ele>649.2</ele>
        <time>2022-04-28T10:59:40Z</time>
      </trkpt>
      <trkpt lat="44.73405" lon="2.6507">
        <ele>650.8</ele>
        <time>2022-04-28T10:59:51Z</time>
      </trkpt>
      <trkpt lat="44.73406" lon="2.6507">
        <ele>650.8</ele>
        <time>2022-04-28T10:59:52Z</time>
      </trkpt>
      <trkpt lat="44.73408" lon="2.65072">
        <ele>651.6</ele>
        <time>2022-04-28T10:59:56Z</time>
      </trkpt>
      <trkpt lat="44.73409" lon="2.65073">
        <ele>651.8</ele>
        <time>2022-04-28T10:59:58Z</time>
      </trkpt>
      <trkpt lat="44.73417" lon="2.6508">
        <ele>652.4</ele>
        <time>2022-04-28T11:00:06Z</time>
      </trkpt>
      <trkpt lat="44.73421" lon="2.65086">
        <ele>652.8</ele>
        <time>2022-04-28T11:00:11Z</time>
      </trkpt>
      <trkpt lat="44.73425" lon="2.65092">
        <ele>654</ele>
        <time>2022-04-28T11:00:17Z</time>
      </trkpt>
      <trkpt lat="44.73428" lon="2.65096">
        <ele>654.6</ele>
        <time>2022-04-28T11:00:21Z</time>
      </trkpt>
      <trkpt lat="44.73433" lon="2.65101">
        <ele>655</ele>
        <time>2022-04-28T11:00:27Z</time>
      </trkpt>
      <trkpt lat="44.73441" lon="2.65114">
        <ele>656</ele>
        <time>2022-04-28T11:00:38Z</time>
      </trkpt>
      <trkpt lat="44.73442" lon="2.65126">
        <ele>656.8</ele>
        <time>2022-04-28T11:00:49Z</time>
      </trkpt>
      <trkpt lat="44.73442" lon="2.65128">
        <ele>657</ele>
        <time>2022-04-28T11:00:50Z</time>
      </trkpt>
      <trkpt lat="44.73442" lon="2.65129">
        <ele>657</ele>
        <time>2022-04-28T11:00:51Z</time>
      </trkpt>
      <trkpt lat="44.73443" lon="2.6513">
        <ele>657</ele>
        <time>2022-04-28T11:00:52Z</time>
      </trkpt>
      <trkpt lat="44.73443" lon="2.65132">
        <ele>657.2</ele>
        <time>2022-04-28T11:00:53Z</time>
      </trkpt>
      <trkpt lat="44.73443" lon="2.65133">
        <ele>657.2</ele>
        <time>2022-04-28T11:00:55Z</time>
      </trkpt>
      <trkpt lat="44.73445" lon="2.65136">
        <ele>656.6</ele>
        <time>2022-04-28T11:01:03Z</time>
      </trkpt>
      <trkpt lat="44.73444" lon="2.65136">
        <ele>656.6</ele>
        <time>2022-04-28T11:01:11Z</time>
      </trkpt>
      <trkpt lat="44.73448" lon="2.65134">
        <ele>656.4</ele>
        <time>2022-04-28T11:01:17Z</time>
      </trkpt>
      <trkpt lat="44.73455" lon="2.65138">
        <ele>656.6</ele>
        <time>2022-04-28T11:01:25Z</time>
      </trkpt>
      <trkpt lat="44.73456" lon="2.65138">
        <ele>656.6</ele>
        <time>2022-04-28T11:01:26Z</time>
      </trkpt>
      <trkpt lat="44.7346" lon="2.65139">
        <ele>656.4</ele>
        <time>2022-04-28T11:01:30Z</time>
      </trkpt>
      <trkpt lat="44.73462" lon="2.6514">
        <ele>656.2</ele>
        <time>2022-04-28T11:01:32Z</time>
      </trkpt>
      <trkpt lat="44.73465" lon="2.6514">
        <ele>656.2</ele>
        <time>2022-04-28T11:01:35Z</time>
      </trkpt>
      <trkpt lat="44.73466" lon="2.65142">
        <ele>656</ele>
        <time>2022-04-28T11:01:37Z</time>
      </trkpt>
      <trkpt lat="44.73469" lon="2.65142">
        <ele>655.8</ele>
        <time>2022-04-28T11:01:40Z</time>
      </trkpt>
      <trkpt lat="44.73476" lon="2.65141">
        <ele>655.6</ele>
        <time>2022-04-28T11:01:46Z</time>
      </trkpt>
      <trkpt lat="44.73476" lon="2.65144">
        <ele>655.8</ele>
        <time>2022-04-28T11:01:49Z</time>
      </trkpt>
      <trkpt lat="44.73483" lon="2.6514">
        <ele>655.6</ele>
        <time>2022-04-28T11:01:57Z</time>
      </trkpt>
      <trkpt lat="44.73484" lon="2.65139">
        <ele>655.8</ele>
        <time>2022-04-28T11:02:00Z</time>
      </trkpt>
      <trkpt lat="44.73485" lon="2.65136">
        <ele>655.8</ele>
        <time>2022-04-28T11:02:04Z</time>
      </trkpt>
      <trkpt lat="44.73481" lon="2.65131">
        <ele>655.8</ele>
        <time>2022-04-28T11:02:11Z</time>
      </trkpt>
      <trkpt lat="44.73475" lon="2.6513">
        <ele>655.8</ele>
        <time>2022-04-28T11:02:18Z</time>
      </trkpt>
      <trkpt lat="44.73473" lon="2.6513">
        <ele>655.8</ele>
        <time>2022-04-28T11:02:19Z</time>
      </trkpt>
      <trkpt lat="44.73466" lon="2.6513">
        <ele>656</ele>
        <time>2022-04-28T11:02:25Z</time>
      </trkpt>
      <trkpt lat="44.73459" lon="2.6513">
        <ele>656.6</ele>
        <time>2022-04-28T11:02:29Z</time>
      </trkpt>
      <trkpt lat="44.73455" lon="2.6513">
        <ele>656.4</ele>
        <time>2022-04-28T11:02:31Z</time>
      </trkpt>
      <trkpt lat="44.73454" lon="2.6513">
        <ele>656.4</ele>
        <time>2022-04-28T11:02:32Z</time>
      </trkpt>
      <trkpt lat="44.73452" lon="2.6513">
        <ele>656.6</ele>
        <time>2022-04-28T11:02:34Z</time>
      </trkpt>
      <trkpt lat="44.73451" lon="2.65133">
        <ele>656.8</ele>
        <time>2022-04-28T11:02:37Z</time>
      </trkpt>
      <trkpt lat="44.73449" lon="2.65133">
        <ele>656.8</ele>
        <time>2022-04-28T11:02:38Z</time>
      </trkpt>
      <trkpt lat="44.73447" lon="2.65137">
        <ele>656.8</ele>
        <time>2022-04-28T11:02:40Z</time>
      </trkpt>
      <trkpt lat="44.73445" lon="2.65139">
        <ele>656.8</ele>
        <time>2022-04-28T11:02:42Z</time>
      </trkpt>
      <trkpt lat="44.73444" lon="2.65143">
        <ele>657.2</ele>
        <time>2022-04-28T11:02:45Z</time>
      </trkpt>
      <trkpt lat="44.73443" lon="2.65147">
        <ele>657.6</ele>
        <time>2022-04-28T11:02:48Z</time>
      </trkpt>
      <trkpt lat="44.7344" lon="2.65149">
        <ele>658.2</ele>
        <time>2022-04-28T11:02:51Z</time>
      </trkpt>
      <trkpt lat="44.73439" lon="2.6515">
        <ele>658.4</ele>
        <time>2022-04-28T11:02:53Z</time>
      </trkpt>
      <trkpt lat="44.73436" lon="2.65152">
        <ele>659.2</ele>
        <time>2022-04-28T11:02:56Z</time>
      </trkpt>
      <trkpt lat="44.73435" lon="2.65156">
        <ele>659.6</ele>
        <time>2022-04-28T11:02:58Z</time>
      </trkpt>
      <trkpt lat="44.73436" lon="2.65157">
        <ele>659.8</ele>
        <time>2022-04-28T11:03:00Z</time>
      </trkpt>
      <trkpt lat="44.73437" lon="2.65159">
        <ele>660.4</ele>
        <time>2022-04-28T11:03:03Z</time>
      </trkpt>
      <trkpt lat="44.73437" lon="2.65159">
        <ele>660.6</ele>
        <time>2022-04-28T11:03:05Z</time>
      </trkpt>
      <trkpt lat="44.73439" lon="2.65159">
        <ele>661</ele>
        <time>2022-04-28T11:03:09Z</time>
      </trkpt>
      <trkpt lat="44.7344" lon="2.65158">
        <ele>661</ele>
        <time>2022-04-28T11:03:11Z</time>
      </trkpt>
      <trkpt lat="44.73443" lon="2.65158">
        <ele>661.6</ele>
        <time>2022-04-28T11:03:15Z</time>
      </trkpt>
      <trkpt lat="44.73445" lon="2.65159">
        <ele>661.8</ele>
        <time>2022-04-28T11:03:17Z</time>
      </trkpt>
      <trkpt lat="44.73446" lon="2.65159">
        <ele>662</ele>
        <time>2022-04-28T11:03:18Z</time>
      </trkpt>
      <trkpt lat="44.73448" lon="2.65158">
        <ele>662.6</ele>
        <time>2022-04-28T11:03:20Z</time>
      </trkpt>
      <trkpt lat="44.73448" lon="2.65159">
        <ele>662.6</ele>
        <time>2022-04-28T11:03:21Z</time>
      </trkpt>
      <trkpt lat="44.7345" lon="2.6516">
        <ele>663.2</ele>
        <time>2022-04-28T11:03:24Z</time>
      </trkpt>
      <trkpt lat="44.7345" lon="2.65161">
        <ele>663.2</ele>
        <time>2022-04-28T11:03:25Z</time>
      </trkpt>
      <trkpt lat="44.7345" lon="2.65162">
        <ele>663.2</ele>
        <time>2022-04-28T11:03:26Z</time>
      </trkpt>
      <trkpt lat="44.73449" lon="2.65165">
        <ele>663.8</ele>
        <time>2022-04-28T11:03:29Z</time>
      </trkpt>
      <trkpt lat="44.73447" lon="2.65165">
        <ele>664</ele>
        <time>2022-04-28T11:03:31Z</time>
      </trkpt>
      <trkpt lat="44.73441" lon="2.65169">
        <ele>665</ele>
        <time>2022-04-28T11:03:37Z</time>
      </trkpt>
      <trkpt lat="44.7344" lon="2.6517">
        <ele>665</ele>
        <time>2022-04-28T11:03:38Z</time>
      </trkpt>
      <trkpt lat="44.73439" lon="2.6517">
        <ele>665.2</ele>
        <time>2022-04-28T11:03:39Z</time>
      </trkpt>
      <trkpt lat="44.73438" lon="2.6517">
        <ele>665.4</ele>
        <time>2022-04-28T11:03:40Z</time>
      </trkpt>
      <trkpt lat="44.73436" lon="2.65172">
        <ele>666</ele>
        <time>2022-04-28T11:03:45Z</time>
      </trkpt>
      <trkpt lat="44.73435" lon="2.65176">
        <ele>666.2</ele>
        <time>2022-04-28T11:03:47Z</time>
      </trkpt>
      <trkpt lat="44.73435" lon="2.65183">
        <ele>667</ele>
        <time>2022-04-28T11:03:51Z</time>
      </trkpt>
      <trkpt lat="44.73434" lon="2.65185">
        <ele>667.6</ele>
        <time>2022-04-28T11:03:54Z</time>
      </trkpt>
      <trkpt lat="44.73433" lon="2.65186">
        <ele>668</ele>
        <time>2022-04-28T11:03:55Z</time>
      </trkpt>
      <trkpt lat="44.73432" lon="2.65187">
        <ele>668.2</ele>
        <time>2022-04-28T11:03:56Z</time>
      </trkpt>
      <trkpt lat="44.7343" lon="2.65188">
        <ele>669.2</ele>
        <time>2022-04-28T11:03:59Z</time>
      </trkpt>
      <trkpt lat="44.7343" lon="2.65189">
        <ele>669.4</ele>
        <time>2022-04-28T11:04:00Z</time>
      </trkpt>
      <trkpt lat="44.73431" lon="2.65192">
        <ele>670</ele>
        <time>2022-04-28T11:04:03Z</time>
      </trkpt>
      <trkpt lat="44.73432" lon="2.65192">
        <ele>670.4</ele>
        <time>2022-04-28T11:04:05Z</time>
      </trkpt>
      <trkpt lat="44.73433" lon="2.65193">
        <ele>670.6</ele>
        <time>2022-04-28T11:04:06Z</time>
      </trkpt>
      <trkpt lat="44.73436" lon="2.65195">
        <ele>670.8</ele>
        <time>2022-04-28T11:04:10Z</time>
      </trkpt>
      <trkpt lat="44.73437" lon="2.65195">
        <ele>671</ele>
        <time>2022-04-28T11:04:11Z</time>
      </trkpt>
      <trkpt lat="44.73438" lon="2.65196">
        <ele>671</ele>
        <time>2022-04-28T11:04:13Z</time>
      </trkpt>
      <trkpt lat="44.73439" lon="2.65196">
        <ele>671.4</ele>
        <time>2022-04-28T11:04:15Z</time>
      </trkpt>
      <trkpt lat="44.73439" lon="2.65195">
        <ele>671.4</ele>
        <time>2022-04-28T11:04:16Z</time>
      </trkpt>
      <trkpt lat="44.7344" lon="2.65194">
        <ele>671.6</ele>
        <time>2022-04-28T11:04:18Z</time>
      </trkpt>
      <trkpt lat="44.73443" lon="2.65195">
        <ele>672</ele>
        <time>2022-04-28T11:04:21Z</time>
      </trkpt>
      <trkpt lat="44.73443" lon="2.65197">
        <ele>672.2</ele>
        <time>2022-04-28T11:04:23Z</time>
      </trkpt>
      <trkpt lat="44.73445" lon="2.65197">
        <ele>672.4</ele>
        <time>2022-04-28T11:04:24Z</time>
      </trkpt>
      <trkpt lat="44.73446" lon="2.65197">
        <ele>672.6</ele>
        <time>2022-04-28T11:04:25Z</time>
      </trkpt>
      <trkpt lat="44.73446" lon="2.65197">
        <ele>672.6</ele>
        <time>2022-04-28T11:04:26Z</time>
      </trkpt>
      <trkpt lat="44.73447" lon="2.65197">
        <ele>673</ele>
        <time>2022-04-28T11:04:28Z</time>
      </trkpt>
      <trkpt lat="44.73448" lon="2.65198">
        <ele>673.4</ele>
        <time>2022-04-28T11:04:30Z</time>
      </trkpt>
      <trkpt lat="44.73449" lon="2.65198">
        <ele>673.6</ele>
        <time>2022-04-28T11:04:32Z</time>
      </trkpt>
      <trkpt lat="44.73451" lon="2.65199">
        <ele>673.6</ele>
        <time>2022-04-28T11:04:33Z</time>
      </trkpt>
      <trkpt lat="44.73451" lon="2.65199">
        <ele>673.8</ele>
        <time>2022-04-28T11:04:34Z</time>
      </trkpt>
      <trkpt lat="44.73452" lon="2.65199">
        <ele>674.2</ele>
        <time>2022-04-28T11:04:36Z</time>
      </trkpt>
      <trkpt lat="44.73454" lon="2.65199">
        <ele>674.4</ele>
        <time>2022-04-28T11:04:38Z</time>
      </trkpt>
      <trkpt lat="44.73455" lon="2.652">
        <ele>674.6</ele>
        <time>2022-04-28T11:04:40Z</time>
      </trkpt>
      <trkpt lat="44.73458" lon="2.652">
        <ele>675</ele>
        <time>2022-04-28T11:04:44Z</time>
      </trkpt>
      <trkpt lat="44.73459" lon="2.652">
        <ele>675.2</ele>
        <time>2022-04-28T11:04:46Z</time>
      </trkpt>
      <trkpt lat="44.73459" lon="2.652">
        <ele>675.4</ele>
        <time>2022-04-28T11:04:47Z</time>
      </trkpt>
      <trkpt lat="44.73461" lon="2.652">
        <ele>675.6</ele>
        <time>2022-04-28T11:04:49Z</time>
      </trkpt>
      <trkpt lat="44.73465" lon="2.65203">
        <ele>676.6</ele>
        <time>2022-04-28T11:04:54Z</time>
      </trkpt>
      <trkpt lat="44.73465" lon="2.65203">
        <ele>676.8</ele>
        <time>2022-04-28T11:04:55Z</time>
      </trkpt>
      <trkpt lat="44.73469" lon="2.65202">
        <ele>677.8</ele>
        <time>2022-04-28T11:05:02Z</time>
      </trkpt>
      <trkpt lat="44.7347" lon="2.65202">
        <ele>678</ele>
        <time>2022-04-28T11:05:03Z</time>
      </trkpt>
      <trkpt lat="44.73478" lon="2.65204">
        <ele>678.8</ele>
        <time>2022-04-28T11:05:10Z</time>
      </trkpt>
      <trkpt lat="44.7348" lon="2.65205">
        <ele>679</ele>
        <time>2022-04-28T11:05:11Z</time>
      </trkpt>
      <trkpt lat="44.7348" lon="2.65205">
        <ele>679</ele>
        <time>2022-04-28T11:05:13Z</time>
      </trkpt>
      <trkpt lat="44.73484" lon="2.65205">
        <ele>679</ele>
        <time>2022-04-28T11:05:18Z</time>
      </trkpt>
      <trkpt lat="44.73487" lon="2.65206">
        <ele>679</ele>
        <time>2022-04-28T11:05:20Z</time>
      </trkpt>
      <trkpt lat="44.73488" lon="2.65206">
        <ele>679</ele>
        <time>2022-04-28T11:05:22Z</time>
      </trkpt>
      <trkpt lat="44.73491" lon="2.65206">
        <ele>679.6</ele>
        <time>2022-04-28T11:05:25Z</time>
      </trkpt>
      <trkpt lat="44.73491" lon="2.65206">
        <ele>679.6</ele>
        <time>2022-04-28T11:05:26Z</time>
      </trkpt>
      <trkpt lat="44.73494" lon="2.65208">
        <ele>680</ele>
        <time>2022-04-28T11:05:30Z</time>
      </trkpt>
      <trkpt lat="44.73496" lon="2.65207">
        <ele>680.2</ele>
        <time>2022-04-28T11:05:32Z</time>
      </trkpt>
      <trkpt lat="44.73498" lon="2.65208">
        <ele>680.4</ele>
        <time>2022-04-28T11:05:34Z</time>
      </trkpt>
      <trkpt lat="44.73501" lon="2.6521">
        <ele>680.8</ele>
        <time>2022-04-28T11:05:38Z</time>
      </trkpt>
      <trkpt lat="44.73503" lon="2.65211">
        <ele>680.8</ele>
        <time>2022-04-28T11:05:39Z</time>
      </trkpt>
      <trkpt lat="44.73505" lon="2.65211">
        <ele>680.8</ele>
        <time>2022-04-28T11:05:40Z</time>
      </trkpt>
      <trkpt lat="44.73506" lon="2.65212">
        <ele>681</ele>
        <time>2022-04-28T11:05:41Z</time>
      </trkpt>
      <trkpt lat="44.7351" lon="2.65214">
        <ele>681.4</ele>
        <time>2022-04-28T11:05:45Z</time>
      </trkpt>
      <trkpt lat="44.73512" lon="2.65216">
        <ele>681.6</ele>
        <time>2022-04-28T11:05:47Z</time>
      </trkpt>
      <trkpt lat="44.73515" lon="2.65218">
        <ele>681.8</ele>
        <time>2022-04-28T11:05:49Z</time>
      </trkpt>
      <trkpt lat="44.73517" lon="2.65218">
        <ele>682</ele>
        <time>2022-04-28T11:05:51Z</time>
      </trkpt>
      <trkpt lat="44.73517" lon="2.65219">
        <ele>682.4</ele>
        <time>2022-04-28T11:05:52Z</time>
      </trkpt>
      <trkpt lat="44.73518" lon="2.65219">
        <ele>682.6</ele>
        <time>2022-04-28T11:05:54Z</time>
      </trkpt>
      <trkpt lat="44.73518" lon="2.6522">
        <ele>682.8</ele>
        <time>2022-04-28T11:05:56Z</time>
      </trkpt>
      <trkpt lat="44.73519" lon="2.6522">
        <ele>683.2</ele>
        <time>2022-04-28T11:05:58Z</time>
      </trkpt>
      <trkpt lat="44.73521" lon="2.65221">
        <ele>683.4</ele>
        <time>2022-04-28T11:06:00Z</time>
      </trkpt>
      <trkpt lat="44.73523" lon="2.65222">
        <ele>683.6</ele>
        <time>2022-04-28T11:06:02Z</time>
      </trkpt>
      <trkpt lat="44.73525" lon="2.65222">
        <ele>683.8</ele>
        <time>2022-04-28T11:06:03Z</time>
      </trkpt>
      <trkpt lat="44.73526" lon="2.65222">
        <ele>684</ele>
        <time>2022-04-28T11:06:04Z</time>
      </trkpt>
      <trkpt lat="44.73528" lon="2.65223">
        <ele>684.2</ele>
        <time>2022-04-28T11:06:06Z</time>
      </trkpt>
      <trkpt lat="44.73531" lon="2.65225">
        <ele>684.4</ele>
        <time>2022-04-28T11:06:09Z</time>
      </trkpt>
      <trkpt lat="44.73532" lon="2.65226">
        <ele>684.6</ele>
        <time>2022-04-28T11:06:11Z</time>
      </trkpt>
      <trkpt lat="44.73533" lon="2.65228">
        <ele>684.6</ele>
        <time>2022-04-28T11:06:13Z</time>
      </trkpt>
      <trkpt lat="44.73538" lon="2.6523">
        <ele>685</ele>
        <time>2022-04-28T11:06:17Z</time>
      </trkpt>
      <trkpt lat="44.73541" lon="2.65231">
        <ele>685</ele>
        <time>2022-04-28T11:06:19Z</time>
      </trkpt>
      <trkpt lat="44.73544" lon="2.65232">
        <ele>685.2</ele>
        <time>2022-04-28T11:06:23Z</time>
      </trkpt>
      <trkpt lat="44.73549" lon="2.65235">
        <ele>685.4</ele>
        <time>2022-04-28T11:06:26Z</time>
      </trkpt>
      <trkpt lat="44.7355" lon="2.65235">
        <ele>685.4</ele>
        <time>2022-04-28T11:06:27Z</time>
      </trkpt>
      <trkpt lat="44.73551" lon="2.65236">
        <ele>685.4</ele>
        <time>2022-04-28T11:06:28Z</time>
      </trkpt>
      <trkpt lat="44.73554" lon="2.65238">
        <ele>685.6</ele>
        <time>2022-04-28T11:06:32Z</time>
      </trkpt>
      <trkpt lat="44.73556" lon="2.6524">
        <ele>685.8</ele>
        <time>2022-04-28T11:06:34Z</time>
      </trkpt>
      <trkpt lat="44.73558" lon="2.65243">
        <ele>685.8</ele>
        <time>2022-04-28T11:06:37Z</time>
      </trkpt>
      <trkpt lat="44.73566" lon="2.65245">
        <ele>686.2</ele>
        <time>2022-04-28T11:06:42Z</time>
      </trkpt>
      <trkpt lat="44.73568" lon="2.65247">
        <ele>686.4</ele>
        <time>2022-04-28T11:06:45Z</time>
      </trkpt>
      <trkpt lat="44.7357" lon="2.6525">
        <ele>686.4</ele>
        <time>2022-04-28T11:06:47Z</time>
      </trkpt>
      <trkpt lat="44.73571" lon="2.65251">
        <ele>686.6</ele>
        <time>2022-04-28T11:06:48Z</time>
      </trkpt>
      <trkpt lat="44.73574" lon="2.65252">
        <ele>686.6</ele>
        <time>2022-04-28T11:06:52Z</time>
      </trkpt>
      <trkpt lat="44.73576" lon="2.65253">
        <ele>687</ele>
        <time>2022-04-28T11:06:55Z</time>
      </trkpt>
      <trkpt lat="44.73579" lon="2.65253">
        <ele>687</ele>
        <time>2022-04-28T11:06:59Z</time>
      </trkpt>
      <trkpt lat="44.73581" lon="2.65254">
        <ele>687.2</ele>
        <time>2022-04-28T11:07:01Z</time>
      </trkpt>
      <trkpt lat="44.73583" lon="2.65255">
        <ele>687.4</ele>
        <time>2022-04-28T11:07:04Z</time>
      </trkpt>
      <trkpt lat="44.73586" lon="2.65256">
        <ele>687.2</ele>
        <time>2022-04-28T11:07:07Z</time>
      </trkpt>
      <trkpt lat="44.73589" lon="2.65258">
        <ele>687.6</ele>
        <time>2022-04-28T11:07:09Z</time>
      </trkpt>
      <trkpt lat="44.73593" lon="2.65258">
        <ele>687.8</ele>
        <time>2022-04-28T11:07:11Z</time>
      </trkpt>
      <trkpt lat="44.73602" lon="2.65258">
        <ele>688.4</ele>
        <time>2022-04-28T11:07:19Z</time>
      </trkpt>
      <trkpt lat="44.73609" lon="2.65258">
        <ele>688.2</ele>
        <time>2022-04-28T11:07:25Z</time>
      </trkpt>
      <trkpt lat="44.73611" lon="2.65258">
        <ele>688.2</ele>
        <time>2022-04-28T11:07:27Z</time>
      </trkpt>
      <trkpt lat="44.7362" lon="2.6526">
        <ele>687.2</ele>
        <time>2022-04-28T11:07:35Z</time>
      </trkpt>
      <trkpt lat="44.73621" lon="2.6526">
        <ele>687.2</ele>
        <time>2022-04-28T11:07:36Z</time>
      </trkpt>
      <trkpt lat="44.73622" lon="2.6526">
        <ele>686.8</ele>
        <time>2022-04-28T11:07:38Z</time>
      </trkpt>
      <trkpt lat="44.73623" lon="2.6526">
        <ele>686.6</ele>
        <time>2022-04-28T11:07:40Z</time>
      </trkpt>
      <trkpt lat="44.73624" lon="2.6526">
        <ele>686.4</ele>
        <time>2022-04-28T11:07:41Z</time>
      </trkpt>
      <trkpt lat="44.73625" lon="2.6526">
        <ele>686.2</ele>
        <time>2022-04-28T11:07:43Z</time>
      </trkpt>
      <trkpt lat="44.73626" lon="2.6526">
        <ele>685.8</ele>
        <time>2022-04-28T11:07:46Z</time>
      </trkpt>
      <trkpt lat="44.73628" lon="2.65261">
        <ele>685.6</ele>
        <time>2022-04-28T11:07:48Z</time>
      </trkpt>
      <trkpt lat="44.73629" lon="2.65261">
        <ele>685.4</ele>
        <time>2022-04-28T11:07:49Z</time>
      </trkpt>
      <trkpt lat="44.73631" lon="2.65262">
        <ele>685.2</ele>
        <time>2022-04-28T11:07:51Z</time>
      </trkpt>
      <trkpt lat="44.73632" lon="2.65262">
        <ele>685</ele>
        <time>2022-04-28T11:07:52Z</time>
      </trkpt>
      <trkpt lat="44.73634" lon="2.65261">
        <ele>684.8</ele>
        <time>2022-04-28T11:07:54Z</time>
      </trkpt>
      <trkpt lat="44.73635" lon="2.65261">
        <ele>684.6</ele>
        <time>2022-04-28T11:07:57Z</time>
      </trkpt>
      <trkpt lat="44.73636" lon="2.65262">
        <ele>684.4</ele>
        <time>2022-04-28T11:07:58Z</time>
      </trkpt>
      <trkpt lat="44.73637" lon="2.65262">
        <ele>684.2</ele>
        <time>2022-04-28T11:08:00Z</time>
      </trkpt>
      <trkpt lat="44.73639" lon="2.65264">
        <ele>683.8</ele>
        <time>2022-04-28T11:08:03Z</time>
      </trkpt>
      <trkpt lat="44.73641" lon="2.65266">
        <ele>683.6</ele>
        <time>2022-04-28T11:08:05Z</time>
      </trkpt>
      <trkpt lat="44.73642" lon="2.65267">
        <ele>683.6</ele>
        <time>2022-04-28T11:08:07Z</time>
      </trkpt>
      <trkpt lat="44.73644" lon="2.65269">
        <ele>683.6</ele>
        <time>2022-04-28T11:08:09Z</time>
      </trkpt>
      <trkpt lat="44.73647" lon="2.6527">
        <ele>683.4</ele>
        <time>2022-04-28T11:08:11Z</time>
      </trkpt>
      <trkpt lat="44.73648" lon="2.65271">
        <ele>683.4</ele>
        <time>2022-04-28T11:08:12Z</time>
      </trkpt>
      <trkpt lat="44.7365" lon="2.65274">
        <ele>683.2</ele>
        <time>2022-04-28T11:08:14Z</time>
      </trkpt>
      <trkpt lat="44.73655" lon="2.65282">
        <ele>682.4</ele>
        <time>2022-04-28T11:08:20Z</time>
      </trkpt>
      <trkpt lat="44.73656" lon="2.65283">
        <ele>682.4</ele>
        <time>2022-04-28T11:08:21Z</time>
      </trkpt>
      <trkpt lat="44.73662" lon="2.65291">
        <ele>681.6</ele>
        <time>2022-04-28T11:08:30Z</time>
      </trkpt>
      <trkpt lat="44.73666" lon="2.65297">
        <ele>681.4</ele>
        <time>2022-04-28T11:08:35Z</time>
      </trkpt>
      <trkpt lat="44.73668" lon="2.65298">
        <ele>681.2</ele>
        <time>2022-04-28T11:08:38Z</time>
      </trkpt>
      <trkpt lat="44.73674" lon="2.65306">
        <ele>680.8</ele>
        <time>2022-04-28T11:08:47Z</time>
      </trkpt>
      <trkpt lat="44.73678" lon="2.65307">
        <ele>680.6</ele>
        <time>2022-04-28T11:08:50Z</time>
      </trkpt>
      <trkpt lat="44.73678" lon="2.65307">
        <ele>680.4</ele>
        <time>2022-04-28T11:08:51Z</time>
      </trkpt>
      <trkpt lat="44.73679" lon="2.65308">
        <ele>680.2</ele>
        <time>2022-04-28T11:08:52Z</time>
      </trkpt>
      <trkpt lat="44.7368" lon="2.65309">
        <ele>680.2</ele>
        <time>2022-04-28T11:08:55Z</time>
      </trkpt>
      <trkpt lat="44.73684" lon="2.65312">
        <ele>679.2</ele>
        <time>2022-04-28T11:09:01Z</time>
      </trkpt>
      <trkpt lat="44.73686" lon="2.65313">
        <ele>679</ele>
        <time>2022-04-28T11:09:03Z</time>
      </trkpt>
      <trkpt lat="44.73687" lon="2.65314">
        <ele>678.8</ele>
        <time>2022-04-28T11:09:04Z</time>
      </trkpt>
      <trkpt lat="44.73689" lon="2.65316">
        <ele>678.4</ele>
        <time>2022-04-28T11:09:07Z</time>
      </trkpt>
      <trkpt lat="44.73691" lon="2.65318">
        <ele>678.2</ele>
        <time>2022-04-28T11:09:09Z</time>
      </trkpt>
      <trkpt lat="44.73693" lon="2.65321">
        <ele>677.6</ele>
        <time>2022-04-28T11:09:12Z</time>
      </trkpt>
      <trkpt lat="44.73694" lon="2.65323">
        <ele>677.2</ele>
        <time>2022-04-28T11:09:14Z</time>
      </trkpt>
      <trkpt lat="44.73695" lon="2.65323">
        <ele>677</ele>
        <time>2022-04-28T11:09:15Z</time>
      </trkpt>
      <trkpt lat="44.73695" lon="2.65324">
        <ele>677</ele>
        <time>2022-04-28T11:09:16Z</time>
      </trkpt>
      <trkpt lat="44.73697" lon="2.65326">
        <ele>676.8</ele>
        <time>2022-04-28T11:09:20Z</time>
      </trkpt>
      <trkpt lat="44.73697" lon="2.65327">
        <ele>676.8</ele>
        <time>2022-04-28T11:09:26Z</time>
      </trkpt>
      <trkpt lat="44.737" lon="2.6533">
        <ele>676</ele>
        <time>2022-04-28T11:09:40Z</time>
      </trkpt>
      <trkpt lat="44.73705" lon="2.65338">
        <ele>675.4</ele>
        <time>2022-04-28T11:09:49Z</time>
      </trkpt>
      <trkpt lat="44.73707" lon="2.6534">
        <ele>675</ele>
        <time>2022-04-28T11:09:51Z</time>
      </trkpt>
      <trkpt lat="44.73708" lon="2.65341">
        <ele>674.8</ele>
        <time>2022-04-28T11:09:52Z</time>
      </trkpt>
      <trkpt lat="44.73709" lon="2.65342">
        <ele>674.8</ele>
        <time>2022-04-28T11:09:53Z</time>
      </trkpt>
      <trkpt lat="44.73717" lon="2.6535">
        <ele>674.2</ele>
        <time>2022-04-28T11:10:04Z</time>
      </trkpt>
      <trkpt lat="44.7372" lon="2.65351">
        <ele>674</ele>
        <time>2022-04-28T11:10:07Z</time>
      </trkpt>
      <trkpt lat="44.73725" lon="2.65356">
        <ele>673.8</ele>
        <time>2022-04-28T11:10:18Z</time>
      </trkpt>
      <trkpt lat="44.73734" lon="2.65353">
        <ele>673.8</ele>
        <time>2022-04-28T11:10:27Z</time>
      </trkpt>
      <trkpt lat="44.73736" lon="2.65352">
        <ele>673.8</ele>
        <time>2022-04-28T11:10:28Z</time>
      </trkpt>
      <trkpt lat="44.73752" lon="2.65351">
        <ele>674.2</ele>
        <time>2022-04-28T11:10:41Z</time>
      </trkpt>
      <trkpt lat="44.73751" lon="2.65348">
        <ele>674.6</ele>
        <time>2022-04-28T11:10:52Z</time>
      </trkpt>
      <trkpt lat="44.73757" lon="2.65347">
        <ele>674.6</ele>
        <time>2022-04-28T11:11:01Z</time>
      </trkpt>
      <trkpt lat="44.73762" lon="2.65346">
        <ele>675</ele>
        <time>2022-04-28T11:11:07Z</time>
      </trkpt>
      <trkpt lat="44.73765" lon="2.65345">
        <ele>675.4</ele>
        <time>2022-04-28T11:11:12Z</time>
      </trkpt>
      <trkpt lat="44.73765" lon="2.65345">
        <ele>675.6</ele>
        <time>2022-04-28T11:11:14Z</time>
      </trkpt>
      <trkpt lat="44.73766" lon="2.65345">
        <ele>676.2</ele>
        <time>2022-04-28T11:11:16Z</time>
      </trkpt>
      <trkpt lat="44.73769" lon="2.65343">
        <ele>675.6</ele>
        <time>2022-04-28T11:11:26Z</time>
      </trkpt>
      <trkpt lat="44.73779" lon="2.65341">
        <ele>676.6</ele>
        <time>2022-04-28T11:11:39Z</time>
      </trkpt>
      <trkpt lat="44.73781" lon="2.65342">
        <ele>677.2</ele>
        <time>2022-04-28T11:11:43Z</time>
      </trkpt>
      <trkpt lat="44.7378" lon="2.65344">
        <ele>677.8</ele>
        <time>2022-04-28T11:11:47Z</time>
      </trkpt>
      <trkpt lat="44.73778" lon="2.65346">
        <ele>678.4</ele>
        <time>2022-04-28T11:11:51Z</time>
      </trkpt>
      <trkpt lat="44.73776" lon="2.65353">
        <ele>679.6</ele>
        <time>2022-04-28T11:11:56Z</time>
      </trkpt>
      <trkpt lat="44.73776" lon="2.65355">
        <ele>679.8</ele>
        <time>2022-04-28T11:11:59Z</time>
      </trkpt>
      <trkpt lat="44.73779" lon="2.65356">
        <ele>680.6</ele>
        <time>2022-04-28T11:12:06Z</time>
      </trkpt>
      <trkpt lat="44.73787" lon="2.65352">
        <ele>681.2</ele>
        <time>2022-04-28T11:12:15Z</time>
      </trkpt>
      <trkpt lat="44.73789" lon="2.65352">
        <ele>681.2</ele>
        <time>2022-04-28T11:12:17Z</time>
      </trkpt>
      <trkpt lat="44.7379" lon="2.65352">
        <ele>681.4</ele>
        <time>2022-04-28T11:12:19Z</time>
      </trkpt>
      <trkpt lat="44.7379" lon="2.65352">
        <ele>681.6</ele>
        <time>2022-04-28T11:12:23Z</time>
      </trkpt>
      <trkpt lat="44.7379" lon="2.6535">
        <ele>681.4</ele>
        <time>2022-04-28T11:12:26Z</time>
      </trkpt>
      <trkpt lat="44.73791" lon="2.65347">
        <ele>681.2</ele>
        <time>2022-04-28T11:12:40Z</time>
      </trkpt>
      <trkpt lat="44.73802" lon="2.65348">
        <ele>681.8</ele>
        <time>2022-04-28T11:12:51Z</time>
      </trkpt>
      <trkpt lat="44.73817" lon="2.65348">
        <ele>682.6</ele>
        <time>2022-04-28T11:13:06Z</time>
      </trkpt>
      <trkpt lat="44.73826" lon="2.65347">
        <ele>682.6</ele>
        <time>2022-04-28T11:13:14Z</time>
      </trkpt>
      <trkpt lat="44.7383" lon="2.65349">
        <ele>682.8</ele>
        <time>2022-04-28T11:13:18Z</time>
      </trkpt>
      <trkpt lat="44.73846" lon="2.65356">
        <ele>682.6</ele>
        <time>2022-04-28T11:13:31Z</time>
      </trkpt>
      <trkpt lat="44.73862" lon="2.65366">
        <ele>683</ele>
        <time>2022-04-28T11:13:45Z</time>
      </trkpt>
      <trkpt lat="44.73869" lon="2.65376">
        <ele>683.6</ele>
        <time>2022-04-28T11:13:54Z</time>
      </trkpt>
      <trkpt lat="44.73873" lon="2.65384">
        <ele>684.2</ele>
        <time>2022-04-28T11:14:00Z</time>
      </trkpt>
      <trkpt lat="44.73878" lon="2.65395">
        <ele>684.6</ele>
        <time>2022-04-28T11:14:08Z</time>
      </trkpt>
      <trkpt lat="44.73879" lon="2.65402">
        <ele>685</ele>
        <time>2022-04-28T11:14:13Z</time>
      </trkpt>
      <trkpt lat="44.73882" lon="2.65414">
        <ele>685.6</ele>
        <time>2022-04-28T11:14:21Z</time>
      </trkpt>
      <trkpt lat="44.73885" lon="2.65422">
        <ele>685.8</ele>
        <time>2022-04-28T11:14:26Z</time>
      </trkpt>
      <trkpt lat="44.73893" lon="2.65445">
        <ele>686.2</ele>
        <time>2022-04-28T11:14:41Z</time>
      </trkpt>
      <trkpt lat="44.73898" lon="2.65464">
        <ele>686.6</ele>
        <time>2022-04-28T11:14:54Z</time>
      </trkpt>
      <trkpt lat="44.73906" lon="2.65487">
        <ele>686.2</ele>
        <time>2022-04-28T11:15:10Z</time>
      </trkpt>
      <trkpt lat="44.73906" lon="2.65489">
        <ele>686.2</ele>
        <time>2022-04-28T11:15:11Z</time>
      </trkpt>
      <trkpt lat="44.73918" lon="2.65504">
        <ele>685.6</ele>
        <time>2022-04-28T11:15:25Z</time>
      </trkpt>
      <trkpt lat="44.73929" lon="2.65522">
        <ele>685</ele>
        <time>2022-04-28T11:15:40Z</time>
      </trkpt>
      <trkpt lat="44.7393" lon="2.65525">
        <ele>684.6</ele>
        <time>2022-04-28T11:15:42Z</time>
      </trkpt>
      <trkpt lat="44.73933" lon="2.65528">
        <ele>684.2</ele>
        <time>2022-04-28T11:15:47Z</time>
      </trkpt>
      <trkpt lat="44.73935" lon="2.6553">
        <ele>684</ele>
        <time>2022-04-28T11:15:51Z</time>
      </trkpt>
      <trkpt lat="44.73944" lon="2.65543">
        <ele>683.4</ele>
        <time>2022-04-28T11:16:01Z</time>
      </trkpt>
      <trkpt lat="44.73944" lon="2.65544">
        <ele>683.2</ele>
        <time>2022-04-28T11:16:02Z</time>
      </trkpt>
      <trkpt lat="44.73947" lon="2.65555">
        <ele>682.4</ele>
        <time>2022-04-28T11:16:09Z</time>
      </trkpt>
      <trkpt lat="44.7395" lon="2.65565">
        <ele>681.6</ele>
        <time>2022-04-28T11:16:16Z</time>
      </trkpt>
      <trkpt lat="44.73951" lon="2.65573">
        <ele>681.2</ele>
        <time>2022-04-28T11:16:22Z</time>
      </trkpt>
      <trkpt lat="44.73952" lon="2.65581">
        <ele>680.2</ele>
        <time>2022-04-28T11:16:28Z</time>
      </trkpt>
      <trkpt lat="44.73957" lon="2.65593">
        <ele>679</ele>
        <time>2022-04-28T11:16:38Z</time>
      </trkpt>
      <trkpt lat="44.73958" lon="2.65598">
        <ele>678.8</ele>
        <time>2022-04-28T11:16:41Z</time>
      </trkpt>
      <trkpt lat="44.73963" lon="2.6561">
        <ele>678</ele>
        <time>2022-04-28T11:16:49Z</time>
      </trkpt>
      <trkpt lat="44.73963" lon="2.65616">
        <ele>677.4</ele>
        <time>2022-04-28T11:16:53Z</time>
      </trkpt>
      <trkpt lat="44.73963" lon="2.6562">
        <ele>677</ele>
        <time>2022-04-28T11:16:56Z</time>
      </trkpt>
      <trkpt lat="44.73963" lon="2.65621">
        <ele>676.4</ele>
        <time>2022-04-28T11:17:00Z</time>
      </trkpt>
      <trkpt lat="44.73963" lon="2.65621">
        <ele>676.2</ele>
        <time>2022-04-28T11:17:02Z</time>
      </trkpt>
      <trkpt lat="44.73961" lon="2.65616">
        <ele>676.2</ele>
        <time>2022-04-28T11:17:15Z</time>
      </trkpt>
      <trkpt lat="44.73959" lon="2.65627">
        <ele>676.8</ele>
        <time>2022-04-28T11:17:23Z</time>
      </trkpt>
      <trkpt lat="44.73958" lon="2.65628">
        <ele>676.8</ele>
        <time>2022-04-28T11:17:24Z</time>
      </trkpt>
      <trkpt lat="44.73955" lon="2.65635">
        <ele>677.4</ele>
        <time>2022-04-28T11:17:30Z</time>
      </trkpt>
      <trkpt lat="44.73953" lon="2.6564">
        <ele>677.8</ele>
        <time>2022-04-28T11:17:34Z</time>
      </trkpt>
      <trkpt lat="44.73953" lon="2.65643">
        <ele>678</ele>
        <time>2022-04-28T11:17:36Z</time>
      </trkpt>
      <trkpt lat="44.73952" lon="2.65645">
        <ele>678.2</ele>
        <time>2022-04-28T11:17:38Z</time>
      </trkpt>
      <trkpt lat="44.73951" lon="2.65658">
        <ele>679</ele>
        <time>2022-04-28T11:17:48Z</time>
      </trkpt>
      <trkpt lat="44.73951" lon="2.65662">
        <ele>679.2</ele>
        <time>2022-04-28T11:17:51Z</time>
      </trkpt>
      <trkpt lat="44.73951" lon="2.65663">
        <ele>679.4</ele>
        <time>2022-04-28T11:17:52Z</time>
      </trkpt>
      <trkpt lat="44.73951" lon="2.65664">
        <ele>679.4</ele>
        <time>2022-04-28T11:17:53Z</time>
      </trkpt>
      <trkpt lat="44.7395" lon="2.65667">
        <ele>679.6</ele>
        <time>2022-04-28T11:17:55Z</time>
      </trkpt>
      <trkpt lat="44.73949" lon="2.65669">
        <ele>679.8</ele>
        <time>2022-04-28T11:17:57Z</time>
      </trkpt>
      <trkpt lat="44.73945" lon="2.65673">
        <ele>679.8</ele>
        <time>2022-04-28T11:18:04Z</time>
      </trkpt>
      <trkpt lat="44.73942" lon="2.65676">
        <ele>680.2</ele>
        <time>2022-04-28T11:18:10Z</time>
      </trkpt>
      <trkpt lat="44.73938" lon="2.6568">
        <ele>681.2</ele>
        <time>2022-04-28T11:18:15Z</time>
      </trkpt>
      <trkpt lat="44.73935" lon="2.65682">
        <ele>682</ele>
        <time>2022-04-28T11:18:18Z</time>
      </trkpt>
      <trkpt lat="44.73932" lon="2.65684">
        <ele>682.2</ele>
        <time>2022-04-28T11:18:21Z</time>
      </trkpt>
      <trkpt lat="44.73927" lon="2.65688">
        <ele>682.8</ele>
        <time>2022-04-28T11:18:29Z</time>
      </trkpt>
      <trkpt lat="44.73926" lon="2.65689">
        <ele>683</ele>
        <time>2022-04-28T11:18:31Z</time>
      </trkpt>
      <trkpt lat="44.7392" lon="2.65696">
        <ele>683.2</ele>
        <time>2022-04-28T11:18:39Z</time>
      </trkpt>
      <trkpt lat="44.73916" lon="2.657">
        <ele>683.8</ele>
        <time>2022-04-28T11:18:44Z</time>
      </trkpt>
      <trkpt lat="44.73909" lon="2.65708">
        <ele>684.4</ele>
        <time>2022-04-28T11:18:54Z</time>
      </trkpt>
      <trkpt lat="44.73906" lon="2.65711">
        <ele>684.6</ele>
        <time>2022-04-28T11:18:58Z</time>
      </trkpt>
      <trkpt lat="44.73902" lon="2.65715">
        <ele>685.4</ele>
        <time>2022-04-28T11:19:03Z</time>
      </trkpt>
      <trkpt lat="44.739" lon="2.65715">
        <ele>685.8</ele>
        <time>2022-04-28T11:19:06Z</time>
      </trkpt>
      <trkpt lat="44.73899" lon="2.65716">
        <ele>686</ele>
        <time>2022-04-28T11:19:08Z</time>
      </trkpt>
      <trkpt lat="44.73898" lon="2.65717">
        <ele>686</ele>
        <time>2022-04-28T11:19:10Z</time>
      </trkpt>
      <trkpt lat="44.73896" lon="2.65718">
        <ele>686.2</ele>
        <time>2022-04-28T11:19:12Z</time>
      </trkpt>
      <trkpt lat="44.73895" lon="2.65719">
        <ele>686.4</ele>
        <time>2022-04-28T11:19:14Z</time>
      </trkpt>
      <trkpt lat="44.73894" lon="2.65719">
        <ele>686.6</ele>
        <time>2022-04-28T11:19:15Z</time>
      </trkpt>
      <trkpt lat="44.73893" lon="2.6572">
        <ele>686.6</ele>
        <time>2022-04-28T11:19:16Z</time>
      </trkpt>
      <trkpt lat="44.73885" lon="2.65725">
        <ele>687.4</ele>
        <time>2022-04-28T11:19:24Z</time>
      </trkpt>
      <trkpt lat="44.73883" lon="2.65727">
        <ele>687.8</ele>
        <time>2022-04-28T11:19:26Z</time>
      </trkpt>
      <trkpt lat="44.73871" lon="2.65738">
        <ele>688.8</ele>
        <time>2022-04-28T11:19:38Z</time>
      </trkpt>
      <trkpt lat="44.7387" lon="2.65739">
        <ele>688.8</ele>
        <time>2022-04-28T11:19:39Z</time>
      </trkpt>
      <trkpt lat="44.73862" lon="2.6576">
        <ele>688.8</ele>
        <time>2022-04-28T11:19:50Z</time>
      </trkpt>
      <trkpt lat="44.7386" lon="2.65777">
        <ele>690</ele>
        <time>2022-04-28T11:20:00Z</time>
      </trkpt>
      <trkpt lat="44.73861" lon="2.65779">
        <ele>690</ele>
        <time>2022-04-28T11:20:01Z</time>
      </trkpt>
      <trkpt lat="44.73866" lon="2.6579">
        <ele>691</ele>
        <time>2022-04-28T11:20:11Z</time>
      </trkpt>
      <trkpt lat="44.73868" lon="2.65793">
        <ele>691</ele>
        <time>2022-04-28T11:20:13Z</time>
      </trkpt>
      <trkpt lat="44.73875" lon="2.65804">
        <ele>691.8</ele>
        <time>2022-04-28T11:20:23Z</time>
      </trkpt>
      <trkpt lat="44.73876" lon="2.65806">
        <ele>692</ele>
        <time>2022-04-28T11:20:24Z</time>
      </trkpt>
      <trkpt lat="44.73879" lon="2.65817">
        <ele>693.2</ele>
        <time>2022-04-28T11:20:32Z</time>
      </trkpt>
      <trkpt lat="44.73879" lon="2.65823">
        <ele>694</ele>
        <time>2022-04-28T11:20:37Z</time>
      </trkpt>
      <trkpt lat="44.7388" lon="2.65826">
        <ele>694.2</ele>
        <time>2022-04-28T11:20:39Z</time>
      </trkpt>
      <trkpt lat="44.73878" lon="2.65838">
        <ele>695.4</ele>
        <time>2022-04-28T11:20:47Z</time>
      </trkpt>
      <trkpt lat="44.7387" lon="2.65854">
        <ele>696.6</ele>
        <time>2022-04-28T11:20:59Z</time>
      </trkpt>
      <trkpt lat="44.73867" lon="2.65857">
        <ele>697.2</ele>
        <time>2022-04-28T11:21:04Z</time>
      </trkpt>
      <trkpt lat="44.73867" lon="2.65857">
        <ele>697.2</ele>
        <time>2022-04-28T11:21:05Z</time>
      </trkpt>
      <trkpt lat="44.73867" lon="2.65857">
        <ele>697.4</ele>
        <time>2022-04-28T11:21:06Z</time>
      </trkpt>
      <trkpt lat="44.73867" lon="2.65856">
        <ele>697.4</ele>
        <time>2022-04-28T11:21:09Z</time>
      </trkpt>
      <trkpt lat="44.73865" lon="2.65853">
        <ele>697.6</ele>
        <time>2022-04-28T11:21:18Z</time>
      </trkpt>
      <trkpt lat="44.73863" lon="2.65851">
        <ele>698</ele>
        <time>2022-04-28T11:21:22Z</time>
      </trkpt>
      <trkpt lat="44.73862" lon="2.65848">
        <ele>698.2</ele>
        <time>2022-04-28T11:21:25Z</time>
      </trkpt>
      <trkpt lat="44.7386" lon="2.65845">
        <ele>698.6</ele>
        <time>2022-04-28T11:21:28Z</time>
      </trkpt>
      <trkpt lat="44.73856" lon="2.6584">
        <ele>699.4</ele>
        <time>2022-04-28T11:21:33Z</time>
      </trkpt>
      <trkpt lat="44.73854" lon="2.65835">
        <ele>699.6</ele>
        <time>2022-04-28T11:21:36Z</time>
      </trkpt>
      <trkpt lat="44.73847" lon="2.65828">
        <ele>700.8</ele>
        <time>2022-04-28T11:21:45Z</time>
      </trkpt>
      <trkpt lat="44.73842" lon="2.6583">
        <ele>701.8</ele>
        <time>2022-04-28T11:21:52Z</time>
      </trkpt>
      <trkpt lat="44.73841" lon="2.6583">
        <ele>702</ele>
        <time>2022-04-28T11:21:53Z</time>
      </trkpt>
      <trkpt lat="44.73836" lon="2.65832">
        <ele>702.4</ele>
        <time>2022-04-28T11:21:57Z</time>
      </trkpt>
      <trkpt lat="44.73832" lon="2.65834">
        <ele>703</ele>
        <time>2022-04-28T11:22:01Z</time>
      </trkpt>
      <trkpt lat="44.73827" lon="2.65838">
        <ele>704</ele>
        <time>2022-04-28T11:22:07Z</time>
      </trkpt>
      <trkpt lat="44.73825" lon="2.65839">
        <ele>704.6</ele>
        <time>2022-04-28T11:22:10Z</time>
      </trkpt>
      <trkpt lat="44.73821" lon="2.65841">
        <ele>705.2</ele>
        <time>2022-04-28T11:22:14Z</time>
      </trkpt>
      <trkpt lat="44.73811" lon="2.65844">
        <ele>706</ele>
        <time>2022-04-28T11:22:23Z</time>
      </trkpt>
      <trkpt lat="44.73809" lon="2.65845">
        <ele>706.4</ele>
        <time>2022-04-28T11:22:25Z</time>
      </trkpt>
      <trkpt lat="44.73802" lon="2.65851">
        <ele>707.4</ele>
        <time>2022-04-28T11:22:33Z</time>
      </trkpt>
      <trkpt lat="44.738" lon="2.65854">
        <ele>707.8</ele>
        <time>2022-04-28T11:22:36Z</time>
      </trkpt>
      <trkpt lat="44.73796" lon="2.6586">
        <ele>708.4</ele>
        <time>2022-04-28T11:22:41Z</time>
      </trkpt>
      <trkpt lat="44.73795" lon="2.65863">
        <ele>708.8</ele>
        <time>2022-04-28T11:22:43Z</time>
      </trkpt>
      <trkpt lat="44.73793" lon="2.65868">
        <ele>709.6</ele>
        <time>2022-04-28T11:22:47Z</time>
      </trkpt>
      <trkpt lat="44.73791" lon="2.6587">
        <ele>709.8</ele>
        <time>2022-04-28T11:22:49Z</time>
      </trkpt>
      <trkpt lat="44.73786" lon="2.65885">
        <ele>710.6</ele>
        <time>2022-04-28T11:22:58Z</time>
      </trkpt>
      <trkpt lat="44.73784" lon="2.65889">
        <ele>710.6</ele>
        <time>2022-04-28T11:23:01Z</time>
      </trkpt>
      <trkpt lat="44.7378" lon="2.65901">
        <ele>711.6</ele>
        <time>2022-04-28T11:23:09Z</time>
      </trkpt>
      <trkpt lat="44.73777" lon="2.65911">
        <ele>712.6</ele>
        <time>2022-04-28T11:23:16Z</time>
      </trkpt>
      <trkpt lat="44.73776" lon="2.65912">
        <ele>712.6</ele>
        <time>2022-04-28T11:23:17Z</time>
      </trkpt>
      <trkpt lat="44.73772" lon="2.65918">
        <ele>713.8</ele>
        <time>2022-04-28T11:23:23Z</time>
      </trkpt>
      <trkpt lat="44.73766" lon="2.65924">
        <ele>714.6</ele>
        <time>2022-04-28T11:23:30Z</time>
      </trkpt>
      <trkpt lat="44.73765" lon="2.65924">
        <ele>714.8</ele>
        <time>2022-04-28T11:23:31Z</time>
      </trkpt>
      <trkpt lat="44.73758" lon="2.65929">
        <ele>716</ele>
        <time>2022-04-28T11:23:39Z</time>
      </trkpt>
      <trkpt lat="44.73757" lon="2.6593">
        <ele>716</ele>
        <time>2022-04-28T11:23:40Z</time>
      </trkpt>
      <trkpt lat="44.73755" lon="2.65931">
        <ele>716.2</ele>
        <time>2022-04-28T11:23:42Z</time>
      </trkpt>
      <trkpt lat="44.73752" lon="2.65934">
        <ele>717</ele>
        <time>2022-04-28T11:23:46Z</time>
      </trkpt>
      <trkpt lat="44.73743" lon="2.65942">
        <ele>718</ele>
        <time>2022-04-28T11:23:55Z</time>
      </trkpt>
      <trkpt lat="44.73742" lon="2.65943">
        <ele>718</ele>
        <time>2022-04-28T11:23:56Z</time>
      </trkpt>
      <trkpt lat="44.73738" lon="2.65945">
        <ele>718.6</ele>
        <time>2022-04-28T11:24:01Z</time>
      </trkpt>
      <trkpt lat="44.73737" lon="2.65946">
        <ele>718.6</ele>
        <time>2022-04-28T11:24:05Z</time>
      </trkpt>
      <trkpt lat="44.73737" lon="2.65945">
        <ele>718.6</ele>
        <time>2022-04-28T11:24:20Z</time>
      </trkpt>
      <trkpt lat="44.73735" lon="2.65945">
        <ele>718.6</ele>
        <time>2022-04-28T11:24:31Z</time>
      </trkpt>
      <trkpt lat="44.73734" lon="2.65945">
        <ele>719</ele>
        <time>2022-04-28T11:24:44Z</time>
      </trkpt>
      <trkpt lat="44.73734" lon="2.65946">
        <ele>718.6</ele>
        <time>2022-04-28T11:24:58Z</time>
      </trkpt>
      <trkpt lat="44.73734" lon="2.65947">
        <ele>719.2</ele>
        <time>2022-04-28T11:25:08Z</time>
      </trkpt>
      <trkpt lat="44.73733" lon="2.6595">
        <ele>719</ele>
        <time>2022-04-28T11:25:18Z</time>
      </trkpt>
      <trkpt lat="44.73732" lon="2.65951">
        <ele>718.4</ele>
        <time>2022-04-28T11:25:28Z</time>
      </trkpt>
      <trkpt lat="44.73732" lon="2.65951">
        <ele>718</ele>
        <time>2022-04-28T11:25:40Z</time>
      </trkpt>
      <trkpt lat="44.73732" lon="2.65951">
        <ele>718</ele>
        <time>2022-04-28T11:25:44Z</time>
      </trkpt>
      <trkpt lat="44.7373" lon="2.65949">
        <ele>718</ele>
        <time>2022-04-28T11:26:00Z</time>
      </trkpt>
      <trkpt lat="44.73726" lon="2.65945">
        <ele>718.4</ele>
        <time>2022-04-28T11:26:11Z</time>
      </trkpt>
      <trkpt lat="44.73727" lon="2.6595">
        <ele>718.4</ele>
        <time>2022-04-28T11:26:26Z</time>
      </trkpt>
      <trkpt lat="44.73727" lon="2.65955">
        <ele>718.4</ele>
        <time>2022-04-28T11:26:40Z</time>
      </trkpt>
      <trkpt lat="44.73722" lon="2.65969">
        <ele>718.4</ele>
        <time>2022-04-28T11:26:50Z</time>
      </trkpt>
      <trkpt lat="44.73714" lon="2.65985">
        <ele>718.6</ele>
        <time>2022-04-28T11:27:02Z</time>
      </trkpt>
      <trkpt lat="44.73713" lon="2.65989">
        <ele>719</ele>
        <time>2022-04-28T11:27:05Z</time>
      </trkpt>
      <trkpt lat="44.73707" lon="2.66002">
        <ele>720.2</ele>
        <time>2022-04-28T11:27:15Z</time>
      </trkpt>
      <trkpt lat="44.73706" lon="2.66005">
        <ele>720.4</ele>
        <time>2022-04-28T11:27:17Z</time>
      </trkpt>
      <trkpt lat="44.73702" lon="2.66016">
        <ele>721.2</ele>
        <time>2022-04-28T11:27:26Z</time>
      </trkpt>
      <trkpt lat="44.73699" lon="2.66021">
        <ele>721.6</ele>
        <time>2022-04-28T11:27:30Z</time>
      </trkpt>
      <trkpt lat="44.7369" lon="2.66038">
        <ele>722.2</ele>
        <time>2022-04-28T11:27:44Z</time>
      </trkpt>
      <trkpt lat="44.73689" lon="2.6604">
        <ele>722.2</ele>
        <time>2022-04-28T11:27:46Z</time>
      </trkpt>
      <trkpt lat="44.73679" lon="2.66051">
        <ele>722.8</ele>
        <time>2022-04-28T11:27:58Z</time>
      </trkpt>
      <trkpt lat="44.73672" lon="2.66058">
        <ele>723.4</ele>
        <time>2022-04-28T11:28:05Z</time>
      </trkpt>
      <trkpt lat="44.73666" lon="2.66067">
        <ele>724</ele>
        <time>2022-04-28T11:28:12Z</time>
      </trkpt>
      <trkpt lat="44.73663" lon="2.66075">
        <ele>724.4</ele>
        <time>2022-04-28T11:28:19Z</time>
      </trkpt>
      <trkpt lat="44.73662" lon="2.66076">
        <ele>724.4</ele>
        <time>2022-04-28T11:28:20Z</time>
      </trkpt>
      <trkpt lat="44.73657" lon="2.66084">
        <ele>725</ele>
        <time>2022-04-28T11:28:27Z</time>
      </trkpt>
      <trkpt lat="44.7365" lon="2.66092">
        <ele>725.6</ele>
        <time>2022-04-28T11:28:34Z</time>
      </trkpt>
      <trkpt lat="44.73643" lon="2.661">
        <ele>726</ele>
        <time>2022-04-28T11:28:42Z</time>
      </trkpt>
      <trkpt lat="44.73636" lon="2.66108">
        <ele>726.4</ele>
        <time>2022-04-28T11:28:50Z</time>
      </trkpt>
      <trkpt lat="44.73635" lon="2.66108">
        <ele>726.8</ele>
        <time>2022-04-28T11:28:51Z</time>
      </trkpt>
      <trkpt lat="44.73627" lon="2.66119">
        <ele>727.4</ele>
        <time>2022-04-28T11:29:01Z</time>
      </trkpt>
      <trkpt lat="44.73623" lon="2.66124">
        <ele>727.8</ele>
        <time>2022-04-28T11:29:06Z</time>
      </trkpt>
      <trkpt lat="44.73621" lon="2.66125">
        <ele>728</ele>
        <time>2022-04-28T11:29:08Z</time>
      </trkpt>
      <trkpt lat="44.73613" lon="2.66134">
        <ele>728.4</ele>
        <time>2022-04-28T11:29:17Z</time>
      </trkpt>
      <trkpt lat="44.73609" lon="2.66139">
        <ele>728.8</ele>
        <time>2022-04-28T11:29:22Z</time>
      </trkpt>
      <trkpt lat="44.73604" lon="2.66144">
        <ele>729.2</ele>
        <time>2022-04-28T11:29:27Z</time>
      </trkpt>
      <trkpt lat="44.73596" lon="2.66152">
        <ele>729.2</ele>
        <time>2022-04-28T11:29:35Z</time>
      </trkpt>
      <trkpt lat="44.73591" lon="2.66157">
        <ele>728.8</ele>
        <time>2022-04-28T11:29:40Z</time>
      </trkpt>
      <trkpt lat="44.73584" lon="2.66161">
        <ele>729</ele>
        <time>2022-04-28T11:29:46Z</time>
      </trkpt>
      <trkpt lat="44.73573" lon="2.66168">
        <ele>729</ele>
        <time>2022-04-28T11:29:55Z</time>
      </trkpt>
      <trkpt lat="44.73564" lon="2.66174">
        <ele>729.4</ele>
        <time>2022-04-28T11:30:03Z</time>
      </trkpt>
      <trkpt lat="44.73557" lon="2.66181">
        <ele>729.4</ele>
        <time>2022-04-28T11:30:11Z</time>
      </trkpt>
      <trkpt lat="44.7355" lon="2.66187">
        <ele>729.4</ele>
        <time>2022-04-28T11:30:18Z</time>
      </trkpt>
      <trkpt lat="44.73542" lon="2.66194">
        <ele>729.2</ele>
        <time>2022-04-28T11:30:26Z</time>
      </trkpt>
      <trkpt lat="44.73532" lon="2.66204">
        <ele>729</ele>
        <time>2022-04-28T11:30:36Z</time>
      </trkpt>
      <trkpt lat="44.73521" lon="2.66212">
        <ele>729</ele>
        <time>2022-04-28T11:30:46Z</time>
      </trkpt>
      <trkpt lat="44.73512" lon="2.6622">
        <ele>729.2</ele>
        <time>2022-04-28T11:30:55Z</time>
      </trkpt>
      <trkpt lat="44.73503" lon="2.66229">
        <ele>729.2</ele>
        <time>2022-04-28T11:31:04Z</time>
      </trkpt>
      <trkpt lat="44.73495" lon="2.66235">
        <ele>729</ele>
        <time>2022-04-28T11:31:12Z</time>
      </trkpt>
      <trkpt lat="44.73485" lon="2.66242">
        <ele>729.2</ele>
        <time>2022-04-28T11:31:20Z</time>
      </trkpt>
      <trkpt lat="44.73484" lon="2.66243">
        <ele>729.2</ele>
        <time>2022-04-28T11:31:21Z</time>
      </trkpt>
      <trkpt lat="44.73478" lon="2.66249">
        <ele>728.6</ele>
        <time>2022-04-28T11:31:28Z</time>
      </trkpt>
      <trkpt lat="44.73471" lon="2.66257">
        <ele>728.2</ele>
        <time>2022-04-28T11:31:36Z</time>
      </trkpt>
      <trkpt lat="44.73462" lon="2.66271">
        <ele>727.8</ele>
        <time>2022-04-28T11:31:47Z</time>
      </trkpt>
      <trkpt lat="44.73455" lon="2.66279">
        <ele>727.4</ele>
        <time>2022-04-28T11:31:55Z</time>
      </trkpt>
      <trkpt lat="44.73447" lon="2.66288">
        <ele>727</ele>
        <time>2022-04-28T11:32:03Z</time>
      </trkpt>
      <trkpt lat="44.73445" lon="2.66289">
        <ele>726.6</ele>
        <time>2022-04-28T11:32:05Z</time>
      </trkpt>
      <trkpt lat="44.73438" lon="2.66294">
        <ele>726</ele>
        <time>2022-04-28T11:32:11Z</time>
      </trkpt>
      <trkpt lat="44.73428" lon="2.66301">
        <ele>726</ele>
        <time>2022-04-28T11:32:20Z</time>
      </trkpt>
      <trkpt lat="44.73422" lon="2.66304">
        <ele>725.6</ele>
        <time>2022-04-28T11:32:26Z</time>
      </trkpt>
      <trkpt lat="44.7342" lon="2.66305">
        <ele>725.4</ele>
        <time>2022-04-28T11:32:28Z</time>
      </trkpt>
      <trkpt lat="44.73414" lon="2.66311">
        <ele>725.2</ele>
        <time>2022-04-28T11:32:35Z</time>
      </trkpt>
      <trkpt lat="44.73414" lon="2.66311">
        <ele>725</ele>
        <time>2022-04-28T11:32:36Z</time>
      </trkpt>
      <trkpt lat="44.73413" lon="2.66311">
        <ele>725</ele>
        <time>2022-04-28T11:32:37Z</time>
      </trkpt>
      <trkpt lat="44.73413" lon="2.66312">
        <ele>725</ele>
        <time>2022-04-28T11:32:39Z</time>
      </trkpt>
      <trkpt lat="44.73407" lon="2.66317">
        <ele>724.8</ele>
        <time>2022-04-28T11:32:44Z</time>
      </trkpt>
      <trkpt lat="44.73405" lon="2.66318">
        <ele>724.6</ele>
        <time>2022-04-28T11:32:46Z</time>
      </trkpt>
      <trkpt lat="44.73401" lon="2.66319">
        <ele>724.6</ele>
        <time>2022-04-28T11:32:50Z</time>
      </trkpt>
      <trkpt lat="44.734" lon="2.66319">
        <ele>724.2</ele>
        <time>2022-04-28T11:32:51Z</time>
      </trkpt>
      <trkpt lat="44.734" lon="2.66319">
        <ele>724</ele>
        <time>2022-04-28T11:32:52Z</time>
      </trkpt>
      <trkpt lat="44.734" lon="2.6632">
        <ele>723.2</ele>
        <time>2022-04-28T11:32:55Z</time>
      </trkpt>
      <trkpt lat="44.734" lon="2.6632">
        <ele>723</ele>
        <time>2022-04-28T11:32:56Z</time>
      </trkpt>
      <trkpt lat="44.734" lon="2.66322">
        <ele>722.8</ele>
        <time>2022-04-28T11:32:58Z</time>
      </trkpt>
      <trkpt lat="44.73398" lon="2.66323">
        <ele>722.6</ele>
        <time>2022-04-28T11:33:00Z</time>
      </trkpt>
      <trkpt lat="44.73395" lon="2.6633">
        <ele>722.4</ele>
        <time>2022-04-28T11:33:05Z</time>
      </trkpt>
      <trkpt lat="44.73392" lon="2.66333">
        <ele>722.4</ele>
        <time>2022-04-28T11:33:08Z</time>
      </trkpt>
      <trkpt lat="44.73388" lon="2.66336">
        <ele>722.2</ele>
        <time>2022-04-28T11:33:12Z</time>
      </trkpt>
      <trkpt lat="44.73387" lon="2.66337">
        <ele>722</ele>
        <time>2022-04-28T11:33:13Z</time>
      </trkpt>
      <trkpt lat="44.73377" lon="2.66343">
        <ele>721.2</ele>
        <time>2022-04-28T11:33:21Z</time>
      </trkpt>
      <trkpt lat="44.73376" lon="2.66344">
        <ele>721</ele>
        <time>2022-04-28T11:33:22Z</time>
      </trkpt>
      <trkpt lat="44.73371" lon="2.66347">
        <ele>720.8</ele>
        <time>2022-04-28T11:33:27Z</time>
      </trkpt>
      <trkpt lat="44.73371" lon="2.66348">
        <ele>720.8</ele>
        <time>2022-04-28T11:33:28Z</time>
      </trkpt>
      <trkpt lat="44.7337" lon="2.6635">
        <ele>720.6</ele>
        <time>2022-04-28T11:33:29Z</time>
      </trkpt>
      <trkpt lat="44.73367" lon="2.66353">
        <ele>720</ele>
        <time>2022-04-28T11:33:33Z</time>
      </trkpt>
      <trkpt lat="44.73365" lon="2.66354">
        <ele>719.8</ele>
        <time>2022-04-28T11:33:35Z</time>
      </trkpt>
      <trkpt lat="44.73361" lon="2.66356">
        <ele>719</ele>
        <time>2022-04-28T11:33:40Z</time>
      </trkpt>
      <trkpt lat="44.73358" lon="2.66358">
        <ele>718.8</ele>
        <time>2022-04-28T11:33:43Z</time>
      </trkpt>
      <trkpt lat="44.73356" lon="2.6636">
        <ele>718.6</ele>
        <time>2022-04-28T11:33:45Z</time>
      </trkpt>
      <trkpt lat="44.73353" lon="2.66361">
        <ele>718.4</ele>
        <time>2022-04-28T11:33:48Z</time>
      </trkpt>
      <trkpt lat="44.73349" lon="2.66363">
        <ele>717.6</ele>
        <time>2022-04-28T11:33:51Z</time>
      </trkpt>
      <trkpt lat="44.73347" lon="2.66363">
        <ele>717.6</ele>
        <time>2022-04-28T11:33:52Z</time>
      </trkpt>
      <trkpt lat="44.73346" lon="2.66364">
        <ele>717.2</ele>
        <time>2022-04-28T11:33:53Z</time>
      </trkpt>
      <trkpt lat="44.73334" lon="2.66369">
        <ele>716.8</ele>
        <time>2022-04-28T11:34:02Z</time>
      </trkpt>
      <trkpt lat="44.73332" lon="2.6637">
        <ele>716.6</ele>
        <time>2022-04-28T11:34:03Z</time>
      </trkpt>
      <trkpt lat="44.73329" lon="2.66372">
        <ele>716.4</ele>
        <time>2022-04-28T11:34:06Z</time>
      </trkpt>
      <trkpt lat="44.73327" lon="2.66374">
        <ele>716.2</ele>
        <time>2022-04-28T11:34:09Z</time>
      </trkpt>
      <trkpt lat="44.73322" lon="2.66378">
        <ele>716</ele>
        <time>2022-04-28T11:34:13Z</time>
      </trkpt>
      <trkpt lat="44.73316" lon="2.66384">
        <ele>715.8</ele>
        <time>2022-04-28T11:34:17Z</time>
      </trkpt>
      <trkpt lat="44.73313" lon="2.66388">
        <ele>715.6</ele>
        <time>2022-04-28T11:34:20Z</time>
      </trkpt>
      <trkpt lat="44.73309" lon="2.66393">
        <ele>715.6</ele>
        <time>2022-04-28T11:34:25Z</time>
      </trkpt>
      <trkpt lat="44.733" lon="2.66404">
        <ele>715.6</ele>
        <time>2022-04-28T11:34:33Z</time>
      </trkpt>
      <trkpt lat="44.73291" lon="2.66416">
        <ele>715.6</ele>
        <time>2022-04-28T11:34:42Z</time>
      </trkpt>
      <trkpt lat="44.73276" lon="2.66418">
        <ele>716</ele>
        <time>2022-04-28T11:34:52Z</time>
      </trkpt>
      <trkpt lat="44.73267" lon="2.6641">
        <ele>716</ele>
        <time>2022-04-28T11:35:00Z</time>
      </trkpt>
      <trkpt lat="44.73259" lon="2.66398">
        <ele>716.4</ele>
        <time>2022-04-28T11:35:09Z</time>
      </trkpt>
      <trkpt lat="44.73258" lon="2.66396">
        <ele>716.6</ele>
        <time>2022-04-28T11:35:10Z</time>
      </trkpt>
      <trkpt lat="44.73251" lon="2.66387">
        <ele>717</ele>
        <time>2022-04-28T11:35:17Z</time>
      </trkpt>
      <trkpt lat="44.73243" lon="2.66377">
        <ele>716.8</ele>
        <time>2022-04-28T11:35:25Z</time>
      </trkpt>
      <trkpt lat="44.73235" lon="2.66364">
        <ele>716</ele>
        <time>2022-04-28T11:35:35Z</time>
      </trkpt>
      <trkpt lat="44.7323" lon="2.66353">
        <ele>715.6</ele>
        <time>2022-04-28T11:35:42Z</time>
      </trkpt>
      <trkpt lat="44.73225" lon="2.66344">
        <ele>715.8</ele>
        <time>2022-04-28T11:35:49Z</time>
      </trkpt>
      <trkpt lat="44.73219" lon="2.6633">
        <ele>715.8</ele>
        <time>2022-04-28T11:35:58Z</time>
      </trkpt>
      <trkpt lat="44.73216" lon="2.66323">
        <ele>715.8</ele>
        <time>2022-04-28T11:36:03Z</time>
      </trkpt>
      <trkpt lat="44.73214" lon="2.66322">
        <ele>715.4</ele>
        <time>2022-04-28T11:36:05Z</time>
      </trkpt>
      <trkpt lat="44.73206" lon="2.66323">
        <ele>714.8</ele>
        <time>2022-04-28T11:36:13Z</time>
      </trkpt>
      <trkpt lat="44.73204" lon="2.66324">
        <ele>714.4</ele>
        <time>2022-04-28T11:36:15Z</time>
      </trkpt>
      <trkpt lat="44.73198" lon="2.66331">
        <ele>713.8</ele>
        <time>2022-04-28T11:36:21Z</time>
      </trkpt>
      <trkpt lat="44.73192" lon="2.66338">
        <ele>713.4</ele>
        <time>2022-04-28T11:36:28Z</time>
      </trkpt>
      <trkpt lat="44.73188" lon="2.66341">
        <ele>712.4</ele>
        <time>2022-04-28T11:36:32Z</time>
      </trkpt>
      <trkpt lat="44.73184" lon="2.66345">
        <ele>711.8</ele>
        <time>2022-04-28T11:36:37Z</time>
      </trkpt>
      <trkpt lat="44.73179" lon="2.66353">
        <ele>711.6</ele>
        <time>2022-04-28T11:36:46Z</time>
      </trkpt>
      <trkpt lat="44.73175" lon="2.66357">
        <ele>711.2</ele>
        <time>2022-04-28T11:36:54Z</time>
      </trkpt>
      <trkpt lat="44.73173" lon="2.66358">
        <ele>711.2</ele>
        <time>2022-04-28T11:36:56Z</time>
      </trkpt>
      <trkpt lat="44.7316" lon="2.6637">
        <ele>711.8</ele>
        <time>2022-04-28T11:37:07Z</time>
      </trkpt>
      <trkpt lat="44.73143" lon="2.66379">
        <ele>711.6</ele>
        <time>2022-04-28T11:37:20Z</time>
      </trkpt>
      <trkpt lat="44.7314" lon="2.6638">
        <ele>711.6</ele>
        <time>2022-04-28T11:37:22Z</time>
      </trkpt>
      <trkpt lat="44.73131" lon="2.66386">
        <ele>710.4</ele>
        <time>2022-04-28T11:37:30Z</time>
      </trkpt>
      <trkpt lat="44.73129" lon="2.66387">
        <ele>710.2</ele>
        <time>2022-04-28T11:37:32Z</time>
      </trkpt>
      <trkpt lat="44.73119" lon="2.66394">
        <ele>709.8</ele>
        <time>2022-04-28T11:37:40Z</time>
      </trkpt>
      <trkpt lat="44.73107" lon="2.66399">
        <ele>709.4</ele>
        <time>2022-04-28T11:37:48Z</time>
      </trkpt>
      <trkpt lat="44.73104" lon="2.664">
        <ele>709.2</ele>
        <time>2022-04-28T11:37:50Z</time>
      </trkpt>
      <trkpt lat="44.73097" lon="2.66402">
        <ele>708.8</ele>
        <time>2022-04-28T11:37:56Z</time>
      </trkpt>
      <trkpt lat="44.73087" lon="2.66404">
        <ele>708.2</ele>
        <time>2022-04-28T11:38:05Z</time>
      </trkpt>
      <trkpt lat="44.73086" lon="2.66404">
        <ele>708.2</ele>
        <time>2022-04-28T11:38:06Z</time>
      </trkpt>
      <trkpt lat="44.73079" lon="2.66405">
        <ele>707.8</ele>
        <time>2022-04-28T11:38:12Z</time>
      </trkpt>
      <trkpt lat="44.73075" lon="2.66404">
        <ele>707.6</ele>
        <time>2022-04-28T11:38:15Z</time>
      </trkpt>
      <trkpt lat="44.73072" lon="2.66398">
        <ele>707.4</ele>
        <time>2022-04-28T11:38:18Z</time>
      </trkpt>
      <trkpt lat="44.7307" lon="2.66393">
        <ele>707.2</ele>
        <time>2022-04-28T11:38:21Z</time>
      </trkpt>
      <trkpt lat="44.73069" lon="2.66384">
        <ele>707.2</ele>
        <time>2022-04-28T11:38:26Z</time>
      </trkpt>
      <trkpt lat="44.73066" lon="2.66371">
        <ele>707.2</ele>
        <time>2022-04-28T11:38:34Z</time>
      </trkpt>
      <trkpt lat="44.73066" lon="2.66358">
        <ele>707.6</ele>
        <time>2022-04-28T11:38:41Z</time>
      </trkpt>
      <trkpt lat="44.73066" lon="2.66343">
        <ele>707.2</ele>
        <time>2022-04-28T11:38:49Z</time>
      </trkpt>
      <trkpt lat="44.73067" lon="2.66327">
        <ele>706.2</ele>
        <time>2022-04-28T11:38:59Z</time>
      </trkpt>
      <trkpt lat="44.73068" lon="2.66312">
        <ele>705.6</ele>
        <time>2022-04-28T11:39:08Z</time>
      </trkpt>
      <trkpt lat="44.7307" lon="2.66296">
        <ele>705.2</ele>
        <time>2022-04-28T11:39:17Z</time>
      </trkpt>
      <trkpt lat="44.73069" lon="2.6628">
        <ele>704</ele>
        <time>2022-04-28T11:39:25Z</time>
      </trkpt>
      <trkpt lat="44.73069" lon="2.66278">
        <ele>704</ele>
        <time>2022-04-28T11:39:26Z</time>
      </trkpt>
      <trkpt lat="44.73071" lon="2.66262">
        <ele>703.6</ele>
        <time>2022-04-28T11:39:35Z</time>
      </trkpt>
      <trkpt lat="44.73072" lon="2.66247">
        <ele>703.8</ele>
        <time>2022-04-28T11:39:43Z</time>
      </trkpt>
      <trkpt lat="44.73071" lon="2.66232">
        <ele>703</ele>
        <time>2022-04-28T11:39:51Z</time>
      </trkpt>
      <trkpt lat="44.73071" lon="2.66216">
        <ele>702.8</ele>
        <time>2022-04-28T11:40:00Z</time>
      </trkpt>
      <trkpt lat="44.73071" lon="2.66203">
        <ele>702</ele>
        <time>2022-04-28T11:40:08Z</time>
      </trkpt>
      <trkpt lat="44.73072" lon="2.66196">
        <ele>701.8</ele>
        <time>2022-04-28T11:40:12Z</time>
      </trkpt>
      <trkpt lat="44.73074" lon="2.66181">
        <ele>702.2</ele>
        <time>2022-04-28T11:40:20Z</time>
      </trkpt>
      <trkpt lat="44.73074" lon="2.66168">
        <ele>701.6</ele>
        <time>2022-04-28T11:40:28Z</time>
      </trkpt>
      <trkpt lat="44.73076" lon="2.66158">
        <ele>700.8</ele>
        <time>2022-04-28T11:40:34Z</time>
      </trkpt>
      <trkpt lat="44.73076" lon="2.66155">
        <ele>700.6</ele>
        <time>2022-04-28T11:40:36Z</time>
      </trkpt>
      <trkpt lat="44.73077" lon="2.66138">
        <ele>700</ele>
        <time>2022-04-28T11:40:45Z</time>
      </trkpt>
      <trkpt lat="44.73077" lon="2.66132">
        <ele>699.8</ele>
        <time>2022-04-28T11:40:48Z</time>
      </trkpt>
      <trkpt lat="44.73078" lon="2.66121">
        <ele>699.2</ele>
        <time>2022-04-28T11:40:54Z</time>
      </trkpt>
      <trkpt lat="44.73077" lon="2.66108">
        <ele>698.8</ele>
        <time>2022-04-28T11:41:02Z</time>
      </trkpt>
      <trkpt lat="44.73078" lon="2.66106">
        <ele>698.8</ele>
        <time>2022-04-28T11:41:03Z</time>
      </trkpt>
      <trkpt lat="44.73078" lon="2.66092">
        <ele>698.4</ele>
        <time>2022-04-28T11:41:12Z</time>
      </trkpt>
      <trkpt lat="44.73077" lon="2.66085">
        <ele>697.8</ele>
        <time>2022-04-28T11:41:17Z</time>
      </trkpt>
      <trkpt lat="44.73076" lon="2.6608">
        <ele>697.4</ele>
        <time>2022-04-28T11:41:20Z</time>
      </trkpt>
      <trkpt lat="44.73072" lon="2.66062">
        <ele>696.8</ele>
        <time>2022-04-28T11:41:31Z</time>
      </trkpt>
      <trkpt lat="44.73072" lon="2.6606">
        <ele>696.8</ele>
        <time>2022-04-28T11:41:32Z</time>
      </trkpt>
      <trkpt lat="44.73069" lon="2.66049">
        <ele>695.6</ele>
        <time>2022-04-28T11:41:39Z</time>
      </trkpt>
      <trkpt lat="44.73069" lon="2.66047">
        <ele>695.4</ele>
        <time>2022-04-28T11:41:40Z</time>
      </trkpt>
      <trkpt lat="44.73069" lon="2.66035">
        <ele>694.8</ele>
        <time>2022-04-28T11:41:48Z</time>
      </trkpt>
      <trkpt lat="44.73071" lon="2.66028">
        <ele>694.6</ele>
        <time>2022-04-28T11:41:53Z</time>
      </trkpt>
      <trkpt lat="44.7307" lon="2.66025">
        <ele>694.4</ele>
        <time>2022-04-28T11:41:55Z</time>
      </trkpt>
      <trkpt lat="44.73068" lon="2.66009">
        <ele>694.6</ele>
        <time>2022-04-28T11:42:04Z</time>
      </trkpt>
      <trkpt lat="44.73071" lon="2.65996">
        <ele>694.4</ele>
        <time>2022-04-28T11:42:11Z</time>
      </trkpt>
      <trkpt lat="44.73071" lon="2.65996">
        <ele>694.4</ele>
        <time>2022-04-28T11:42:13Z</time>
      </trkpt>
      <trkpt lat="44.73067" lon="2.65988">
        <ele>694.4</ele>
        <time>2022-04-28T11:42:22Z</time>
      </trkpt>
      <trkpt lat="44.73067" lon="2.65976">
        <ele>693.6</ele>
        <time>2022-04-28T11:42:30Z</time>
      </trkpt>
      <trkpt lat="44.73067" lon="2.65975">
        <ele>693.6</ele>
        <time>2022-04-28T11:42:31Z</time>
      </trkpt>
      <trkpt lat="44.73067" lon="2.65972">
        <ele>693.4</ele>
        <time>2022-04-28T11:42:33Z</time>
      </trkpt>
      <trkpt lat="44.73066" lon="2.65968">
        <ele>693.2</ele>
        <time>2022-04-28T11:42:37Z</time>
      </trkpt>
      <trkpt lat="44.73067" lon="2.65965">
        <ele>693.2</ele>
        <time>2022-04-28T11:42:40Z</time>
      </trkpt>
      <trkpt lat="44.73066" lon="2.65962">
        <ele>692.8</ele>
        <time>2022-04-28T11:42:44Z</time>
      </trkpt>
      <trkpt lat="44.73065" lon="2.65959">
        <ele>692.8</ele>
        <time>2022-04-28T11:42:46Z</time>
      </trkpt>
      <trkpt lat="44.73062" lon="2.65952">
        <ele>693</ele>
        <time>2022-04-28T11:42:51Z</time>
      </trkpt>
      <trkpt lat="44.73062" lon="2.6595">
        <ele>693</ele>
        <time>2022-04-28T11:42:52Z</time>
      </trkpt>
      <trkpt lat="44.73058" lon="2.65936">
        <ele>693.8</ele>
        <time>2022-04-28T11:43:00Z</time>
      </trkpt>
      <trkpt lat="44.73054" lon="2.65921">
        <ele>693.6</ele>
        <time>2022-04-28T11:43:09Z</time>
      </trkpt>
      <trkpt lat="44.73051" lon="2.65913">
        <ele>693.4</ele>
        <time>2022-04-28T11:43:16Z</time>
      </trkpt>
      <trkpt lat="44.73051" lon="2.65913">
        <ele>693.4</ele>
        <time>2022-04-28T11:43:17Z</time>
      </trkpt>
      <trkpt lat="44.7305" lon="2.65912">
        <ele>693.4</ele>
        <time>2022-04-28T11:43:19Z</time>
      </trkpt>
      <trkpt lat="44.73049" lon="2.65906">
        <ele>693.6</ele>
        <time>2022-04-28T11:43:23Z</time>
      </trkpt>
      <trkpt lat="44.73045" lon="2.65896">
        <ele>693.6</ele>
        <time>2022-04-28T11:43:29Z</time>
      </trkpt>
      <trkpt lat="44.7304" lon="2.6588">
        <ele>693.2</ele>
        <time>2022-04-28T11:43:40Z</time>
      </trkpt>
      <trkpt lat="44.73038" lon="2.65871">
        <ele>692.4</ele>
        <time>2022-04-28T11:43:47Z</time>
      </trkpt>
      <trkpt lat="44.73038" lon="2.6587">
        <ele>692.4</ele>
        <time>2022-04-28T11:43:48Z</time>
      </trkpt>
      <trkpt lat="44.73041" lon="2.65862">
        <ele>691.8</ele>
        <time>2022-04-28T11:43:54Z</time>
      </trkpt>
      <trkpt lat="44.73042" lon="2.6586">
        <ele>691.6</ele>
        <time>2022-04-28T11:43:56Z</time>
      </trkpt>
      <trkpt lat="44.73042" lon="2.65859">
        <ele>691.6</ele>
        <time>2022-04-28T11:43:57Z</time>
      </trkpt>
      <trkpt lat="44.73042" lon="2.65857">
        <ele>691.8</ele>
        <time>2022-04-28T11:44:00Z</time>
      </trkpt>
      <trkpt lat="44.73042" lon="2.65857">
        <ele>692</ele>
        <time>2022-04-28T11:44:03Z</time>
      </trkpt>
      <trkpt lat="44.73043" lon="2.65856">
        <ele>692</ele>
        <time>2022-04-28T11:44:05Z</time>
      </trkpt>
      <trkpt lat="44.73042" lon="2.65853">
        <ele>691.6</ele>
        <time>2022-04-28T11:44:12Z</time>
      </trkpt>
      <trkpt lat="44.73045" lon="2.65848">
        <ele>691.4</ele>
        <time>2022-04-28T11:44:18Z</time>
      </trkpt>
      <trkpt lat="44.73046" lon="2.65844">
        <ele>691.2</ele>
        <time>2022-04-28T11:44:20Z</time>
      </trkpt>
      <trkpt lat="44.73047" lon="2.65837">
        <ele>690.8</ele>
        <time>2022-04-28T11:44:25Z</time>
      </trkpt>
      <trkpt lat="44.73051" lon="2.65825">
        <ele>690.2</ele>
        <time>2022-04-28T11:44:34Z</time>
      </trkpt>
      <trkpt lat="44.73055" lon="2.6582">
        <ele>689</ele>
        <time>2022-04-28T11:44:39Z</time>
      </trkpt>
      <trkpt lat="44.73056" lon="2.65816">
        <ele>688.6</ele>
        <time>2022-04-28T11:44:41Z</time>
      </trkpt>
      <trkpt lat="44.73056" lon="2.65813">
        <ele>688.2</ele>
        <time>2022-04-28T11:44:43Z</time>
      </trkpt>
      <trkpt lat="44.73056" lon="2.65813">
        <ele>687.8</ele>
        <time>2022-04-28T11:44:44Z</time>
      </trkpt>
      <trkpt lat="44.73055" lon="2.65803">
        <ele>687</ele>
        <time>2022-04-28T11:44:50Z</time>
      </trkpt>
      <trkpt lat="44.73054" lon="2.65801">
        <ele>686.6</ele>
        <time>2022-04-28T11:44:52Z</time>
      </trkpt>
      <trkpt lat="44.73052" lon="2.65799">
        <ele>686.2</ele>
        <time>2022-04-28T11:44:54Z</time>
      </trkpt>
      <trkpt lat="44.73051" lon="2.65799">
        <ele>686</ele>
        <time>2022-04-28T11:44:57Z</time>
      </trkpt>
      <trkpt lat="44.73051" lon="2.65799">
        <ele>685.8</ele>
        <time>2022-04-28T11:44:58Z</time>
      </trkpt>
      <trkpt lat="44.7305" lon="2.65799">
        <ele>685.8</ele>
        <time>2022-04-28T11:44:59Z</time>
      </trkpt>
      <trkpt lat="44.7305" lon="2.65799">
        <ele>685.6</ele>
        <time>2022-04-28T11:45:00Z</time>
      </trkpt>
      <trkpt lat="44.73047" lon="2.65798">
        <ele>684.8</ele>
        <time>2022-04-28T11:45:04Z</time>
      </trkpt>
      <trkpt lat="44.73046" lon="2.65798">
        <ele>684.6</ele>
        <time>2022-04-28T11:45:05Z</time>
      </trkpt>
      <trkpt lat="44.73044" lon="2.65796">
        <ele>684.4</ele>
        <time>2022-04-28T11:45:07Z</time>
      </trkpt>
      <trkpt lat="44.73042" lon="2.65793">
        <ele>684.2</ele>
        <time>2022-04-28T11:45:11Z</time>
      </trkpt>
      <trkpt lat="44.73041" lon="2.65792">
        <ele>684</ele>
        <time>2022-04-28T11:45:13Z</time>
      </trkpt>
      <trkpt lat="44.7304" lon="2.6579">
        <ele>683.6</ele>
        <time>2022-04-28T11:45:16Z</time>
      </trkpt>
      <trkpt lat="44.73038" lon="2.6579">
        <ele>683.4</ele>
        <time>2022-04-28T11:45:17Z</time>
      </trkpt>
      <trkpt lat="44.73038" lon="2.65789">
        <ele>683</ele>
        <time>2022-04-28T11:45:18Z</time>
      </trkpt>
      <trkpt lat="44.73037" lon="2.65789">
        <ele>682.8</ele>
        <time>2022-04-28T11:45:19Z</time>
      </trkpt>
      <trkpt lat="44.73034" lon="2.65788">
        <ele>682.2</ele>
        <time>2022-04-28T11:45:22Z</time>
      </trkpt>
      <trkpt lat="44.73033" lon="2.65788">
        <ele>682.2</ele>
        <time>2022-04-28T11:45:23Z</time>
      </trkpt>
      <trkpt lat="44.73033" lon="2.65786">
        <ele>681.6</ele>
        <time>2022-04-28T11:45:25Z</time>
      </trkpt>
      <trkpt lat="44.73033" lon="2.65786">
        <ele>681.4</ele>
        <time>2022-04-28T11:45:26Z</time>
      </trkpt>
      <trkpt lat="44.73033" lon="2.65785">
        <ele>681.2</ele>
        <time>2022-04-28T11:45:27Z</time>
      </trkpt>
      <trkpt lat="44.73033" lon="2.65784">
        <ele>681</ele>
        <time>2022-04-28T11:45:28Z</time>
      </trkpt>
      <trkpt lat="44.73033" lon="2.65782">
        <ele>680</ele>
        <time>2022-04-28T11:45:32Z</time>
      </trkpt>
      <trkpt lat="44.73034" lon="2.65775">
        <ele>679</ele>
        <time>2022-04-28T11:45:37Z</time>
      </trkpt>
      <trkpt lat="44.73034" lon="2.65775">
        <ele>679</ele>
        <time>2022-04-28T11:45:38Z</time>
      </trkpt>
      <trkpt lat="44.73034" lon="2.65773">
        <ele>679</ele>
        <time>2022-04-28T11:45:39Z</time>
      </trkpt>
      <trkpt lat="44.73033" lon="2.65769">
        <ele>678.6</ele>
        <time>2022-04-28T11:45:42Z</time>
      </trkpt>
      <trkpt lat="44.73032" lon="2.65768">
        <ele>678.2</ele>
        <time>2022-04-28T11:45:44Z</time>
      </trkpt>
      <trkpt lat="44.73032" lon="2.65767">
        <ele>678.2</ele>
        <time>2022-04-28T11:45:45Z</time>
      </trkpt>
      <trkpt lat="44.73032" lon="2.65764">
        <ele>678</ele>
        <time>2022-04-28T11:45:48Z</time>
      </trkpt>
      <trkpt lat="44.73032" lon="2.65763">
        <ele>678</ele>
        <time>2022-04-28T11:45:49Z</time>
      </trkpt>
      <trkpt lat="44.73031" lon="2.65762">
        <ele>677.8</ele>
        <time>2022-04-28T11:45:51Z</time>
      </trkpt>
      <trkpt lat="44.73032" lon="2.65761">
        <ele>677.8</ele>
        <time>2022-04-28T11:45:52Z</time>
      </trkpt>
      <trkpt lat="44.73032" lon="2.6576">
        <ele>677.4</ele>
        <time>2022-04-28T11:45:54Z</time>
      </trkpt>
      <trkpt lat="44.73032" lon="2.65759">
        <ele>677.2</ele>
        <time>2022-04-28T11:45:56Z</time>
      </trkpt>
      <trkpt lat="44.73032" lon="2.65759">
        <ele>677</ele>
        <time>2022-04-28T11:45:57Z</time>
      </trkpt>
      <trkpt lat="44.73031" lon="2.65755">
        <ele>676.2</ele>
        <time>2022-04-28T11:46:01Z</time>
      </trkpt>
      <trkpt lat="44.7303" lon="2.65753">
        <ele>676</ele>
        <time>2022-04-28T11:46:03Z</time>
      </trkpt>
      <trkpt lat="44.7303" lon="2.65751">
        <ele>676</ele>
        <time>2022-04-28T11:46:04Z</time>
      </trkpt>
      <trkpt lat="44.73029" lon="2.65751">
        <ele>675.8</ele>
        <time>2022-04-28T11:46:05Z</time>
      </trkpt>
      <trkpt lat="44.73029" lon="2.65749">
        <ele>675.4</ele>
        <time>2022-04-28T11:46:06Z</time>
      </trkpt>
      <trkpt lat="44.73029" lon="2.65746">
        <ele>675</ele>
        <time>2022-04-28T11:46:09Z</time>
      </trkpt>
      <trkpt lat="44.73027" lon="2.65745">
        <ele>674.8</ele>
        <time>2022-04-28T11:46:11Z</time>
      </trkpt>
      <trkpt lat="44.73026" lon="2.65743">
        <ele>673.6</ele>
        <time>2022-04-28T11:46:16Z</time>
      </trkpt>
      <trkpt lat="44.73026" lon="2.65743">
        <ele>673.4</ele>
        <time>2022-04-28T11:46:18Z</time>
      </trkpt>
      <trkpt lat="44.73025" lon="2.65738">
        <ele>672.6</ele>
        <time>2022-04-28T11:46:21Z</time>
      </trkpt>
      <trkpt lat="44.73024" lon="2.65731">
        <ele>672.2</ele>
        <time>2022-04-28T11:46:26Z</time>
      </trkpt>
      <trkpt lat="44.73027" lon="2.65723">
        <ele>671.6</ele>
        <time>2022-04-28T11:46:32Z</time>
      </trkpt>
      <trkpt lat="44.73026" lon="2.65722">
        <ele>671.6</ele>
        <time>2022-04-28T11:46:33Z</time>
      </trkpt>
      <trkpt lat="44.73026" lon="2.6572">
        <ele>671.6</ele>
        <time>2022-04-28T11:46:35Z</time>
      </trkpt>
      <trkpt lat="44.73028" lon="2.65716">
        <ele>671.6</ele>
        <time>2022-04-28T11:46:39Z</time>
      </trkpt>
      <trkpt lat="44.73031" lon="2.65709">
        <ele>671.6</ele>
        <time>2022-04-28T11:46:45Z</time>
      </trkpt>
      <trkpt lat="44.73031" lon="2.65707">
        <ele>671.6</ele>
        <time>2022-04-28T11:46:46Z</time>
      </trkpt>
      <trkpt lat="44.73032" lon="2.657">
        <ele>671</ele>
        <time>2022-04-28T11:46:51Z</time>
      </trkpt>
      <trkpt lat="44.73031" lon="2.65696">
        <ele>671.4</ele>
        <time>2022-04-28T11:46:54Z</time>
      </trkpt>
      <trkpt lat="44.73031" lon="2.65693">
        <ele>671.6</ele>
        <time>2022-04-28T11:46:56Z</time>
      </trkpt>
      <trkpt lat="44.7303" lon="2.65687">
        <ele>672.6</ele>
        <time>2022-04-28T11:47:01Z</time>
      </trkpt>
      <trkpt lat="44.73031" lon="2.65686">
        <ele>672.6</ele>
        <time>2022-04-28T11:47:02Z</time>
      </trkpt>
      <trkpt lat="44.73029" lon="2.65684">
        <ele>673.4</ele>
        <time>2022-04-28T11:47:03Z</time>
      </trkpt>
      <trkpt lat="44.73029" lon="2.65684">
        <ele>673.8</ele>
        <time>2022-04-28T11:47:06Z</time>
      </trkpt>
      <trkpt lat="44.73028" lon="2.65684">
        <ele>673.8</ele>
        <time>2022-04-28T11:47:07Z</time>
      </trkpt>
      <trkpt lat="44.73028" lon="2.65684">
        <ele>674</ele>
        <time>2022-04-28T11:47:08Z</time>
      </trkpt>
      <trkpt lat="44.73028" lon="2.6568">
        <ele>675</ele>
        <time>2022-04-28T11:47:13Z</time>
      </trkpt>
      <trkpt lat="44.73028" lon="2.65679">
        <ele>675.2</ele>
        <time>2022-04-28T11:47:14Z</time>
      </trkpt>
      <trkpt lat="44.73028" lon="2.65678">
        <ele>675.4</ele>
        <time>2022-04-28T11:47:15Z</time>
      </trkpt>
      <trkpt lat="44.73027" lon="2.65676">
        <ele>675.6</ele>
        <time>2022-04-28T11:47:18Z</time>
      </trkpt>
      <trkpt lat="44.73027" lon="2.65675">
        <ele>676.2</ele>
        <time>2022-04-28T11:47:19Z</time>
      </trkpt>
      <trkpt lat="44.73027" lon="2.65674">
        <ele>676.4</ele>
        <time>2022-04-28T11:47:20Z</time>
      </trkpt>
      <trkpt lat="44.73026" lon="2.6567">
        <ele>676.8</ele>
        <time>2022-04-28T11:47:23Z</time>
      </trkpt>
      <trkpt lat="44.73026" lon="2.65668">
        <ele>677.2</ele>
        <time>2022-04-28T11:47:24Z</time>
      </trkpt>
      <trkpt lat="44.73025" lon="2.65657">
        <ele>678</ele>
        <time>2022-04-28T11:47:31Z</time>
      </trkpt>
      <trkpt lat="44.73025" lon="2.65656">
        <ele>678</ele>
        <time>2022-04-28T11:47:32Z</time>
      </trkpt>
      <trkpt lat="44.73024" lon="2.6565">
        <ele>677.8</ele>
        <time>2022-04-28T11:47:36Z</time>
      </trkpt>
      <trkpt lat="44.73023" lon="2.65648">
        <ele>677.6</ele>
        <time>2022-04-28T11:47:38Z</time>
      </trkpt>
      <trkpt lat="44.73022" lon="2.65644">
        <ele>676.8</ele>
        <time>2022-04-28T11:47:42Z</time>
      </trkpt>
      <trkpt lat="44.73022" lon="2.65641">
        <ele>676.4</ele>
        <time>2022-04-28T11:47:45Z</time>
      </trkpt>
      <trkpt lat="44.73022" lon="2.6564">
        <ele>676.2</ele>
        <time>2022-04-28T11:47:46Z</time>
      </trkpt>
      <trkpt lat="44.73022" lon="2.65639">
        <ele>676</ele>
        <time>2022-04-28T11:47:47Z</time>
      </trkpt>
      <trkpt lat="44.73022" lon="2.65636">
        <ele>675.8</ele>
        <time>2022-04-28T11:47:49Z</time>
      </trkpt>
      <trkpt lat="44.73023" lon="2.65634">
        <ele>675.6</ele>
        <time>2022-04-28T11:47:51Z</time>
      </trkpt>
      <trkpt lat="44.73023" lon="2.65629">
        <ele>675.2</ele>
        <time>2022-04-28T11:47:54Z</time>
      </trkpt>
      <trkpt lat="44.73023" lon="2.65627">
        <ele>675.2</ele>
        <time>2022-04-28T11:47:55Z</time>
      </trkpt>
      <trkpt lat="44.73022" lon="2.65624">
        <ele>675</ele>
        <time>2022-04-28T11:47:57Z</time>
      </trkpt>
      <trkpt lat="44.73019" lon="2.65617">
        <ele>674.4</ele>
        <time>2022-04-28T11:48:02Z</time>
      </trkpt>
      <trkpt lat="44.73019" lon="2.65614">
        <ele>674</ele>
        <time>2022-04-28T11:48:05Z</time>
      </trkpt>
      <trkpt lat="44.73019" lon="2.65613">
        <ele>674</ele>
        <time>2022-04-28T11:48:06Z</time>
      </trkpt>
      <trkpt lat="44.73019" lon="2.65611">
        <ele>673.8</ele>
        <time>2022-04-28T11:48:08Z</time>
      </trkpt>
      <trkpt lat="44.73019" lon="2.6561">
        <ele>673.6</ele>
        <time>2022-04-28T11:48:09Z</time>
      </trkpt>
      <trkpt lat="44.73015" lon="2.656">
        <ele>673.2</ele>
        <time>2022-04-28T11:48:15Z</time>
      </trkpt>
      <trkpt lat="44.73015" lon="2.65596">
        <ele>672.8</ele>
        <time>2022-04-28T11:48:17Z</time>
      </trkpt>
      <trkpt lat="44.73015" lon="2.65594">
        <ele>672.8</ele>
        <time>2022-04-28T11:48:18Z</time>
      </trkpt>
      <trkpt lat="44.73015" lon="2.65591">
        <ele>672.6</ele>
        <time>2022-04-28T11:48:21Z</time>
      </trkpt>
      <trkpt lat="44.73015" lon="2.65591">
        <ele>672.4</ele>
        <time>2022-04-28T11:48:22Z</time>
      </trkpt>
      <trkpt lat="44.73015" lon="2.6559">
        <ele>672.6</ele>
        <time>2022-04-28T11:48:23Z</time>
      </trkpt>
      <trkpt lat="44.73014" lon="2.65585">
        <ele>672.2</ele>
        <time>2022-04-28T11:48:27Z</time>
      </trkpt>
      <trkpt lat="44.73015" lon="2.65583">
        <ele>672.2</ele>
        <time>2022-04-28T11:48:29Z</time>
      </trkpt>
      <trkpt lat="44.73015" lon="2.65581">
        <ele>671.8</ele>
        <time>2022-04-28T11:48:31Z</time>
      </trkpt>
      <trkpt lat="44.73015" lon="2.65577">
        <ele>671.4</ele>
        <time>2022-04-28T11:48:35Z</time>
      </trkpt>
      <trkpt lat="44.73015" lon="2.65575">
        <ele>671.2</ele>
        <time>2022-04-28T11:48:37Z</time>
      </trkpt>
      <trkpt lat="44.73014" lon="2.65569">
        <ele>670.8</ele>
        <time>2022-04-28T11:48:41Z</time>
      </trkpt>
      <trkpt lat="44.73014" lon="2.65569">
        <ele>670.6</ele>
        <time>2022-04-28T11:48:42Z</time>
      </trkpt>
      <trkpt lat="44.73013" lon="2.65568">
        <ele>670.6</ele>
        <time>2022-04-28T11:48:43Z</time>
      </trkpt>
      <trkpt lat="44.73013" lon="2.65565">
        <ele>670</ele>
        <time>2022-04-28T11:48:45Z</time>
      </trkpt>
      <trkpt lat="44.73012" lon="2.65564">
        <ele>669.6</ele>
        <time>2022-04-28T11:48:47Z</time>
      </trkpt>
      <trkpt lat="44.73012" lon="2.65564">
        <ele>669.6</ele>
        <time>2022-04-28T11:48:49Z</time>
      </trkpt>
      <trkpt lat="44.73011" lon="2.65562">
        <ele>669.4</ele>
        <time>2022-04-28T11:48:50Z</time>
      </trkpt>
      <trkpt lat="44.73011" lon="2.65562">
        <ele>669.4</ele>
        <time>2022-04-28T11:48:51Z</time>
      </trkpt>
      <trkpt lat="44.73009" lon="2.65557">
        <ele>669.2</ele>
        <time>2022-04-28T11:48:55Z</time>
      </trkpt>
      <trkpt lat="44.73006" lon="2.65555">
        <ele>668.6</ele>
        <time>2022-04-28T11:48:58Z</time>
      </trkpt>
      <trkpt lat="44.73006" lon="2.65551">
        <ele>668.6</ele>
        <time>2022-04-28T11:48:59Z</time>
      </trkpt>
      <trkpt lat="44.73004" lon="2.65547">
        <ele>668.4</ele>
        <time>2022-04-28T11:49:03Z</time>
      </trkpt>
      <trkpt lat="44.73003" lon="2.65546">
        <ele>668.2</ele>
        <time>2022-04-28T11:49:04Z</time>
      </trkpt>
      <trkpt lat="44.73001" lon="2.65542">
        <ele>668</ele>
        <time>2022-04-28T11:49:07Z</time>
      </trkpt>
      <trkpt lat="44.72999" lon="2.65537">
        <ele>667.6</ele>
        <time>2022-04-28T11:49:11Z</time>
      </trkpt>
      <trkpt lat="44.72998" lon="2.65536">
        <ele>667.6</ele>
        <time>2022-04-28T11:49:12Z</time>
      </trkpt>
      <trkpt lat="44.72996" lon="2.65533">
        <ele>666.8</ele>
        <time>2022-04-28T11:49:15Z</time>
      </trkpt>
      <trkpt lat="44.72994" lon="2.6553">
        <ele>666.6</ele>
        <time>2022-04-28T11:49:18Z</time>
      </trkpt>
      <trkpt lat="44.72993" lon="2.65529">
        <ele>666.2</ele>
        <time>2022-04-28T11:49:19Z</time>
      </trkpt>
      <trkpt lat="44.72991" lon="2.65526">
        <ele>665.4</ele>
        <time>2022-04-28T11:49:23Z</time>
      </trkpt>
      <trkpt lat="44.72989" lon="2.65524">
        <ele>664.2</ele>
        <time>2022-04-28T11:49:26Z</time>
      </trkpt>
      <trkpt lat="44.72988" lon="2.65522">
        <ele>663.8</ele>
        <time>2022-04-28T11:49:28Z</time>
      </trkpt>
      <trkpt lat="44.72983" lon="2.65516">
        <ele>663.4</ele>
        <time>2022-04-28T11:49:33Z</time>
      </trkpt>
      <trkpt lat="44.72983" lon="2.65515">
        <ele>663.2</ele>
        <time>2022-04-28T11:49:34Z</time>
      </trkpt>
      <trkpt lat="44.72982" lon="2.65514">
        <ele>663.2</ele>
        <time>2022-04-28T11:49:35Z</time>
      </trkpt>
      <trkpt lat="44.7298" lon="2.65513">
        <ele>663.2</ele>
        <time>2022-04-28T11:49:36Z</time>
      </trkpt>
      <trkpt lat="44.72977" lon="2.6551">
        <ele>663</ele>
        <time>2022-04-28T11:49:40Z</time>
      </trkpt>
      <trkpt lat="44.72975" lon="2.65509">
        <ele>662.8</ele>
        <time>2022-04-28T11:49:42Z</time>
      </trkpt>
      <trkpt lat="44.72972" lon="2.65502">
        <ele>662.2</ele>
        <time>2022-04-28T11:49:49Z</time>
      </trkpt>
      <trkpt lat="44.72972" lon="2.65501">
        <ele>662</ele>
        <time>2022-04-28T11:49:50Z</time>
      </trkpt>
      <trkpt lat="44.72972" lon="2.65492">
        <ele>661</ele>
        <time>2022-04-28T11:49:56Z</time>
      </trkpt>
      <trkpt lat="44.72972" lon="2.6549">
        <ele>660.8</ele>
        <time>2022-04-28T11:49:57Z</time>
      </trkpt>
      <trkpt lat="44.72972" lon="2.65487">
        <ele>660.6</ele>
        <time>2022-04-28T11:49:59Z</time>
      </trkpt>
      <trkpt lat="44.7297" lon="2.65483">
        <ele>660</ele>
        <time>2022-04-28T11:50:02Z</time>
      </trkpt>
      <trkpt lat="44.7297" lon="2.65482">
        <ele>659.8</ele>
        <time>2022-04-28T11:50:03Z</time>
      </trkpt>
      <trkpt lat="44.7297" lon="2.65477">
        <ele>659.4</ele>
        <time>2022-04-28T11:50:05Z</time>
      </trkpt>
      <trkpt lat="44.72969" lon="2.65473">
        <ele>659</ele>
        <time>2022-04-28T11:50:08Z</time>
      </trkpt>
      <trkpt lat="44.72969" lon="2.65471">
        <ele>658.8</ele>
        <time>2022-04-28T11:50:10Z</time>
      </trkpt>
      <trkpt lat="44.72968" lon="2.65469">
        <ele>658.4</ele>
        <time>2022-04-28T11:50:12Z</time>
      </trkpt>
      <trkpt lat="44.72968" lon="2.65468">
        <ele>658.2</ele>
        <time>2022-04-28T11:50:13Z</time>
      </trkpt>
      <trkpt lat="44.72969" lon="2.65466">
        <ele>657.8</ele>
        <time>2022-04-28T11:50:14Z</time>
      </trkpt>
      <trkpt lat="44.72968" lon="2.65463">
        <ele>657.4</ele>
        <time>2022-04-28T11:50:17Z</time>
      </trkpt>
      <trkpt lat="44.72969" lon="2.65461">
        <ele>657</ele>
        <time>2022-04-28T11:50:19Z</time>
      </trkpt>
      <trkpt lat="44.72971" lon="2.65456">
        <ele>656.8</ele>
        <time>2022-04-28T11:50:21Z</time>
      </trkpt>
      <trkpt lat="44.72971" lon="2.65453">
        <ele>656.6</ele>
        <time>2022-04-28T11:50:23Z</time>
      </trkpt>
      <trkpt lat="44.72974" lon="2.65449">
        <ele>655.8</ele>
        <time>2022-04-28T11:50:28Z</time>
      </trkpt>
      <trkpt lat="44.72974" lon="2.65448">
        <ele>655.6</ele>
        <time>2022-04-28T11:50:29Z</time>
      </trkpt>
      <trkpt lat="44.72974" lon="2.65448">
        <ele>655.4</ele>
        <time>2022-04-28T11:50:33Z</time>
      </trkpt>
      <trkpt lat="44.72974" lon="2.65448">
        <ele>655.4</ele>
        <time>2022-04-28T11:50:34Z</time>
      </trkpt>
      <trkpt lat="44.72973" lon="2.65448">
        <ele>655.4</ele>
        <time>2022-04-28T11:50:35Z</time>
      </trkpt>
      <trkpt lat="44.72975" lon="2.65447">
        <ele>654.8</ele>
        <time>2022-04-28T11:50:41Z</time>
      </trkpt>
      <trkpt lat="44.72975" lon="2.65447">
        <ele>654</ele>
        <time>2022-04-28T11:50:42Z</time>
      </trkpt>
      <trkpt lat="44.72976" lon="2.65437">
        <ele>653</ele>
        <time>2022-04-28T11:50:49Z</time>
      </trkpt>
      <trkpt lat="44.72977" lon="2.65432">
        <ele>652.2</ele>
        <time>2022-04-28T11:50:54Z</time>
      </trkpt>
      <trkpt lat="44.72977" lon="2.65432">
        <ele>651.8</ele>
        <time>2022-04-28T11:50:55Z</time>
      </trkpt>
      <trkpt lat="44.72976" lon="2.65432">
        <ele>651.8</ele>
        <time>2022-04-28T11:50:56Z</time>
      </trkpt>
      <trkpt lat="44.72974" lon="2.65429">
        <ele>651.8</ele>
        <time>2022-04-28T11:51:01Z</time>
      </trkpt>
      <trkpt lat="44.72972" lon="2.65426">
        <ele>651.6</ele>
        <time>2022-04-28T11:51:04Z</time>
      </trkpt>
      <trkpt lat="44.72972" lon="2.65424">
        <ele>650.8</ele>
        <time>2022-04-28T11:51:09Z</time>
      </trkpt>
      <trkpt lat="44.72973" lon="2.65421">
        <ele>650.4</ele>
        <time>2022-04-28T11:51:15Z</time>
      </trkpt>
      <trkpt lat="44.72976" lon="2.65418">
        <ele>650.2</ele>
        <time>2022-04-28T11:51:22Z</time>
      </trkpt>
      <trkpt lat="44.72977" lon="2.65414">
        <ele>649.6</ele>
        <time>2022-04-28T11:51:27Z</time>
      </trkpt>
      <trkpt lat="44.72982" lon="2.65412">
        <ele>649</ele>
        <time>2022-04-28T11:51:34Z</time>
      </trkpt>
      <trkpt lat="44.72987" lon="2.6541">
        <ele>648.8</ele>
        <time>2022-04-28T11:51:38Z</time>
      </trkpt>
      <trkpt lat="44.7299" lon="2.6541">
        <ele>648.8</ele>
        <time>2022-04-28T11:51:40Z</time>
      </trkpt>
      <trkpt lat="44.72994" lon="2.65411">
        <ele>648.8</ele>
        <time>2022-04-28T11:51:43Z</time>
      </trkpt>
      <trkpt lat="44.72995" lon="2.65412">
        <ele>648.6</ele>
        <time>2022-04-28T11:51:46Z</time>
      </trkpt>
      <trkpt lat="44.72999" lon="2.65411">
        <ele>648.4</ele>
        <time>2022-04-28T11:51:49Z</time>
      </trkpt>
      <trkpt lat="44.73" lon="2.65412">
        <ele>648.4</ele>
        <time>2022-04-28T11:51:50Z</time>
      </trkpt>
      <trkpt lat="44.73005" lon="2.65411">
        <ele>648.8</ele>
        <time>2022-04-28T11:51:57Z</time>
      </trkpt>
      <trkpt lat="44.73007" lon="2.65411">
        <ele>649.2</ele>
        <time>2022-04-28T11:52:01Z</time>
      </trkpt>
      <trkpt lat="44.73008" lon="2.65412">
        <ele>649.2</ele>
        <time>2022-04-28T11:52:03Z</time>
      </trkpt>
      <trkpt lat="44.73009" lon="2.65411">
        <ele>649.2</ele>
        <time>2022-04-28T11:52:04Z</time>
      </trkpt>
      <trkpt lat="44.73011" lon="2.65412">
        <ele>649.2</ele>
        <time>2022-04-28T11:52:05Z</time>
      </trkpt>
      <trkpt lat="44.73014" lon="2.65412">
        <ele>648.8</ele>
        <time>2022-04-28T11:52:10Z</time>
      </trkpt>
      <trkpt lat="44.73015" lon="2.65412">
        <ele>648.8</ele>
        <time>2022-04-28T11:52:11Z</time>
      </trkpt>
      <trkpt lat="44.73016" lon="2.65411">
        <ele>648.8</ele>
        <time>2022-04-28T11:52:13Z</time>
      </trkpt>
      <trkpt lat="44.73018" lon="2.65412">
        <ele>648.8</ele>
        <time>2022-04-28T11:52:15Z</time>
      </trkpt>
      <trkpt lat="44.73019" lon="2.65414">
        <ele>648.8</ele>
        <time>2022-04-28T11:52:17Z</time>
      </trkpt>
      <trkpt lat="44.7302" lon="2.65414">
        <ele>648.8</ele>
        <time>2022-04-28T11:52:19Z</time>
      </trkpt>
      <trkpt lat="44.73021" lon="2.65414">
        <ele>648.8</ele>
        <time>2022-04-28T11:52:20Z</time>
      </trkpt>
      <trkpt lat="44.73024" lon="2.65412">
        <ele>648.6</ele>
        <time>2022-04-28T11:52:23Z</time>
      </trkpt>
      <trkpt lat="44.7303" lon="2.65409">
        <ele>648.4</ele>
        <time>2022-04-28T11:52:30Z</time>
      </trkpt>
      <trkpt lat="44.7303" lon="2.65409">
        <ele>648.4</ele>
        <time>2022-04-28T11:52:31Z</time>
      </trkpt>
      <trkpt lat="44.73032" lon="2.6541">
        <ele>648.4</ele>
        <time>2022-04-28T11:52:32Z</time>
      </trkpt>
      <trkpt lat="44.73033" lon="2.65408">
        <ele>649</ele>
        <time>2022-04-28T11:52:34Z</time>
      </trkpt>
      <trkpt lat="44.73035" lon="2.65407">
        <ele>649.4</ele>
        <time>2022-04-28T11:52:36Z</time>
      </trkpt>
      <trkpt lat="44.73037" lon="2.65406">
        <ele>649.8</ele>
        <time>2022-04-28T11:52:38Z</time>
      </trkpt>
      <trkpt lat="44.73042" lon="2.65406">
        <ele>649.6</ele>
        <time>2022-04-28T11:52:40Z</time>
      </trkpt>
      <trkpt lat="44.73045" lon="2.65407">
        <ele>649.6</ele>
        <time>2022-04-28T11:52:42Z</time>
      </trkpt>
      <trkpt lat="44.73048" lon="2.65408">
        <ele>649.8</ele>
        <time>2022-04-28T11:52:44Z</time>
      </trkpt>
      <trkpt lat="44.73057" lon="2.65411">
        <ele>650.6</ele>
        <time>2022-04-28T11:52:51Z</time>
      </trkpt>
      <trkpt lat="44.73057" lon="2.65411">
        <ele>651</ele>
        <time>2022-04-28T11:52:52Z</time>
      </trkpt>
      <trkpt lat="44.73058" lon="2.65411">
        <ele>651</ele>
        <time>2022-04-28T11:52:53Z</time>
      </trkpt>
      <trkpt lat="44.73059" lon="2.65411">
        <ele>651.2</ele>
        <time>2022-04-28T11:52:54Z</time>
      </trkpt>
      <trkpt lat="44.7306" lon="2.6541">
        <ele>651.2</ele>
        <time>2022-04-28T11:52:56Z</time>
      </trkpt>
      <trkpt lat="44.7306" lon="2.6541">
        <ele>651.2</ele>
        <time>2022-04-28T11:52:58Z</time>
      </trkpt>
      <trkpt lat="44.73064" lon="2.65409">
        <ele>651.2</ele>
        <time>2022-04-28T11:53:05Z</time>
      </trkpt>
      <trkpt lat="44.73067" lon="2.65404">
        <ele>651.4</ele>
        <time>2022-04-28T11:53:13Z</time>
      </trkpt>
      <trkpt lat="44.73072" lon="2.65401">
        <ele>651.8</ele>
        <time>2022-04-28T11:53:20Z</time>
      </trkpt>
      <trkpt lat="44.73075" lon="2.65398">
        <ele>652</ele>
        <time>2022-04-28T11:53:22Z</time>
      </trkpt>
      <trkpt lat="44.73076" lon="2.65397">
        <ele>652.4</ele>
        <time>2022-04-28T11:53:23Z</time>
      </trkpt>
      <trkpt lat="44.7308" lon="2.65389">
        <ele>653.2</ele>
        <time>2022-04-28T11:53:29Z</time>
      </trkpt>
      <trkpt lat="44.73081" lon="2.65387">
        <ele>653.2</ele>
        <time>2022-04-28T11:53:30Z</time>
      </trkpt>
      <trkpt lat="44.73081" lon="2.65385">
        <ele>653.4</ele>
        <time>2022-04-28T11:53:31Z</time>
      </trkpt>
      <trkpt lat="44.73083" lon="2.65376">
        <ele>653.6</ele>
        <time>2022-04-28T11:53:37Z</time>
      </trkpt>
      <trkpt lat="44.73083" lon="2.6537">
        <ele>653</ele>
        <time>2022-04-28T11:53:41Z</time>
      </trkpt>
      <trkpt lat="44.73083" lon="2.65368">
        <ele>652.8</ele>
        <time>2022-04-28T11:53:43Z</time>
      </trkpt>
      <trkpt lat="44.73084" lon="2.65364">
        <ele>652.2</ele>
        <time>2022-04-28T11:53:46Z</time>
      </trkpt>
      <trkpt lat="44.73085" lon="2.65359">
        <ele>651.4</ele>
        <time>2022-04-28T11:53:51Z</time>
      </trkpt>
      <trkpt lat="44.73085" lon="2.65359">
        <ele>651.4</ele>
        <time>2022-04-28T11:53:53Z</time>
      </trkpt>
      <trkpt lat="44.73086" lon="2.65355">
        <ele>651</ele>
        <time>2022-04-28T11:53:56Z</time>
      </trkpt>
      <trkpt lat="44.73086" lon="2.65353">
        <ele>651</ele>
        <time>2022-04-28T11:53:57Z</time>
      </trkpt>
      <trkpt lat="44.7309" lon="2.65344">
        <ele>650.2</ele>
        <time>2022-04-28T11:54:04Z</time>
      </trkpt>
      <trkpt lat="44.73091" lon="2.65342">
        <ele>650</ele>
        <time>2022-04-28T11:54:06Z</time>
      </trkpt>
      <trkpt lat="44.73093" lon="2.65338">
        <ele>649.2</ele>
        <time>2022-04-28T11:54:11Z</time>
      </trkpt>
      <trkpt lat="44.73093" lon="2.65337">
        <ele>649</ele>
        <time>2022-04-28T11:54:12Z</time>
      </trkpt>
      <trkpt lat="44.73093" lon="2.65337">
        <ele>648.8</ele>
        <time>2022-04-28T11:54:13Z</time>
      </trkpt>
      <trkpt lat="44.73093" lon="2.65333">
        <ele>648.4</ele>
        <time>2022-04-28T11:54:16Z</time>
      </trkpt>
      <trkpt lat="44.73093" lon="2.6533">
        <ele>647.8</ele>
        <time>2022-04-28T11:54:19Z</time>
      </trkpt>
      <trkpt lat="44.73093" lon="2.65328">
        <ele>647.6</ele>
        <time>2022-04-28T11:54:20Z</time>
      </trkpt>
      <trkpt lat="44.73093" lon="2.65326">
        <ele>647.4</ele>
        <time>2022-04-28T11:54:21Z</time>
      </trkpt>
      <trkpt lat="44.73092" lon="2.65322">
        <ele>647</ele>
        <time>2022-04-28T11:54:24Z</time>
      </trkpt>
      <trkpt lat="44.73093" lon="2.65318">
        <ele>646.4</ele>
        <time>2022-04-28T11:54:26Z</time>
      </trkpt>
      <trkpt lat="44.73092" lon="2.65316">
        <ele>646.2</ele>
        <time>2022-04-28T11:54:27Z</time>
      </trkpt>
      <trkpt lat="44.73091" lon="2.65313">
        <ele>645.6</ele>
        <time>2022-04-28T11:54:30Z</time>
      </trkpt>
      <trkpt lat="44.73091" lon="2.65311">
        <ele>645.2</ele>
        <time>2022-04-28T11:54:32Z</time>
      </trkpt>
      <trkpt lat="44.73091" lon="2.65308">
        <ele>644.6</ele>
        <time>2022-04-28T11:54:36Z</time>
      </trkpt>
      <trkpt lat="44.7309" lon="2.65307">
        <ele>644.2</ele>
        <time>2022-04-28T11:54:38Z</time>
      </trkpt>
      <trkpt lat="44.73094" lon="2.65304">
        <ele>643.4</ele>
        <time>2022-04-28T11:54:44Z</time>
      </trkpt>
      <trkpt lat="44.73095" lon="2.65301">
        <ele>643.2</ele>
        <time>2022-04-28T11:54:47Z</time>
      </trkpt>
      <trkpt lat="44.73097" lon="2.65294">
        <ele>642.2</ele>
        <time>2022-04-28T11:54:52Z</time>
      </trkpt>
      <trkpt lat="44.73098" lon="2.65293">
        <ele>642</ele>
        <time>2022-04-28T11:54:54Z</time>
      </trkpt>
      <trkpt lat="44.73098" lon="2.65291">
        <ele>641.8</ele>
        <time>2022-04-28T11:54:55Z</time>
      </trkpt>
      <trkpt lat="44.73103" lon="2.65289">
        <ele>641</ele>
        <time>2022-04-28T11:54:59Z</time>
      </trkpt>
      <trkpt lat="44.73104" lon="2.65289">
        <ele>641</ele>
        <time>2022-04-28T11:55:00Z</time>
      </trkpt>
      <trkpt lat="44.73109" lon="2.65285">
        <ele>640.4</ele>
        <time>2022-04-28T11:55:06Z</time>
      </trkpt>
      <trkpt lat="44.73108" lon="2.65277">
        <ele>640.6</ele>
        <time>2022-04-28T11:55:11Z</time>
      </trkpt>
      <trkpt lat="44.73108" lon="2.65275">
        <ele>640.6</ele>
        <time>2022-04-28T11:55:12Z</time>
      </trkpt>
      <trkpt lat="44.73111" lon="2.65268">
        <ele>641</ele>
        <time>2022-04-28T11:55:18Z</time>
      </trkpt>
      <trkpt lat="44.73118" lon="2.65262">
        <ele>641.2</ele>
        <time>2022-04-28T11:55:25Z</time>
      </trkpt>
      <trkpt lat="44.73126" lon="2.65258">
        <ele>642</ele>
        <time>2022-04-28T11:55:33Z</time>
      </trkpt>
      <trkpt lat="44.73128" lon="2.65257">
        <ele>642</ele>
        <time>2022-04-28T11:55:34Z</time>
      </trkpt>
      <trkpt lat="44.7313" lon="2.65255">
        <ele>642.6</ele>
        <time>2022-04-28T11:55:36Z</time>
      </trkpt>
      <trkpt lat="44.73133" lon="2.65252">
        <ele>643</ele>
        <time>2022-04-28T11:55:40Z</time>
      </trkpt>
      <trkpt lat="44.73134" lon="2.65249">
        <ele>643</ele>
        <time>2022-04-28T11:55:42Z</time>
      </trkpt>
      <trkpt lat="44.73135" lon="2.65243">
        <ele>643.2</ele>
        <time>2022-04-28T11:55:47Z</time>
      </trkpt>
      <trkpt lat="44.73135" lon="2.65241">
        <ele>643.4</ele>
        <time>2022-04-28T11:55:48Z</time>
      </trkpt>
      <trkpt lat="44.73135" lon="2.65236">
        <ele>643.6</ele>
        <time>2022-04-28T11:55:52Z</time>
      </trkpt>
      <trkpt lat="44.73135" lon="2.65235">
        <ele>643.6</ele>
        <time>2022-04-28T11:55:53Z</time>
      </trkpt>
      <trkpt lat="44.73136" lon="2.65234">
        <ele>643.8</ele>
        <time>2022-04-28T11:55:54Z</time>
      </trkpt>
      <trkpt lat="44.73138" lon="2.65229">
        <ele>644.2</ele>
        <time>2022-04-28T11:55:58Z</time>
      </trkpt>
      <trkpt lat="44.73138" lon="2.65225">
        <ele>644.4</ele>
        <time>2022-04-28T11:56:01Z</time>
      </trkpt>
      <trkpt lat="44.73141" lon="2.65219">
        <ele>644.8</ele>
        <time>2022-04-28T11:56:07Z</time>
      </trkpt>
      <trkpt lat="44.73143" lon="2.65217">
        <ele>645</ele>
        <time>2022-04-28T11:56:09Z</time>
      </trkpt>
      <trkpt lat="44.73143" lon="2.65215">
        <ele>645.2</ele>
        <time>2022-04-28T11:56:10Z</time>
      </trkpt>
      <trkpt lat="44.73147" lon="2.65209">
        <ele>645.8</ele>
        <time>2022-04-28T11:56:16Z</time>
      </trkpt>
      <trkpt lat="44.73147" lon="2.65208">
        <ele>646</ele>
        <time>2022-04-28T11:56:17Z</time>
      </trkpt>
      <trkpt lat="44.73148" lon="2.65206">
        <ele>646.2</ele>
        <time>2022-04-28T11:56:19Z</time>
      </trkpt>
      <trkpt lat="44.73149" lon="2.65204">
        <ele>646.4</ele>
        <time>2022-04-28T11:56:20Z</time>
      </trkpt>
      <trkpt lat="44.73152" lon="2.65201">
        <ele>647</ele>
        <time>2022-04-28T11:56:23Z</time>
      </trkpt>
      <trkpt lat="44.73153" lon="2.652">
        <ele>647.2</ele>
        <time>2022-04-28T11:56:24Z</time>
      </trkpt>
      <trkpt lat="44.73154" lon="2.65198">
        <ele>647.2</ele>
        <time>2022-04-28T11:56:25Z</time>
      </trkpt>
      <trkpt lat="44.73157" lon="2.6519">
        <ele>647.8</ele>
        <time>2022-04-28T11:56:30Z</time>
      </trkpt>
      <trkpt lat="44.7316" lon="2.65185">
        <ele>648.4</ele>
        <time>2022-04-28T11:56:34Z</time>
      </trkpt>
      <trkpt lat="44.73161" lon="2.65182">
        <ele>648.6</ele>
        <time>2022-04-28T11:56:37Z</time>
      </trkpt>
      <trkpt lat="44.73162" lon="2.65178">
        <ele>649.4</ele>
        <time>2022-04-28T11:56:41Z</time>
      </trkpt>
      <trkpt lat="44.73163" lon="2.65177">
        <ele>649.4</ele>
        <time>2022-04-28T11:56:42Z</time>
      </trkpt>
      <trkpt lat="44.73164" lon="2.65177">
        <ele>649.6</ele>
        <time>2022-04-28T11:56:44Z</time>
      </trkpt>
      <trkpt lat="44.73171" lon="2.65174">
        <ele>650.2</ele>
        <time>2022-04-28T11:56:50Z</time>
      </trkpt>
      <trkpt lat="44.73171" lon="2.65174">
        <ele>650.4</ele>
        <time>2022-04-28T11:56:51Z</time>
      </trkpt>
      <trkpt lat="44.73172" lon="2.65173">
        <ele>650.6</ele>
        <time>2022-04-28T11:56:52Z</time>
      </trkpt>
      <trkpt lat="44.73177" lon="2.65166">
        <ele>651.4</ele>
        <time>2022-04-28T11:56:58Z</time>
      </trkpt>
      <trkpt lat="44.73178" lon="2.65166">
        <ele>651.4</ele>
        <time>2022-04-28T11:56:59Z</time>
      </trkpt>
      <trkpt lat="44.73183" lon="2.65163">
        <ele>652.4</ele>
        <time>2022-04-28T11:57:06Z</time>
      </trkpt>
      <trkpt lat="44.73183" lon="2.65162">
        <ele>652.6</ele>
        <time>2022-04-28T11:57:07Z</time>
      </trkpt>
      <trkpt lat="44.73185" lon="2.65158">
        <ele>653</ele>
        <time>2022-04-28T11:57:11Z</time>
      </trkpt>
      <trkpt lat="44.73189" lon="2.65155">
        <ele>653.4</ele>
        <time>2022-04-28T11:57:16Z</time>
      </trkpt>
      <trkpt lat="44.73189" lon="2.65155">
        <ele>653.6</ele>
        <time>2022-04-28T11:57:17Z</time>
      </trkpt>
      <trkpt lat="44.73192" lon="2.65154">
        <ele>654</ele>
        <time>2022-04-28T11:57:20Z</time>
      </trkpt>
      <trkpt lat="44.73196" lon="2.6515">
        <ele>654.4</ele>
        <time>2022-04-28T11:57:24Z</time>
      </trkpt>
      <trkpt lat="44.73197" lon="2.65149">
        <ele>654.4</ele>
        <time>2022-04-28T11:57:25Z</time>
      </trkpt>
      <trkpt lat="44.73199" lon="2.65149">
        <ele>654.6</ele>
        <time>2022-04-28T11:57:27Z</time>
      </trkpt>
      <trkpt lat="44.732" lon="2.65148">
        <ele>655</ele>
        <time>2022-04-28T11:57:28Z</time>
      </trkpt>
      <trkpt lat="44.73204" lon="2.65147">
        <ele>655.4</ele>
        <time>2022-04-28T11:57:31Z</time>
      </trkpt>
      <trkpt lat="44.73209" lon="2.65143">
        <ele>655.8</ele>
        <time>2022-04-28T11:57:35Z</time>
      </trkpt>
      <trkpt lat="44.73215" lon="2.65136">
        <ele>656.4</ele>
        <time>2022-04-28T11:57:40Z</time>
      </trkpt>
      <trkpt lat="44.73216" lon="2.65133">
        <ele>656.4</ele>
        <time>2022-04-28T11:57:42Z</time>
      </trkpt>
      <trkpt lat="44.73217" lon="2.65131">
        <ele>656.6</ele>
        <time>2022-04-28T11:57:44Z</time>
      </trkpt>
      <trkpt lat="44.73218" lon="2.6513">
        <ele>656.8</ele>
        <time>2022-04-28T11:57:45Z</time>
      </trkpt>
      <trkpt lat="44.73222" lon="2.65125">
        <ele>657.2</ele>
        <time>2022-04-28T11:57:49Z</time>
      </trkpt>
      <trkpt lat="44.73224" lon="2.6512">
        <ele>657.8</ele>
        <time>2022-04-28T11:57:52Z</time>
      </trkpt>
      <trkpt lat="44.73226" lon="2.65115">
        <ele>658.2</ele>
        <time>2022-04-28T11:57:56Z</time>
      </trkpt>
      <trkpt lat="44.73229" lon="2.65104">
        <ele>658.8</ele>
        <time>2022-04-28T11:58:04Z</time>
      </trkpt>
      <trkpt lat="44.73234" lon="2.65096">
        <ele>659.4</ele>
        <time>2022-04-28T11:58:10Z</time>
      </trkpt>
      <trkpt lat="44.73241" lon="2.65087">
        <ele>660</ele>
        <time>2022-04-28T11:58:17Z</time>
      </trkpt>
      <trkpt lat="44.73243" lon="2.65085">
        <ele>660</ele>
        <time>2022-04-28T11:58:19Z</time>
      </trkpt>
      <trkpt lat="44.73247" lon="2.65076">
        <ele>660.6</ele>
        <time>2022-04-28T11:58:27Z</time>
      </trkpt>
      <trkpt lat="44.73251" lon="2.65073">
        <ele>661</ele>
        <time>2022-04-28T11:58:32Z</time>
      </trkpt>
      <trkpt lat="44.73255" lon="2.65071">
        <ele>661.8</ele>
        <time>2022-04-28T11:58:36Z</time>
      </trkpt>
      <trkpt lat="44.73255" lon="2.6507">
        <ele>662.2</ele>
        <time>2022-04-28T11:58:37Z</time>
      </trkpt>
      <trkpt lat="44.73257" lon="2.6507">
        <ele>662.4</ele>
        <time>2022-04-28T11:58:40Z</time>
      </trkpt>
      <trkpt lat="44.73257" lon="2.65071">
        <ele>662.4</ele>
        <time>2022-04-28T11:58:42Z</time>
      </trkpt>
      <trkpt lat="44.73257" lon="2.65072">
        <ele>662.4</ele>
        <time>2022-04-28T11:58:45Z</time>
      </trkpt>
      <trkpt lat="44.73258" lon="2.65073">
        <ele>662.2</ele>
        <time>2022-04-28T11:58:47Z</time>
      </trkpt>
      <trkpt lat="44.73259" lon="2.65074">
        <ele>661.8</ele>
        <time>2022-04-28T11:58:49Z</time>
      </trkpt>
      <trkpt lat="44.73258" lon="2.65074">
        <ele>662</ele>
        <time>2022-04-28T11:58:51Z</time>
      </trkpt>
      <trkpt lat="44.73259" lon="2.65075">
        <ele>662</ele>
        <time>2022-04-28T11:58:57Z</time>
      </trkpt>
      <trkpt lat="44.73259" lon="2.65075">
        <ele>661.6</ele>
        <time>2022-04-28T11:59:05Z</time>
      </trkpt>
      <trkpt lat="44.73258" lon="2.65077">
        <ele>661.4</ele>
        <time>2022-04-28T11:59:12Z</time>
      </trkpt>
      <trkpt lat="44.73259" lon="2.65076">
        <ele>661.2</ele>
        <time>2022-04-28T11:59:19Z</time>
      </trkpt>
      <trkpt lat="44.73259" lon="2.65076">
        <ele>661</ele>
        <time>2022-04-28T11:59:20Z</time>
      </trkpt>
      <trkpt lat="44.73259" lon="2.65072">
        <ele>660.8</ele>
        <time>2022-04-28T11:59:29Z</time>
      </trkpt>
      <trkpt lat="44.73266" lon="2.65066">
        <ele>662</ele>
        <time>2022-04-28T11:59:36Z</time>
      </trkpt>
      <trkpt lat="44.73267" lon="2.65066">
        <ele>662.2</ele>
        <time>2022-04-28T11:59:37Z</time>
      </trkpt>
      <trkpt lat="44.73269" lon="2.6506">
        <ele>662.8</ele>
        <time>2022-04-28T11:59:42Z</time>
      </trkpt>
      <trkpt lat="44.73269" lon="2.65059">
        <ele>662.8</ele>
        <time>2022-04-28T11:59:43Z</time>
      </trkpt>
      <trkpt lat="44.73269" lon="2.65055">
        <ele>663</ele>
        <time>2022-04-28T11:59:45Z</time>
      </trkpt>
      <trkpt lat="44.7327" lon="2.65053">
        <ele>663.2</ele>
        <time>2022-04-28T11:59:46Z</time>
      </trkpt>
      <trkpt lat="44.7327" lon="2.65046">
        <ele>664.2</ele>
        <time>2022-04-28T11:59:51Z</time>
      </trkpt>
      <trkpt lat="44.7327" lon="2.65044">
        <ele>664.4</ele>
        <time>2022-04-28T11:59:52Z</time>
      </trkpt>
      <trkpt lat="44.73267" lon="2.65038">
        <ele>664.8</ele>
        <time>2022-04-28T11:59:58Z</time>
      </trkpt>
      <trkpt lat="44.73269" lon="2.65041">
        <ele>664.8</ele>
        <time>2022-04-28T12:00:01Z</time>
      </trkpt>
      <trkpt lat="44.73273" lon="2.65047">
        <ele>664.6</ele>
        <time>2022-04-28T12:00:06Z</time>
      </trkpt>
      <trkpt lat="44.73273" lon="2.65049">
        <ele>664.4</ele>
        <time>2022-04-28T12:00:09Z</time>
      </trkpt>
      <trkpt lat="44.73272" lon="2.65048">
        <ele>664.4</ele>
        <time>2022-04-28T12:00:11Z</time>
      </trkpt>
      <trkpt lat="44.73272" lon="2.65048">
        <ele>664.6</ele>
        <time>2022-04-28T12:00:14Z</time>
      </trkpt>
      <trkpt lat="44.73272" lon="2.65047">
        <ele>664.6</ele>
        <time>2022-04-28T12:00:15Z</time>
      </trkpt>
      <trkpt lat="44.73268" lon="2.6504">
        <ele>664.6</ele>
        <time>2022-04-28T12:00:25Z</time>
      </trkpt>
      <trkpt lat="44.73267" lon="2.65042">
        <ele>664.8</ele>
        <time>2022-04-28T12:00:35Z</time>
      </trkpt>
      <trkpt lat="44.73268" lon="2.65038">
        <ele>665.2</ele>
        <time>2022-04-28T12:00:46Z</time>
      </trkpt>
      <trkpt lat="44.73266" lon="2.65037">
        <ele>665.4</ele>
        <time>2022-04-28T12:00:48Z</time>
      </trkpt>
      <trkpt lat="44.73264" lon="2.65035">
        <ele>665.6</ele>
        <time>2022-04-28T12:00:51Z</time>
      </trkpt>
      <trkpt lat="44.73262" lon="2.65032">
        <ele>666.4</ele>
        <time>2022-04-28T12:00:54Z</time>
      </trkpt>
      <trkpt lat="44.73257" lon="2.65029">
        <ele>667</ele>
        <time>2022-04-28T12:01:01Z</time>
      </trkpt>
      <trkpt lat="44.73255" lon="2.6503">
        <ele>667.4</ele>
        <time>2022-04-28T12:01:03Z</time>
      </trkpt>
      <trkpt lat="44.73245" lon="2.65036">
        <ele>667.8</ele>
        <time>2022-04-28T12:01:13Z</time>
      </trkpt>
      <trkpt lat="44.73239" lon="2.6504">
        <ele>667.8</ele>
        <time>2022-04-28T12:01:19Z</time>
      </trkpt>
      <trkpt lat="44.73233" lon="2.65046">
        <ele>667</ele>
        <time>2022-04-28T12:01:27Z</time>
      </trkpt>
      <trkpt lat="44.7323" lon="2.6505">
        <ele>666.4</ele>
        <time>2022-04-28T12:01:33Z</time>
      </trkpt>
      <trkpt lat="44.73228" lon="2.6505">
        <ele>666.4</ele>
        <time>2022-04-28T12:01:41Z</time>
      </trkpt>
      <trkpt lat="44.73222" lon="2.65053">
        <ele>666.4</ele>
        <time>2022-04-28T12:01:53Z</time>
      </trkpt>
      <trkpt lat="44.7322" lon="2.65055">
        <ele>666.2</ele>
        <time>2022-04-28T12:02:10Z</time>
      </trkpt>
      <trkpt lat="44.73219" lon="2.65058">
        <ele>666.4</ele>
        <time>2022-04-28T12:02:21Z</time>
      </trkpt>
      <trkpt lat="44.73214" lon="2.65064">
        <ele>665.8</ele>
        <time>2022-04-28T12:02:28Z</time>
      </trkpt>
      <trkpt lat="44.73209" lon="2.65066">
        <ele>665.8</ele>
        <time>2022-04-28T12:02:33Z</time>
      </trkpt>
      <trkpt lat="44.73204" lon="2.65071">
        <ele>665.6</ele>
        <time>2022-04-28T12:02:40Z</time>
      </trkpt>
      <trkpt lat="44.73194" lon="2.6508">
        <ele>665.6</ele>
        <time>2022-04-28T12:02:49Z</time>
      </trkpt>
      <trkpt lat="44.73189" lon="2.65084">
        <ele>665.8</ele>
        <time>2022-04-28T12:02:56Z</time>
      </trkpt>
      <trkpt lat="44.73188" lon="2.65084">
        <ele>665.6</ele>
        <time>2022-04-28T12:02:58Z</time>
      </trkpt>
      <trkpt lat="44.73185" lon="2.65087">
        <ele>665.8</ele>
        <time>2022-04-28T12:03:03Z</time>
      </trkpt>
      <trkpt lat="44.73184" lon="2.65088">
        <ele>665.8</ele>
        <time>2022-04-28T12:03:05Z</time>
      </trkpt>
      <trkpt lat="44.73183" lon="2.65089">
        <ele>665.8</ele>
        <time>2022-04-28T12:03:06Z</time>
      </trkpt>
      <trkpt lat="44.73182" lon="2.6509">
        <ele>665.8</ele>
        <time>2022-04-28T12:03:08Z</time>
      </trkpt>
      <trkpt lat="44.73181" lon="2.65092">
        <ele>666</ele>
        <time>2022-04-28T12:03:10Z</time>
      </trkpt>
      <trkpt lat="44.7318" lon="2.65095">
        <ele>666.2</ele>
        <time>2022-04-28T12:03:12Z</time>
      </trkpt>
      <trkpt lat="44.7318" lon="2.65095">
        <ele>666.2</ele>
        <time>2022-04-28T12:03:13Z</time>
      </trkpt>
      <trkpt lat="44.73177" lon="2.65096">
        <ele>666</ele>
        <time>2022-04-28T12:03:16Z</time>
      </trkpt>
      <trkpt lat="44.73174" lon="2.65097">
        <ele>666.2</ele>
        <time>2022-04-28T12:03:19Z</time>
      </trkpt>
      <trkpt lat="44.73173" lon="2.65098">
        <ele>666.2</ele>
        <time>2022-04-28T12:03:22Z</time>
      </trkpt>
      <trkpt lat="44.73171" lon="2.65101">
        <ele>666.2</ele>
        <time>2022-04-28T12:03:26Z</time>
      </trkpt>
      <trkpt lat="44.73166" lon="2.65107">
        <ele>666.2</ele>
        <time>2022-04-28T12:03:32Z</time>
      </trkpt>
      <trkpt lat="44.73165" lon="2.65109">
        <ele>666.2</ele>
        <time>2022-04-28T12:03:35Z</time>
      </trkpt>
      <trkpt lat="44.73164" lon="2.6511">
        <ele>666.2</ele>
        <time>2022-04-28T12:03:36Z</time>
      </trkpt>
      <trkpt lat="44.73162" lon="2.65112">
        <ele>666.2</ele>
        <time>2022-04-28T12:03:38Z</time>
      </trkpt>
      <trkpt lat="44.73157" lon="2.65119">
        <ele>666.4</ele>
        <time>2022-04-28T12:03:42Z</time>
      </trkpt>
      <trkpt lat="44.73151" lon="2.65124">
        <ele>666.6</ele>
        <time>2022-04-28T12:03:47Z</time>
      </trkpt>
      <trkpt lat="44.73151" lon="2.65124">
        <ele>666.6</ele>
        <time>2022-04-28T12:03:48Z</time>
      </trkpt>
      <trkpt lat="44.73151" lon="2.65125">
        <ele>666.6</ele>
        <time>2022-04-28T12:03:52Z</time>
      </trkpt>
      <trkpt lat="44.7315" lon="2.65125">
        <ele>666.6</ele>
        <time>2022-04-28T12:03:53Z</time>
      </trkpt>
      <trkpt lat="44.7315" lon="2.65124">
        <ele>666.6</ele>
        <time>2022-04-28T12:03:54Z</time>
      </trkpt>
      <trkpt lat="44.73151" lon="2.65123">
        <ele>666.8</ele>
        <time>2022-04-28T12:03:59Z</time>
      </trkpt>
      <trkpt lat="44.73145" lon="2.65128">
        <ele>666.8</ele>
        <time>2022-04-28T12:04:04Z</time>
      </trkpt>
      <trkpt lat="44.73143" lon="2.6513">
        <ele>666.8</ele>
        <time>2022-04-28T12:04:06Z</time>
      </trkpt>
      <trkpt lat="44.73132" lon="2.65138">
        <ele>666.4</ele>
        <time>2022-04-28T12:04:15Z</time>
      </trkpt>
      <trkpt lat="44.73125" lon="2.65145">
        <ele>666.4</ele>
        <time>2022-04-28T12:04:21Z</time>
      </trkpt>
      <trkpt lat="44.73117" lon="2.65148">
        <ele>666.4</ele>
        <time>2022-04-28T12:04:27Z</time>
      </trkpt>
      <trkpt lat="44.73113" lon="2.65149">
        <ele>666.4</ele>
        <time>2022-04-28T12:04:31Z</time>
      </trkpt>
      <trkpt lat="44.7311" lon="2.65148">
        <ele>666.6</ele>
        <time>2022-04-28T12:04:34Z</time>
      </trkpt>
      <trkpt lat="44.731" lon="2.65146">
        <ele>667</ele>
        <time>2022-04-28T12:04:42Z</time>
      </trkpt>
      <trkpt lat="44.73091" lon="2.6514">
        <ele>667</ele>
        <time>2022-04-28T12:04:50Z</time>
      </trkpt>
      <trkpt lat="44.73088" lon="2.65136">
        <ele>666.6</ele>
        <time>2022-04-28T12:04:54Z</time>
      </trkpt>
      <trkpt lat="44.73084" lon="2.65131">
        <ele>666.2</ele>
        <time>2022-04-28T12:04:58Z</time>
      </trkpt>
      <trkpt lat="44.73073" lon="2.65125">
        <ele>666.2</ele>
        <time>2022-04-28T12:05:06Z</time>
      </trkpt>
      <trkpt lat="44.73066" lon="2.65119">
        <ele>666.4</ele>
        <time>2022-04-28T12:05:14Z</time>
      </trkpt>
      <trkpt lat="44.73064" lon="2.65118">
        <ele>666.4</ele>
        <time>2022-04-28T12:05:16Z</time>
      </trkpt>
      <trkpt lat="44.73058" lon="2.65116">
        <ele>666.4</ele>
        <time>2022-04-28T12:05:21Z</time>
      </trkpt>
      <trkpt lat="44.73051" lon="2.65113">
        <ele>666.8</ele>
        <time>2022-04-28T12:05:28Z</time>
      </trkpt>
      <trkpt lat="44.73043" lon="2.65109">
        <ele>667</ele>
        <time>2022-04-28T12:05:35Z</time>
      </trkpt>
      <trkpt lat="44.73037" lon="2.6511">
        <ele>667.4</ele>
        <time>2022-04-28T12:05:39Z</time>
      </trkpt>
      <trkpt lat="44.73034" lon="2.65111">
        <ele>667.4</ele>
        <time>2022-04-28T12:05:42Z</time>
      </trkpt>
      <trkpt lat="44.73034" lon="2.65112">
        <ele>667.4</ele>
        <time>2022-04-28T12:05:43Z</time>
      </trkpt>
      <trkpt lat="44.73031" lon="2.65111">
        <ele>667.4</ele>
        <time>2022-04-28T12:05:50Z</time>
      </trkpt>
      <trkpt lat="44.73025" lon="2.65107">
        <ele>667.4</ele>
        <time>2022-04-28T12:05:57Z</time>
      </trkpt>
      <trkpt lat="44.73023" lon="2.65106">
        <ele>667.4</ele>
        <time>2022-04-28T12:06:00Z</time>
      </trkpt>
      <trkpt lat="44.73019" lon="2.65102">
        <ele>667.4</ele>
        <time>2022-04-28T12:06:04Z</time>
      </trkpt>
      <trkpt lat="44.73013" lon="2.65091">
        <ele>668</ele>
        <time>2022-04-28T12:06:13Z</time>
      </trkpt>
      <trkpt lat="44.73009" lon="2.65085">
        <ele>668.4</ele>
        <time>2022-04-28T12:06:18Z</time>
      </trkpt>
      <trkpt lat="44.73009" lon="2.65085">
        <ele>668.6</ele>
        <time>2022-04-28T12:06:20Z</time>
      </trkpt>
      <trkpt lat="44.73007" lon="2.65074">
        <ele>668.8</ele>
        <time>2022-04-28T12:06:32Z</time>
      </trkpt>
      <trkpt lat="44.73008" lon="2.65065">
        <ele>669</ele>
        <time>2022-04-28T12:06:37Z</time>
      </trkpt>
      <trkpt lat="44.73008" lon="2.65057">
        <ele>669.4</ele>
        <time>2022-04-28T12:06:41Z</time>
      </trkpt>
      <trkpt lat="44.73009" lon="2.6505">
        <ele>669.8</ele>
        <time>2022-04-28T12:06:45Z</time>
      </trkpt>
      <trkpt lat="44.7301" lon="2.65028">
        <ele>670.4</ele>
        <time>2022-04-28T12:06:57Z</time>
      </trkpt>
      <trkpt lat="44.73011" lon="2.65021">
        <ele>670.6</ele>
        <time>2022-04-28T12:07:01Z</time>
      </trkpt>
      <trkpt lat="44.73012" lon="2.65009">
        <ele>671.4</ele>
        <time>2022-04-28T12:07:08Z</time>
      </trkpt>
      <trkpt lat="44.73012" lon="2.64993">
        <ele>672</ele>
        <time>2022-04-28T12:07:18Z</time>
      </trkpt>
      <trkpt lat="44.73013" lon="2.64982">
        <ele>672.6</ele>
        <time>2022-04-28T12:07:24Z</time>
      </trkpt>
      <trkpt lat="44.73014" lon="2.64971">
        <ele>673.2</ele>
        <time>2022-04-28T12:07:31Z</time>
      </trkpt>
      <trkpt lat="44.73016" lon="2.64963">
        <ele>673.6</ele>
        <time>2022-04-28T12:07:36Z</time>
      </trkpt>
      <trkpt lat="44.73021" lon="2.64951">
        <ele>674.2</ele>
        <time>2022-04-28T12:07:44Z</time>
      </trkpt>
      <trkpt lat="44.73024" lon="2.64945">
        <ele>674.2</ele>
        <time>2022-04-28T12:07:51Z</time>
      </trkpt>
      <trkpt lat="44.73024" lon="2.64944">
        <ele>674.2</ele>
        <time>2022-04-28T12:07:53Z</time>
      </trkpt>
      <trkpt lat="44.73029" lon="2.64935">
        <ele>674.6</ele>
        <time>2022-04-28T12:08:02Z</time>
      </trkpt>
      <trkpt lat="44.73039" lon="2.64912">
        <ele>675.2</ele>
        <time>2022-04-28T12:08:18Z</time>
      </trkpt>
      <trkpt lat="44.73049" lon="2.64904">
        <ele>675.4</ele>
        <time>2022-04-28T12:08:31Z</time>
      </trkpt>
      <trkpt lat="44.7305" lon="2.64907">
        <ele>675.2</ele>
        <time>2022-04-28T12:08:36Z</time>
      </trkpt>
      <trkpt lat="44.7305" lon="2.64907">
        <ele>675.2</ele>
        <time>2022-04-28T12:08:38Z</time>
      </trkpt>
    </trkseg>
  </trk>
</gpx>